<?xml version="1.0" encoding="UTF-8" standalone="no" ?>
<gpx xmlns="http://www.topografix.com/GPX/1/1" xmlns:xsi="http://www.w3.org/2001/XMLSchema-instance" xsi:schemaLocation="http://www.topografix.com/GPX/1/1 http://www.topografix.com/GPX/1/1/gpx.xsd" version="1.1" creator="VisuGPX - https://www.visugpx.com">
  <metadata>
    <name>Jura 2016 / Jour 4</name>
    <desc><![CDATA[Le mont depuis Métabief en passant par la Suisse]]></desc>
  </metadata>
  <trk>
    <name><![CDATA[Tracé 17 juil. 2016 09:25:07]]></name>
    <trkseg>
      <trkpt lat="46.77323" lon="6.35223">
        <ele>972</ele>
        <time>2016-07-17T07:25:07Z</time>
      </trkpt>
      <trkpt lat="46.77317" lon="6.35219">
        <ele>972</ele>
        <time>2016-07-17T07:30:58Z</time>
      </trkpt>
      <trkpt lat="46.77309" lon="6.35221">
        <ele>972</ele>
        <time>2016-07-17T07:31:01Z</time>
      </trkpt>
      <trkpt lat="46.77301" lon="6.35225">
        <ele>973</ele>
        <time>2016-07-17T07:31:06Z</time>
      </trkpt>
      <trkpt lat="46.77294" lon="6.3523">
        <ele>973</ele>
        <time>2016-07-17T07:31:11Z</time>
      </trkpt>
      <trkpt lat="46.77286" lon="6.35235">
        <ele>973</ele>
        <time>2016-07-17T07:31:16Z</time>
      </trkpt>
      <trkpt lat="46.77279" lon="6.35241">
        <ele>974</ele>
        <time>2016-07-17T07:31:21Z</time>
      </trkpt>
      <trkpt lat="46.77272" lon="6.35245">
        <ele>974</ele>
        <time>2016-07-17T07:31:25Z</time>
      </trkpt>
      <trkpt lat="46.77264" lon="6.35252">
        <ele>975</ele>
        <time>2016-07-17T07:31:30Z</time>
      </trkpt>
      <trkpt lat="46.77257" lon="6.35257">
        <ele>976</ele>
        <time>2016-07-17T07:31:34Z</time>
      </trkpt>
      <trkpt lat="46.77249" lon="6.35263">
        <ele>979</ele>
        <time>2016-07-17T07:31:39Z</time>
      </trkpt>
      <trkpt lat="46.77242" lon="6.35267">
        <ele>979</ele>
        <time>2016-07-17T07:31:43Z</time>
      </trkpt>
      <trkpt lat="46.77235" lon="6.3527">
        <ele>980</ele>
        <time>2016-07-17T07:31:47Z</time>
      </trkpt>
      <trkpt lat="46.77228" lon="6.35275">
        <ele>980</ele>
        <time>2016-07-17T07:31:51Z</time>
      </trkpt>
      <trkpt lat="46.77221" lon="6.35281">
        <ele>981</ele>
        <time>2016-07-17T07:31:56Z</time>
      </trkpt>
      <trkpt lat="46.77213" lon="6.35288">
        <ele>981</ele>
        <time>2016-07-17T07:32:01Z</time>
      </trkpt>
      <trkpt lat="46.77207" lon="6.35293">
        <ele>981</ele>
        <time>2016-07-17T07:32:05Z</time>
      </trkpt>
      <trkpt lat="46.77202" lon="6.35297">
        <ele>982</ele>
        <time>2016-07-17T07:32:09Z</time>
      </trkpt>
      <trkpt lat="46.77194" lon="6.35303">
        <ele>982</ele>
        <time>2016-07-17T07:32:14Z</time>
      </trkpt>
      <trkpt lat="46.77186" lon="6.35307">
        <ele>983</ele>
        <time>2016-07-17T07:32:19Z</time>
      </trkpt>
      <trkpt lat="46.7718" lon="6.35314">
        <ele>983</ele>
        <time>2016-07-17T07:32:23Z</time>
      </trkpt>
      <trkpt lat="46.77174" lon="6.35321">
        <ele>984</ele>
        <time>2016-07-17T07:32:29Z</time>
      </trkpt>
      <trkpt lat="46.77168" lon="6.35327">
        <ele>985</ele>
        <time>2016-07-17T07:32:33Z</time>
      </trkpt>
      <trkpt lat="46.77162" lon="6.35335">
        <ele>987</ele>
        <time>2016-07-17T07:32:38Z</time>
      </trkpt>
      <trkpt lat="46.77157" lon="6.35343">
        <ele>989</ele>
        <time>2016-07-17T07:32:42Z</time>
      </trkpt>
      <trkpt lat="46.7715" lon="6.35354">
        <ele>990</ele>
        <time>2016-07-17T07:32:47Z</time>
      </trkpt>
      <trkpt lat="46.77145" lon="6.35362">
        <ele>991</ele>
        <time>2016-07-17T07:32:51Z</time>
      </trkpt>
      <trkpt lat="46.77139" lon="6.35372">
        <ele>991</ele>
        <time>2016-07-17T07:32:56Z</time>
      </trkpt>
      <trkpt lat="46.77134" lon="6.35382">
        <ele>992</ele>
        <time>2016-07-17T07:33:01Z</time>
      </trkpt>
      <trkpt lat="46.77129" lon="6.35392">
        <ele>992</ele>
        <time>2016-07-17T07:33:06Z</time>
      </trkpt>
      <trkpt lat="46.77125" lon="6.35402">
        <ele>992</ele>
        <time>2016-07-17T07:33:11Z</time>
      </trkpt>
      <trkpt lat="46.77119" lon="6.35412">
        <ele>993</ele>
        <time>2016-07-17T07:33:16Z</time>
      </trkpt>
      <trkpt lat="46.77113" lon="6.35422">
        <ele>995</ele>
        <time>2016-07-17T07:33:21Z</time>
      </trkpt>
      <trkpt lat="46.77106" lon="6.35431">
        <ele>995</ele>
        <time>2016-07-17T07:33:26Z</time>
      </trkpt>
      <trkpt lat="46.77099" lon="6.35437">
        <ele>995</ele>
        <time>2016-07-17T07:33:30Z</time>
      </trkpt>
      <trkpt lat="46.77093" lon="6.35446">
        <ele>995</ele>
        <time>2016-07-17T07:33:36Z</time>
      </trkpt>
      <trkpt lat="46.77087" lon="6.35455">
        <ele>995</ele>
        <time>2016-07-17T07:33:41Z</time>
      </trkpt>
      <trkpt lat="46.77082" lon="6.35465">
        <ele>1000</ele>
        <time>2016-07-17T07:33:46Z</time>
      </trkpt>
      <trkpt lat="46.77075" lon="6.35473">
        <ele>1000</ele>
        <time>2016-07-17T07:33:50Z</time>
      </trkpt>
      <trkpt lat="46.77068" lon="6.35476">
        <ele>1000</ele>
        <time>2016-07-17T07:33:55Z</time>
      </trkpt>
      <trkpt lat="46.7706" lon="6.3548">
        <ele>1000</ele>
        <time>2016-07-17T07:33:58Z</time>
      </trkpt>
      <trkpt lat="46.77052" lon="6.35485">
        <ele>1000</ele>
        <time>2016-07-17T07:34:03Z</time>
      </trkpt>
      <trkpt lat="46.77043" lon="6.3549">
        <ele>1000</ele>
        <time>2016-07-17T07:34:07Z</time>
      </trkpt>
      <trkpt lat="46.77035" lon="6.35495">
        <ele>1001</ele>
        <time>2016-07-17T07:34:12Z</time>
      </trkpt>
      <trkpt lat="46.77028" lon="6.35502">
        <ele>1001</ele>
        <time>2016-07-17T07:34:17Z</time>
      </trkpt>
      <trkpt lat="46.7702" lon="6.35506">
        <ele>1002</ele>
        <time>2016-07-17T07:34:22Z</time>
      </trkpt>
      <trkpt lat="46.7701" lon="6.3551">
        <ele>1002</ele>
        <time>2016-07-17T07:34:27Z</time>
      </trkpt>
      <trkpt lat="46.77002" lon="6.35513">
        <ele>1002</ele>
        <time>2016-07-17T07:34:31Z</time>
      </trkpt>
      <trkpt lat="46.76994" lon="6.35519">
        <ele>1004</ele>
        <time>2016-07-17T07:34:36Z</time>
      </trkpt>
      <trkpt lat="46.76986" lon="6.35523">
        <ele>1004</ele>
        <time>2016-07-17T07:34:39Z</time>
      </trkpt>
      <trkpt lat="46.7698" lon="6.35527">
        <ele>1005</ele>
        <time>2016-07-17T07:34:43Z</time>
      </trkpt>
      <trkpt lat="46.7697" lon="6.35534">
        <ele>1005</ele>
        <time>2016-07-17T07:34:48Z</time>
      </trkpt>
      <trkpt lat="46.76963" lon="6.3554">
        <ele>1005</ele>
        <time>2016-07-17T07:34:52Z</time>
      </trkpt>
      <trkpt lat="46.76956" lon="6.35547">
        <ele>1006</ele>
        <time>2016-07-17T07:34:57Z</time>
      </trkpt>
      <trkpt lat="46.76947" lon="6.35559">
        <ele>1006</ele>
        <time>2016-07-17T07:35:01Z</time>
      </trkpt>
      <trkpt lat="46.76942" lon="6.35568">
        <ele>1006</ele>
        <time>2016-07-17T07:35:06Z</time>
      </trkpt>
      <trkpt lat="46.76936" lon="6.3558">
        <ele>1006</ele>
        <time>2016-07-17T07:35:11Z</time>
      </trkpt>
      <trkpt lat="46.76928" lon="6.35589">
        <ele>1006</ele>
        <time>2016-07-17T07:35:16Z</time>
      </trkpt>
      <trkpt lat="46.76921" lon="6.35599">
        <ele>1006</ele>
        <time>2016-07-17T07:35:20Z</time>
      </trkpt>
      <trkpt lat="46.76915" lon="6.35607">
        <ele>1009</ele>
        <time>2016-07-17T07:35:25Z</time>
      </trkpt>
      <trkpt lat="46.76909" lon="6.35613">
        <ele>1009</ele>
        <time>2016-07-17T07:35:30Z</time>
      </trkpt>
      <trkpt lat="46.76897" lon="6.35629">
        <ele>1009</ele>
        <time>2016-07-17T07:35:35Z</time>
      </trkpt>
      <trkpt lat="46.76888" lon="6.35641">
        <ele>1010</ele>
        <time>2016-07-17T07:35:40Z</time>
      </trkpt>
      <trkpt lat="46.76882" lon="6.3565">
        <ele>1010</ele>
        <time>2016-07-17T07:35:44Z</time>
      </trkpt>
      <trkpt lat="46.76876" lon="6.3566">
        <ele>1010</ele>
        <time>2016-07-17T07:35:49Z</time>
      </trkpt>
      <trkpt lat="46.76873" lon="6.3567">
        <ele>1009</ele>
        <time>2016-07-17T07:35:53Z</time>
      </trkpt>
      <trkpt lat="46.76871" lon="6.3568">
        <ele>1009</ele>
        <time>2016-07-17T07:35:57Z</time>
      </trkpt>
      <trkpt lat="46.76873" lon="6.35691">
        <ele>1009</ele>
        <time>2016-07-17T07:36:02Z</time>
      </trkpt>
      <trkpt lat="46.76877" lon="6.35704">
        <ele>1009</ele>
        <time>2016-07-17T07:36:05Z</time>
      </trkpt>
      <trkpt lat="46.76879" lon="6.35719">
        <ele>1009</ele>
        <time>2016-07-17T07:36:10Z</time>
      </trkpt>
      <trkpt lat="46.76882" lon="6.35741">
        <ele>1009</ele>
        <time>2016-07-17T07:36:15Z</time>
      </trkpt>
      <trkpt lat="46.76883" lon="6.35754">
        <ele>1009</ele>
        <time>2016-07-17T07:36:18Z</time>
      </trkpt>
      <trkpt lat="46.76887" lon="6.35777">
        <ele>1009</ele>
        <time>2016-07-17T07:36:22Z</time>
      </trkpt>
      <trkpt lat="46.7689" lon="6.35799">
        <ele>1010</ele>
        <time>2016-07-17T07:36:26Z</time>
      </trkpt>
      <trkpt lat="46.76892" lon="6.35824">
        <ele>1010</ele>
        <time>2016-07-17T07:36:31Z</time>
      </trkpt>
      <trkpt lat="46.76893" lon="6.35847">
        <ele>1011</ele>
        <time>2016-07-17T07:36:36Z</time>
      </trkpt>
      <trkpt lat="46.76895" lon="6.3587">
        <ele>1011</ele>
        <time>2016-07-17T07:36:41Z</time>
      </trkpt>
      <trkpt lat="46.76897" lon="6.35885">
        <ele>1012</ele>
        <time>2016-07-17T07:36:45Z</time>
      </trkpt>
      <trkpt lat="46.769" lon="6.35904">
        <ele>1012</ele>
        <time>2016-07-17T07:36:50Z</time>
      </trkpt>
      <trkpt lat="46.76901" lon="6.35919">
        <ele>1013</ele>
        <time>2016-07-17T07:36:54Z</time>
      </trkpt>
      <trkpt lat="46.76903" lon="6.35939">
        <ele>1014</ele>
        <time>2016-07-17T07:36:59Z</time>
      </trkpt>
      <trkpt lat="46.76903" lon="6.35955">
        <ele>1014</ele>
        <time>2016-07-17T07:37:03Z</time>
      </trkpt>
      <trkpt lat="46.76903" lon="6.35977">
        <ele>1015</ele>
        <time>2016-07-17T07:37:08Z</time>
      </trkpt>
      <trkpt lat="46.769" lon="6.35992">
        <ele>1015</ele>
        <time>2016-07-17T07:37:12Z</time>
      </trkpt>
      <trkpt lat="46.769" lon="6.36005">
        <ele>1017</ele>
        <time>2016-07-17T07:37:18Z</time>
      </trkpt>
      <trkpt lat="46.76899" lon="6.3602">
        <ele>1018</ele>
        <time>2016-07-17T07:37:22Z</time>
      </trkpt>
      <trkpt lat="46.76897" lon="6.36033">
        <ele>1018</ele>
        <time>2016-07-17T07:37:26Z</time>
      </trkpt>
      <trkpt lat="46.76896" lon="6.36045">
        <ele>1019</ele>
        <time>2016-07-17T07:37:30Z</time>
      </trkpt>
      <trkpt lat="46.76894" lon="6.36057">
        <ele>1019</ele>
        <time>2016-07-17T07:37:35Z</time>
      </trkpt>
      <trkpt lat="46.76894" lon="6.36072">
        <ele>1019</ele>
        <time>2016-07-17T07:37:39Z</time>
      </trkpt>
      <trkpt lat="46.76895" lon="6.36084">
        <ele>1021</ele>
        <time>2016-07-17T07:37:43Z</time>
      </trkpt>
      <trkpt lat="46.76899" lon="6.36098">
        <ele>1021</ele>
        <time>2016-07-17T07:37:48Z</time>
      </trkpt>
      <trkpt lat="46.76902" lon="6.36109">
        <ele>1022</ele>
        <time>2016-07-17T07:37:52Z</time>
      </trkpt>
      <trkpt lat="46.76902" lon="6.36121">
        <ele>1023</ele>
        <time>2016-07-17T07:37:56Z</time>
      </trkpt>
      <trkpt lat="46.769" lon="6.36134">
        <ele>1023</ele>
        <time>2016-07-17T07:38:01Z</time>
      </trkpt>
      <trkpt lat="46.76896" lon="6.36148">
        <ele>1024</ele>
        <time>2016-07-17T07:38:05Z</time>
      </trkpt>
      <trkpt lat="46.76893" lon="6.3616">
        <ele>1024</ele>
        <time>2016-07-17T07:38:09Z</time>
      </trkpt>
      <trkpt lat="46.76891" lon="6.36175">
        <ele>1027</ele>
        <time>2016-07-17T07:38:14Z</time>
      </trkpt>
      <trkpt lat="46.7689" lon="6.3619">
        <ele>1028</ele>
        <time>2016-07-17T07:38:19Z</time>
      </trkpt>
      <trkpt lat="46.7689" lon="6.36202">
        <ele>1029</ele>
        <time>2016-07-17T07:38:23Z</time>
      </trkpt>
      <trkpt lat="46.76891" lon="6.36217">
        <ele>1030</ele>
        <time>2016-07-17T07:38:28Z</time>
      </trkpt>
      <trkpt lat="46.76892" lon="6.36232">
        <ele>1030</ele>
        <time>2016-07-17T07:38:33Z</time>
      </trkpt>
      <trkpt lat="46.76892" lon="6.36244">
        <ele>1031</ele>
        <time>2016-07-17T07:38:37Z</time>
      </trkpt>
      <trkpt lat="46.76891" lon="6.36254">
        <ele>1034</ele>
        <time>2016-07-17T07:38:42Z</time>
      </trkpt>
      <trkpt lat="46.76889" lon="6.3627">
        <ele>1034</ele>
        <time>2016-07-17T07:38:45Z</time>
      </trkpt>
      <trkpt lat="46.76888" lon="6.36284">
        <ele>1034</ele>
        <time>2016-07-17T07:38:50Z</time>
      </trkpt>
      <trkpt lat="46.76886" lon="6.36294">
        <ele>1034</ele>
        <time>2016-07-17T07:38:54Z</time>
      </trkpt>
      <trkpt lat="46.76885" lon="6.36311">
        <ele>1035</ele>
        <time>2016-07-17T07:38:57Z</time>
      </trkpt>
      <trkpt lat="46.76884" lon="6.36329">
        <ele>1035</ele>
        <time>2016-07-17T07:39:02Z</time>
      </trkpt>
      <trkpt lat="46.76884" lon="6.36348">
        <ele>1038</ele>
        <time>2016-07-17T07:39:07Z</time>
      </trkpt>
      <trkpt lat="46.76885" lon="6.36363">
        <ele>1038</ele>
        <time>2016-07-17T07:39:11Z</time>
      </trkpt>
      <trkpt lat="46.76885" lon="6.36377">
        <ele>1039</ele>
        <time>2016-07-17T07:39:15Z</time>
      </trkpt>
      <trkpt lat="46.76887" lon="6.36395">
        <ele>1039</ele>
        <time>2016-07-17T07:39:20Z</time>
      </trkpt>
      <trkpt lat="46.76888" lon="6.36405">
        <ele>1040</ele>
        <time>2016-07-17T07:39:25Z</time>
      </trkpt>
      <trkpt lat="46.76889" lon="6.36428">
        <ele>1041</ele>
        <time>2016-07-17T07:39:29Z</time>
      </trkpt>
      <trkpt lat="46.76882" lon="6.36452">
        <ele>1041</ele>
        <time>2016-07-17T07:39:34Z</time>
      </trkpt>
      <trkpt lat="46.76876" lon="6.3647">
        <ele>1041</ele>
        <time>2016-07-17T07:39:38Z</time>
      </trkpt>
      <trkpt lat="46.7687" lon="6.36485">
        <ele>1042</ele>
        <time>2016-07-17T07:39:43Z</time>
      </trkpt>
      <trkpt lat="46.76861" lon="6.36503">
        <ele>1042</ele>
        <time>2016-07-17T07:39:47Z</time>
      </trkpt>
      <trkpt lat="46.76856" lon="6.36519">
        <ele>1042</ele>
        <time>2016-07-17T07:39:51Z</time>
      </trkpt>
      <trkpt lat="46.7685" lon="6.36538">
        <ele>1042</ele>
        <time>2016-07-17T07:39:56Z</time>
      </trkpt>
      <trkpt lat="46.76844" lon="6.36555">
        <ele>1043</ele>
        <time>2016-07-17T07:40:01Z</time>
      </trkpt>
      <trkpt lat="46.76839" lon="6.36569">
        <ele>1043</ele>
        <time>2016-07-17T07:40:05Z</time>
      </trkpt>
      <trkpt lat="46.76834" lon="6.36589">
        <ele>1045</ele>
        <time>2016-07-17T07:40:10Z</time>
      </trkpt>
      <trkpt lat="46.76829" lon="6.36605">
        <ele>1047</ele>
        <time>2016-07-17T07:40:14Z</time>
      </trkpt>
      <trkpt lat="46.76827" lon="6.36624">
        <ele>1048</ele>
        <time>2016-07-17T07:40:18Z</time>
      </trkpt>
      <trkpt lat="46.76822" lon="6.36643">
        <ele>1048</ele>
        <time>2016-07-17T07:40:22Z</time>
      </trkpt>
      <trkpt lat="46.76811" lon="6.3667">
        <ele>1050</ele>
        <time>2016-07-17T07:40:27Z</time>
      </trkpt>
      <trkpt lat="46.76804" lon="6.36689">
        <ele>1051</ele>
        <time>2016-07-17T07:40:31Z</time>
      </trkpt>
      <trkpt lat="46.76798" lon="6.36712">
        <ele>1052</ele>
        <time>2016-07-17T07:40:36Z</time>
      </trkpt>
      <trkpt lat="46.76803" lon="6.36737">
        <ele>1053</ele>
        <time>2016-07-17T07:40:41Z</time>
      </trkpt>
      <trkpt lat="46.76807" lon="6.36748">
        <ele>1052</ele>
        <time>2016-07-17T07:40:44Z</time>
      </trkpt>
      <trkpt lat="46.76811" lon="6.36762">
        <ele>1059</ele>
        <time>2016-07-17T07:40:48Z</time>
      </trkpt>
      <trkpt lat="46.76819" lon="6.36771">
        <ele>1059</ele>
        <time>2016-07-17T07:40:52Z</time>
      </trkpt>
      <trkpt lat="46.76827" lon="6.36785">
        <ele>1060</ele>
        <time>2016-07-17T07:40:57Z</time>
      </trkpt>
      <trkpt lat="46.76834" lon="6.36797">
        <ele>1052</ele>
        <time>2016-07-17T07:41:01Z</time>
      </trkpt>
      <trkpt lat="46.76839" lon="6.36815">
        <ele>1055</ele>
        <time>2016-07-17T07:41:06Z</time>
      </trkpt>
      <trkpt lat="46.76842" lon="6.36825">
        <ele>1057</ele>
        <time>2016-07-17T07:41:14Z</time>
      </trkpt>
      <trkpt lat="46.76847" lon="6.36832">
        <ele>1056</ele>
        <time>2016-07-17T07:41:19Z</time>
      </trkpt>
      <trkpt lat="46.7685" lon="6.36843">
        <ele>1060</ele>
        <time>2016-07-17T07:41:22Z</time>
      </trkpt>
      <trkpt lat="46.76852" lon="6.36855">
        <ele>1060</ele>
        <time>2016-07-17T07:41:28Z</time>
      </trkpt>
      <trkpt lat="46.76853" lon="6.3686">
        <ele>1060</ele>
        <time>2016-07-17T07:41:32Z</time>
      </trkpt>
      <trkpt lat="46.76856" lon="6.36874">
        <ele>1061</ele>
        <time>2016-07-17T07:41:37Z</time>
      </trkpt>
      <trkpt lat="46.76859" lon="6.36885">
        <ele>1062</ele>
        <time>2016-07-17T07:41:44Z</time>
      </trkpt>
      <trkpt lat="46.76861" lon="6.36896">
        <ele>1062</ele>
        <time>2016-07-17T07:41:49Z</time>
      </trkpt>
      <trkpt lat="46.76865" lon="6.36909">
        <ele>1063</ele>
        <time>2016-07-17T07:41:54Z</time>
      </trkpt>
      <trkpt lat="46.76871" lon="6.36918">
        <ele>1069</ele>
        <time>2016-07-17T07:42:00Z</time>
      </trkpt>
      <trkpt lat="46.76878" lon="6.36926">
        <ele>1069</ele>
        <time>2016-07-17T07:42:05Z</time>
      </trkpt>
      <trkpt lat="46.7688" lon="6.36938">
        <ele>1069</ele>
        <time>2016-07-17T07:42:10Z</time>
      </trkpt>
      <trkpt lat="46.76886" lon="6.36957">
        <ele>1070</ele>
        <time>2016-07-17T07:42:15Z</time>
      </trkpt>
      <trkpt lat="46.76888" lon="6.36971">
        <ele>1070</ele>
        <time>2016-07-17T07:42:19Z</time>
      </trkpt>
      <trkpt lat="46.76882" lon="6.36983">
        <ele>1071</ele>
        <time>2016-07-17T07:42:23Z</time>
      </trkpt>
      <trkpt lat="46.76876" lon="6.36991">
        <ele>1072</ele>
        <time>2016-07-17T07:42:28Z</time>
      </trkpt>
      <trkpt lat="46.76864" lon="6.36997">
        <ele>1073</ele>
        <time>2016-07-17T07:42:32Z</time>
      </trkpt>
      <trkpt lat="46.76858" lon="6.36997">
        <ele>1073</ele>
        <time>2016-07-17T07:42:36Z</time>
      </trkpt>
      <trkpt lat="46.76848" lon="6.37">
        <ele>1076</ele>
        <time>2016-07-17T07:42:40Z</time>
      </trkpt>
      <trkpt lat="46.7684" lon="6.37005">
        <ele>1077</ele>
        <time>2016-07-17T07:42:45Z</time>
      </trkpt>
      <trkpt lat="46.76835" lon="6.37017">
        <ele>1076</ele>
        <time>2016-07-17T07:42:50Z</time>
      </trkpt>
      <trkpt lat="46.76831" lon="6.37027">
        <ele>1081</ele>
        <time>2016-07-17T07:42:54Z</time>
      </trkpt>
      <trkpt lat="46.76828" lon="6.37039">
        <ele>1081</ele>
        <time>2016-07-17T07:42:59Z</time>
      </trkpt>
      <trkpt lat="46.76824" lon="6.37061">
        <ele>1080</ele>
        <time>2016-07-17T07:43:03Z</time>
      </trkpt>
      <trkpt lat="46.76813" lon="6.37078">
        <ele>1080</ele>
        <time>2016-07-17T07:43:07Z</time>
      </trkpt>
      <trkpt lat="46.76788" lon="6.37092">
        <ele>1076</ele>
        <time>2016-07-17T07:43:11Z</time>
      </trkpt>
      <trkpt lat="46.76767" lon="6.371">
        <ele>1078</ele>
        <time>2016-07-17T07:43:15Z</time>
      </trkpt>
      <trkpt lat="46.76747" lon="6.3711">
        <ele>1081</ele>
        <time>2016-07-17T07:43:20Z</time>
      </trkpt>
      <trkpt lat="46.76733" lon="6.37109">
        <ele>1081</ele>
        <time>2016-07-17T07:43:25Z</time>
      </trkpt>
      <trkpt lat="46.76729" lon="6.37101">
        <ele>1082</ele>
        <time>2016-07-17T07:43:28Z</time>
      </trkpt>
      <trkpt lat="46.7672" lon="6.371">
        <ele>1082</ele>
        <time>2016-07-17T07:43:34Z</time>
      </trkpt>
      <trkpt lat="46.76709" lon="6.37104">
        <ele>1083</ele>
        <time>2016-07-17T07:43:38Z</time>
      </trkpt>
      <trkpt lat="46.76697" lon="6.3711">
        <ele>1083</ele>
        <time>2016-07-17T07:43:42Z</time>
      </trkpt>
      <trkpt lat="46.76688" lon="6.37115">
        <ele>1083</ele>
        <time>2016-07-17T07:43:47Z</time>
      </trkpt>
      <trkpt lat="46.76679" lon="6.3712">
        <ele>1083</ele>
        <time>2016-07-17T07:43:51Z</time>
      </trkpt>
      <trkpt lat="46.76673" lon="6.37131">
        <ele>1082</ele>
        <time>2016-07-17T07:43:55Z</time>
      </trkpt>
      <trkpt lat="46.76658" lon="6.37131">
        <ele>1086</ele>
        <time>2016-07-17T07:44:00Z</time>
      </trkpt>
      <trkpt lat="46.76645" lon="6.37131">
        <ele>1087</ele>
        <time>2016-07-17T07:44:05Z</time>
      </trkpt>
      <trkpt lat="46.76636" lon="6.37132">
        <ele>1087</ele>
        <time>2016-07-17T07:44:09Z</time>
      </trkpt>
      <trkpt lat="46.76628" lon="6.37131">
        <ele>1087</ele>
        <time>2016-07-17T07:44:14Z</time>
      </trkpt>
      <trkpt lat="46.76621" lon="6.37126">
        <ele>1088</ele>
        <time>2016-07-17T07:44:18Z</time>
      </trkpt>
      <trkpt lat="46.76612" lon="6.37123">
        <ele>1089</ele>
        <time>2016-07-17T07:44:23Z</time>
      </trkpt>
      <trkpt lat="46.76604" lon="6.37118">
        <ele>1089</ele>
        <time>2016-07-17T07:44:27Z</time>
      </trkpt>
      <trkpt lat="46.76593" lon="6.37112">
        <ele>1090</ele>
        <time>2016-07-17T07:44:32Z</time>
      </trkpt>
      <trkpt lat="46.76585" lon="6.37111">
        <ele>1091</ele>
        <time>2016-07-17T07:44:36Z</time>
      </trkpt>
      <trkpt lat="46.76571" lon="6.37109">
        <ele>1092</ele>
        <time>2016-07-17T07:44:41Z</time>
      </trkpt>
      <trkpt lat="46.76557" lon="6.37106">
        <ele>1091</ele>
        <time>2016-07-17T07:44:46Z</time>
      </trkpt>
      <trkpt lat="46.76549" lon="6.37104">
        <ele>1091</ele>
        <time>2016-07-17T07:44:51Z</time>
      </trkpt>
      <trkpt lat="46.76542" lon="6.37103">
        <ele>1091</ele>
        <time>2016-07-17T07:44:57Z</time>
      </trkpt>
      <trkpt lat="46.76528" lon="6.37107">
        <ele>1091</ele>
        <time>2016-07-17T07:45:02Z</time>
      </trkpt>
      <trkpt lat="46.76516" lon="6.37102">
        <ele>1092</ele>
        <time>2016-07-17T07:45:07Z</time>
      </trkpt>
      <trkpt lat="46.76507" lon="6.37097">
        <ele>1093</ele>
        <time>2016-07-17T07:45:12Z</time>
      </trkpt>
      <trkpt lat="46.76493" lon="6.37093">
        <ele>1093</ele>
        <time>2016-07-17T07:45:16Z</time>
      </trkpt>
      <trkpt lat="46.76483" lon="6.37092">
        <ele>1092</ele>
        <time>2016-07-17T07:45:21Z</time>
      </trkpt>
      <trkpt lat="46.76473" lon="6.37091">
        <ele>1092</ele>
        <time>2016-07-17T07:45:26Z</time>
      </trkpt>
      <trkpt lat="46.76464" lon="6.37092">
        <ele>1092</ele>
        <time>2016-07-17T07:45:31Z</time>
      </trkpt>
      <trkpt lat="46.76457" lon="6.37089">
        <ele>1092</ele>
        <time>2016-07-17T07:45:37Z</time>
      </trkpt>
      <trkpt lat="46.76451" lon="6.3708">
        <ele>1099</ele>
        <time>2016-07-17T07:45:44Z</time>
      </trkpt>
      <trkpt lat="46.76455" lon="6.37089">
        <ele>1092</ele>
        <time>2016-07-17T07:46:00Z</time>
      </trkpt>
      <trkpt lat="46.76462" lon="6.37096">
        <ele>1092</ele>
        <time>2016-07-17T07:46:14Z</time>
      </trkpt>
      <trkpt lat="46.76467" lon="6.37114">
        <ele>1091</ele>
        <time>2016-07-17T07:46:19Z</time>
      </trkpt>
      <trkpt lat="46.76476" lon="6.37144">
        <ele>1088</ele>
        <time>2016-07-17T07:46:23Z</time>
      </trkpt>
      <trkpt lat="46.76481" lon="6.37165">
        <ele>1087</ele>
        <time>2016-07-17T07:46:28Z</time>
      </trkpt>
      <trkpt lat="46.76479" lon="6.37191">
        <ele>1078</ele>
        <time>2016-07-17T07:46:32Z</time>
      </trkpt>
      <trkpt lat="46.76459" lon="6.37211">
        <ele>1076</ele>
        <time>2016-07-17T07:46:36Z</time>
      </trkpt>
      <trkpt lat="46.76438" lon="6.37218">
        <ele>1075</ele>
        <time>2016-07-17T07:46:40Z</time>
      </trkpt>
      <trkpt lat="46.76424" lon="6.37224">
        <ele>1074</ele>
        <time>2016-07-17T07:46:43Z</time>
      </trkpt>
      <trkpt lat="46.76408" lon="6.37229">
        <ele>1074</ele>
        <time>2016-07-17T07:46:47Z</time>
      </trkpt>
      <trkpt lat="46.76388" lon="6.37233">
        <ele>1075</ele>
        <time>2016-07-17T07:46:52Z</time>
      </trkpt>
      <trkpt lat="46.76369" lon="6.37237">
        <ele>1076</ele>
        <time>2016-07-17T07:46:57Z</time>
      </trkpt>
      <trkpt lat="46.76356" lon="6.37224">
        <ele>1077</ele>
        <time>2016-07-17T07:47:01Z</time>
      </trkpt>
      <trkpt lat="46.76343" lon="6.37213">
        <ele>1078</ele>
        <time>2016-07-17T07:47:05Z</time>
      </trkpt>
      <trkpt lat="46.76323" lon="6.37201">
        <ele>1079</ele>
        <time>2016-07-17T07:47:09Z</time>
      </trkpt>
      <trkpt lat="46.76301" lon="6.37201">
        <ele>1079</ele>
        <time>2016-07-17T07:47:14Z</time>
      </trkpt>
      <trkpt lat="46.76287" lon="6.37197">
        <ele>1078</ele>
        <time>2016-07-17T07:47:18Z</time>
      </trkpt>
      <trkpt lat="46.76266" lon="6.37189">
        <ele>1078</ele>
        <time>2016-07-17T07:47:22Z</time>
      </trkpt>
      <trkpt lat="46.76238" lon="6.37184">
        <ele>1073</ele>
        <time>2016-07-17T07:47:26Z</time>
      </trkpt>
      <trkpt lat="46.76226" lon="6.37189">
        <ele>1072</ele>
        <time>2016-07-17T07:47:30Z</time>
      </trkpt>
      <trkpt lat="46.76206" lon="6.3719">
        <ele>1070</ele>
        <time>2016-07-17T07:47:35Z</time>
      </trkpt>
      <trkpt lat="46.76199" lon="6.37182">
        <ele>1069</ele>
        <time>2016-07-17T07:47:49Z</time>
      </trkpt>
      <trkpt lat="46.76191" lon="6.37178">
        <ele>1068</ele>
        <time>2016-07-17T07:47:55Z</time>
      </trkpt>
      <trkpt lat="46.76183" lon="6.3718">
        <ele>1067</ele>
        <time>2016-07-17T07:48:00Z</time>
      </trkpt>
      <trkpt lat="46.76175" lon="6.37176">
        <ele>1065</ele>
        <time>2016-07-17T07:48:05Z</time>
      </trkpt>
      <trkpt lat="46.7616" lon="6.37169">
        <ele>1062</ele>
        <time>2016-07-17T07:48:09Z</time>
      </trkpt>
      <trkpt lat="46.76148" lon="6.37158">
        <ele>1063</ele>
        <time>2016-07-17T07:48:13Z</time>
      </trkpt>
      <trkpt lat="46.76138" lon="6.37151">
        <ele>1063</ele>
        <time>2016-07-17T07:48:18Z</time>
      </trkpt>
      <trkpt lat="46.7613" lon="6.37152">
        <ele>1063</ele>
        <time>2016-07-17T07:48:23Z</time>
      </trkpt>
      <trkpt lat="46.76122" lon="6.37154">
        <ele>1063</ele>
        <time>2016-07-17T07:48:30Z</time>
      </trkpt>
      <trkpt lat="46.76118" lon="6.37145">
        <ele>1063</ele>
        <time>2016-07-17T07:48:48Z</time>
      </trkpt>
      <trkpt lat="46.76109" lon="6.3714">
        <ele>1063</ele>
        <time>2016-07-17T07:48:53Z</time>
      </trkpt>
      <trkpt lat="46.76101" lon="6.37138">
        <ele>1063</ele>
        <time>2016-07-17T07:48:57Z</time>
      </trkpt>
      <trkpt lat="46.76087" lon="6.37133">
        <ele>1062</ele>
        <time>2016-07-17T07:49:01Z</time>
      </trkpt>
      <trkpt lat="46.7608" lon="6.37131">
        <ele>1061</ele>
        <time>2016-07-17T07:49:09Z</time>
      </trkpt>
      <trkpt lat="46.76052" lon="6.37115">
        <ele>1061</ele>
        <time>2016-07-17T07:49:13Z</time>
      </trkpt>
      <trkpt lat="46.7604" lon="6.37115">
        <ele>1061</ele>
        <time>2016-07-17T07:49:17Z</time>
      </trkpt>
      <trkpt lat="46.76026" lon="6.37114">
        <ele>1061</ele>
        <time>2016-07-17T07:49:21Z</time>
      </trkpt>
      <trkpt lat="46.76013" lon="6.37118">
        <ele>1061</ele>
        <time>2016-07-17T07:49:25Z</time>
      </trkpt>
      <trkpt lat="46.76003" lon="6.37125">
        <ele>1061</ele>
        <time>2016-07-17T07:49:29Z</time>
      </trkpt>
      <trkpt lat="46.75995" lon="6.37125">
        <ele>1062</ele>
        <time>2016-07-17T07:49:34Z</time>
      </trkpt>
      <trkpt lat="46.75983" lon="6.37126">
        <ele>1062</ele>
        <time>2016-07-17T07:49:38Z</time>
      </trkpt>
      <trkpt lat="46.75972" lon="6.37128">
        <ele>1062</ele>
        <time>2016-07-17T07:49:42Z</time>
      </trkpt>
      <trkpt lat="46.7596" lon="6.37131">
        <ele>1061</ele>
        <time>2016-07-17T07:49:46Z</time>
      </trkpt>
      <trkpt lat="46.75947" lon="6.37131">
        <ele>1061</ele>
        <time>2016-07-17T07:49:51Z</time>
      </trkpt>
      <trkpt lat="46.75926" lon="6.37132">
        <ele>1061</ele>
        <time>2016-07-17T07:49:56Z</time>
      </trkpt>
      <trkpt lat="46.75913" lon="6.37131">
        <ele>1056</ele>
        <time>2016-07-17T07:50:00Z</time>
      </trkpt>
      <trkpt lat="46.75893" lon="6.37131">
        <ele>1055</ele>
        <time>2016-07-17T07:50:05Z</time>
      </trkpt>
      <trkpt lat="46.75876" lon="6.3713">
        <ele>1053</ele>
        <time>2016-07-17T07:50:09Z</time>
      </trkpt>
      <trkpt lat="46.75856" lon="6.37124">
        <ele>1051</ele>
        <time>2016-07-17T07:50:14Z</time>
      </trkpt>
      <trkpt lat="46.75836" lon="6.37127">
        <ele>1050</ele>
        <time>2016-07-17T07:50:19Z</time>
      </trkpt>
      <trkpt lat="46.75824" lon="6.3713">
        <ele>1044</ele>
        <time>2016-07-17T07:50:23Z</time>
      </trkpt>
      <trkpt lat="46.75817" lon="6.37123">
        <ele>1044</ele>
        <time>2016-07-17T07:50:44Z</time>
      </trkpt>
      <trkpt lat="46.75818" lon="6.3711">
        <ele>1045</ele>
        <time>2016-07-17T07:50:49Z</time>
      </trkpt>
      <trkpt lat="46.75815" lon="6.37099">
        <ele>1046</ele>
        <time>2016-07-17T07:50:55Z</time>
      </trkpt>
      <trkpt lat="46.75807" lon="6.37098">
        <ele>1046</ele>
        <time>2016-07-17T07:51:04Z</time>
      </trkpt>
      <trkpt lat="46.75799" lon="6.37097">
        <ele>1046</ele>
        <time>2016-07-17T07:51:14Z</time>
      </trkpt>
      <trkpt lat="46.75791" lon="6.37096">
        <ele>1046</ele>
        <time>2016-07-17T07:51:19Z</time>
      </trkpt>
      <trkpt lat="46.75783" lon="6.37096">
        <ele>1046</ele>
        <time>2016-07-17T07:51:25Z</time>
      </trkpt>
      <trkpt lat="46.75774" lon="6.37095">
        <ele>1046</ele>
        <time>2016-07-17T07:51:29Z</time>
      </trkpt>
      <trkpt lat="46.75766" lon="6.37093">
        <ele>1047</ele>
        <time>2016-07-17T07:51:34Z</time>
      </trkpt>
      <trkpt lat="46.75756" lon="6.37095">
        <ele>1048</ele>
        <time>2016-07-17T07:51:39Z</time>
      </trkpt>
      <trkpt lat="46.75748" lon="6.37094">
        <ele>1048</ele>
        <time>2016-07-17T07:51:46Z</time>
      </trkpt>
      <trkpt lat="46.7574" lon="6.37093">
        <ele>1048</ele>
        <time>2016-07-17T07:51:52Z</time>
      </trkpt>
      <trkpt lat="46.75735" lon="6.37082">
        <ele>1057</ele>
        <time>2016-07-17T07:52:02Z</time>
      </trkpt>
      <trkpt lat="46.75729" lon="6.37074">
        <ele>1060</ele>
        <time>2016-07-17T07:52:11Z</time>
      </trkpt>
      <trkpt lat="46.75721" lon="6.37072">
        <ele>1061</ele>
        <time>2016-07-17T07:52:19Z</time>
      </trkpt>
      <trkpt lat="46.75714" lon="6.37066">
        <ele>1062</ele>
        <time>2016-07-17T07:52:25Z</time>
      </trkpt>
      <trkpt lat="46.75706" lon="6.37065">
        <ele>1063</ele>
        <time>2016-07-17T07:52:53Z</time>
      </trkpt>
      <trkpt lat="46.75699" lon="6.37057">
        <ele>1064</ele>
        <time>2016-07-17T07:52:59Z</time>
      </trkpt>
      <trkpt lat="46.75692" lon="6.37051">
        <ele>1065</ele>
        <time>2016-07-17T07:53:05Z</time>
      </trkpt>
      <trkpt lat="46.75685" lon="6.37045">
        <ele>1066</ele>
        <time>2016-07-17T07:53:13Z</time>
      </trkpt>
      <trkpt lat="46.75678" lon="6.37039">
        <ele>1067</ele>
        <time>2016-07-17T07:54:21Z</time>
      </trkpt>
      <trkpt lat="46.75671" lon="6.37035">
        <ele>1068</ele>
        <time>2016-07-17T07:54:24Z</time>
      </trkpt>
      <trkpt lat="46.7566" lon="6.3703">
        <ele>1070</ele>
        <time>2016-07-17T07:54:28Z</time>
      </trkpt>
      <trkpt lat="46.75651" lon="6.37029">
        <ele>1070</ele>
        <time>2016-07-17T07:54:34Z</time>
      </trkpt>
      <trkpt lat="46.75644" lon="6.37023">
        <ele>1070</ele>
        <time>2016-07-17T07:54:43Z</time>
      </trkpt>
      <trkpt lat="46.75636" lon="6.37017">
        <ele>1071</ele>
        <time>2016-07-17T07:54:48Z</time>
      </trkpt>
      <trkpt lat="46.75627" lon="6.37014">
        <ele>1071</ele>
        <time>2016-07-17T07:55:09Z</time>
      </trkpt>
      <trkpt lat="46.75622" lon="6.37009">
        <ele>1071</ele>
        <time>2016-07-17T07:55:18Z</time>
      </trkpt>
      <trkpt lat="46.75612" lon="6.37009">
        <ele>1072</ele>
        <time>2016-07-17T07:55:21Z</time>
      </trkpt>
      <trkpt lat="46.75607" lon="6.37011">
        <ele>1072</ele>
        <time>2016-07-17T07:55:24Z</time>
      </trkpt>
      <trkpt lat="46.75597" lon="6.37009">
        <ele>1073</ele>
        <time>2016-07-17T07:55:29Z</time>
      </trkpt>
      <trkpt lat="46.75588" lon="6.37009">
        <ele>1075</ele>
        <time>2016-07-17T07:55:48Z</time>
      </trkpt>
      <trkpt lat="46.75582" lon="6.37002">
        <ele>1078</ele>
        <time>2016-07-17T07:55:55Z</time>
      </trkpt>
      <trkpt lat="46.75574" lon="6.36998">
        <ele>1081</ele>
        <time>2016-07-17T07:56:13Z</time>
      </trkpt>
      <trkpt lat="46.75565" lon="6.36997">
        <ele>1083</ele>
        <time>2016-07-17T07:56:22Z</time>
      </trkpt>
      <trkpt lat="46.75557" lon="6.36992">
        <ele>1083</ele>
        <time>2016-07-17T07:56:28Z</time>
      </trkpt>
      <trkpt lat="46.75549" lon="6.36989">
        <ele>1084</ele>
        <time>2016-07-17T07:56:35Z</time>
      </trkpt>
      <trkpt lat="46.75541" lon="6.36988">
        <ele>1084</ele>
        <time>2016-07-17T07:56:49Z</time>
      </trkpt>
      <trkpt lat="46.75532" lon="6.3699">
        <ele>1083</ele>
        <time>2016-07-17T07:56:54Z</time>
      </trkpt>
      <trkpt lat="46.75525" lon="6.36989">
        <ele>1083</ele>
        <time>2016-07-17T07:57:00Z</time>
      </trkpt>
      <trkpt lat="46.75518" lon="6.36986">
        <ele>1083</ele>
        <time>2016-07-17T07:57:04Z</time>
      </trkpt>
      <trkpt lat="46.75509" lon="6.36985">
        <ele>1082</ele>
        <time>2016-07-17T07:57:11Z</time>
      </trkpt>
      <trkpt lat="46.75501" lon="6.3698">
        <ele>1082</ele>
        <time>2016-07-17T07:57:16Z</time>
      </trkpt>
      <trkpt lat="46.75492" lon="6.36978">
        <ele>1082</ele>
        <time>2016-07-17T07:57:21Z</time>
      </trkpt>
      <trkpt lat="46.75483" lon="6.36977">
        <ele>1082</ele>
        <time>2016-07-17T07:57:26Z</time>
      </trkpt>
      <trkpt lat="46.75475" lon="6.36973">
        <ele>1083</ele>
        <time>2016-07-17T07:57:30Z</time>
      </trkpt>
      <trkpt lat="46.75467" lon="6.3697">
        <ele>1083</ele>
        <time>2016-07-17T07:57:34Z</time>
      </trkpt>
      <trkpt lat="46.75458" lon="6.36966">
        <ele>1083</ele>
        <time>2016-07-17T07:57:38Z</time>
      </trkpt>
      <trkpt lat="46.7545" lon="6.36965">
        <ele>1083</ele>
        <time>2016-07-17T07:57:44Z</time>
      </trkpt>
      <trkpt lat="46.75442" lon="6.36962">
        <ele>1084</ele>
        <time>2016-07-17T07:57:49Z</time>
      </trkpt>
      <trkpt lat="46.75433" lon="6.36962">
        <ele>1083</ele>
        <time>2016-07-17T07:57:56Z</time>
      </trkpt>
      <trkpt lat="46.75426" lon="6.36962">
        <ele>1083</ele>
        <time>2016-07-17T07:58:02Z</time>
      </trkpt>
      <trkpt lat="46.75417" lon="6.36962">
        <ele>1083</ele>
        <time>2016-07-17T07:58:08Z</time>
      </trkpt>
      <trkpt lat="46.75409" lon="6.36963">
        <ele>1084</ele>
        <time>2016-07-17T07:58:14Z</time>
      </trkpt>
      <trkpt lat="46.75402" lon="6.3696">
        <ele>1085</ele>
        <time>2016-07-17T07:58:19Z</time>
      </trkpt>
      <trkpt lat="46.75393" lon="6.36959">
        <ele>1085</ele>
        <time>2016-07-17T07:58:26Z</time>
      </trkpt>
      <trkpt lat="46.75385" lon="6.36959">
        <ele>1085</ele>
        <time>2016-07-17T07:58:31Z</time>
      </trkpt>
      <trkpt lat="46.75377" lon="6.36958">
        <ele>1085</ele>
        <time>2016-07-17T07:58:36Z</time>
      </trkpt>
      <trkpt lat="46.7537" lon="6.36956">
        <ele>1086</ele>
        <time>2016-07-17T07:58:41Z</time>
      </trkpt>
      <trkpt lat="46.75361" lon="6.36956">
        <ele>1086</ele>
        <time>2016-07-17T07:58:46Z</time>
      </trkpt>
      <trkpt lat="46.75354" lon="6.36952">
        <ele>1087</ele>
        <time>2016-07-17T07:58:50Z</time>
      </trkpt>
      <trkpt lat="46.75344" lon="6.36944">
        <ele>1089</ele>
        <time>2016-07-17T07:58:55Z</time>
      </trkpt>
      <trkpt lat="46.75336" lon="6.36943">
        <ele>1090</ele>
        <time>2016-07-17T07:59:00Z</time>
      </trkpt>
      <trkpt lat="46.75327" lon="6.36939">
        <ele>1089</ele>
        <time>2016-07-17T07:59:05Z</time>
      </trkpt>
      <trkpt lat="46.75322" lon="6.36937">
        <ele>1089</ele>
        <time>2016-07-17T07:59:08Z</time>
      </trkpt>
      <trkpt lat="46.75312" lon="6.36933">
        <ele>1089</ele>
        <time>2016-07-17T07:59:13Z</time>
      </trkpt>
      <trkpt lat="46.75305" lon="6.36928">
        <ele>1088</ele>
        <time>2016-07-17T07:59:17Z</time>
      </trkpt>
      <trkpt lat="46.75298" lon="6.36921">
        <ele>1088</ele>
        <time>2016-07-17T07:59:25Z</time>
      </trkpt>
      <trkpt lat="46.75291" lon="6.36913">
        <ele>1102</ele>
        <time>2016-07-17T07:59:29Z</time>
      </trkpt>
      <trkpt lat="46.75284" lon="6.3691">
        <ele>1102</ele>
        <time>2016-07-17T07:59:34Z</time>
      </trkpt>
      <trkpt lat="46.75275" lon="6.36906">
        <ele>1101</ele>
        <time>2016-07-17T07:59:38Z</time>
      </trkpt>
      <trkpt lat="46.75266" lon="6.36902">
        <ele>1101</ele>
        <time>2016-07-17T07:59:42Z</time>
      </trkpt>
      <trkpt lat="46.75263" lon="6.3689">
        <ele>1102</ele>
        <time>2016-07-17T07:59:52Z</time>
      </trkpt>
      <trkpt lat="46.75257" lon="6.36884">
        <ele>1103</ele>
        <time>2016-07-17T08:00:01Z</time>
      </trkpt>
      <trkpt lat="46.75244" lon="6.36872">
        <ele>1101</ele>
        <time>2016-07-17T08:00:06Z</time>
      </trkpt>
      <trkpt lat="46.75236" lon="6.36862">
        <ele>1103</ele>
        <time>2016-07-17T08:00:10Z</time>
      </trkpt>
      <trkpt lat="46.75228" lon="6.36857">
        <ele>1103</ele>
        <time>2016-07-17T08:00:18Z</time>
      </trkpt>
      <trkpt lat="46.75222" lon="6.36851">
        <ele>1103</ele>
        <time>2016-07-17T08:00:24Z</time>
      </trkpt>
      <trkpt lat="46.75217" lon="6.36847">
        <ele>1103</ele>
        <time>2016-07-17T08:00:27Z</time>
      </trkpt>
      <trkpt lat="46.7521" lon="6.3684">
        <ele>1103</ele>
        <time>2016-07-17T08:00:33Z</time>
      </trkpt>
      <trkpt lat="46.75203" lon="6.36832">
        <ele>1114</ele>
        <time>2016-07-17T08:00:45Z</time>
      </trkpt>
      <trkpt lat="46.75195" lon="6.36832">
        <ele>1113</ele>
        <time>2016-07-17T08:00:54Z</time>
      </trkpt>
      <trkpt lat="46.75187" lon="6.36828">
        <ele>1112</ele>
        <time>2016-07-17T08:01:01Z</time>
      </trkpt>
      <trkpt lat="46.75181" lon="6.36821">
        <ele>1111</ele>
        <time>2016-07-17T08:01:07Z</time>
      </trkpt>
      <trkpt lat="46.75181" lon="6.3681">
        <ele>1113</ele>
        <time>2016-07-17T08:01:16Z</time>
      </trkpt>
      <trkpt lat="46.7518" lon="6.36798">
        <ele>1115</ele>
        <time>2016-07-17T08:01:23Z</time>
      </trkpt>
      <trkpt lat="46.7518" lon="6.36787">
        <ele>1117</ele>
        <time>2016-07-17T08:01:30Z</time>
      </trkpt>
      <trkpt lat="46.75181" lon="6.36775">
        <ele>1118</ele>
        <time>2016-07-17T08:01:39Z</time>
      </trkpt>
      <trkpt lat="46.7518" lon="6.36762">
        <ele>1120</ele>
        <time>2016-07-17T08:02:00Z</time>
      </trkpt>
      <trkpt lat="46.75173" lon="6.36755">
        <ele>1121</ele>
        <time>2016-07-17T08:02:22Z</time>
      </trkpt>
      <trkpt lat="46.75174" lon="6.36764">
        <ele>1120</ele>
        <time>2016-07-17T08:03:35Z</time>
      </trkpt>
      <trkpt lat="46.75173" lon="6.368">
        <ele>1115</ele>
        <time>2016-07-17T08:03:39Z</time>
      </trkpt>
      <trkpt lat="46.75175" lon="6.36816">
        <ele>1112</ele>
        <time>2016-07-17T08:03:43Z</time>
      </trkpt>
      <trkpt lat="46.75181" lon="6.36824">
        <ele>1111</ele>
        <time>2016-07-17T08:05:31Z</time>
      </trkpt>
      <trkpt lat="46.75177" lon="6.36845">
        <ele>1102</ele>
        <time>2016-07-17T08:05:35Z</time>
      </trkpt>
      <trkpt lat="46.75167" lon="6.3686">
        <ele>1100</ele>
        <time>2016-07-17T08:05:40Z</time>
      </trkpt>
      <trkpt lat="46.75152" lon="6.36861">
        <ele>1093</ele>
        <time>2016-07-17T08:05:45Z</time>
      </trkpt>
      <trkpt lat="46.75142" lon="6.36856">
        <ele>1093</ele>
        <time>2016-07-17T08:05:50Z</time>
      </trkpt>
      <trkpt lat="46.75135" lon="6.36851">
        <ele>1093</ele>
        <time>2016-07-17T08:05:56Z</time>
      </trkpt>
      <trkpt lat="46.75112" lon="6.36839">
        <ele>1092</ele>
        <time>2016-07-17T08:06:00Z</time>
      </trkpt>
      <trkpt lat="46.75088" lon="6.36824">
        <ele>1100</ele>
        <time>2016-07-17T08:06:03Z</time>
      </trkpt>
      <trkpt lat="46.7506" lon="6.36817">
        <ele>1097</ele>
        <time>2016-07-17T08:06:08Z</time>
      </trkpt>
      <trkpt lat="46.75027" lon="6.36816">
        <ele>1093</ele>
        <time>2016-07-17T08:06:12Z</time>
      </trkpt>
      <trkpt lat="46.74997" lon="6.36812">
        <ele>1079</ele>
        <time>2016-07-17T08:06:16Z</time>
      </trkpt>
      <trkpt lat="46.74973" lon="6.36793">
        <ele>1081</ele>
        <time>2016-07-17T08:06:20Z</time>
      </trkpt>
      <trkpt lat="46.74964" lon="6.36789">
        <ele>1081</ele>
        <time>2016-07-17T08:06:25Z</time>
      </trkpt>
      <trkpt lat="46.74958" lon="6.36785">
        <ele>1081</ele>
        <time>2016-07-17T08:07:41Z</time>
      </trkpt>
      <trkpt lat="46.74945" lon="6.36775">
        <ele>1080</ele>
        <time>2016-07-17T08:07:46Z</time>
      </trkpt>
      <trkpt lat="46.74927" lon="6.36775">
        <ele>1079</ele>
        <time>2016-07-17T08:07:50Z</time>
      </trkpt>
      <trkpt lat="46.74905" lon="6.3677">
        <ele>1069</ele>
        <time>2016-07-17T08:07:55Z</time>
      </trkpt>
      <trkpt lat="46.7489" lon="6.36758">
        <ele>1068</ele>
        <time>2016-07-17T08:07:59Z</time>
      </trkpt>
      <trkpt lat="46.74882" lon="6.36758">
        <ele>1066</ele>
        <time>2016-07-17T08:08:05Z</time>
      </trkpt>
      <trkpt lat="46.74873" lon="6.36749">
        <ele>1084</ele>
        <time>2016-07-17T08:08:10Z</time>
      </trkpt>
      <trkpt lat="46.74866" lon="6.36742">
        <ele>1084</ele>
        <time>2016-07-17T08:08:14Z</time>
      </trkpt>
      <trkpt lat="46.74858" lon="6.36737">
        <ele>1082</ele>
        <time>2016-07-17T08:08:20Z</time>
      </trkpt>
      <trkpt lat="46.74843" lon="6.36729">
        <ele>1081</ele>
        <time>2016-07-17T08:08:24Z</time>
      </trkpt>
      <trkpt lat="46.7483" lon="6.36721">
        <ele>1069</ele>
        <time>2016-07-17T08:08:28Z</time>
      </trkpt>
      <trkpt lat="46.74812" lon="6.367">
        <ele>1073</ele>
        <time>2016-07-17T08:08:32Z</time>
      </trkpt>
      <trkpt lat="46.74793" lon="6.36689">
        <ele>1071</ele>
        <time>2016-07-17T08:08:36Z</time>
      </trkpt>
      <trkpt lat="46.74772" lon="6.3668">
        <ele>1069</ele>
        <time>2016-07-17T08:08:41Z</time>
      </trkpt>
      <trkpt lat="46.74751" lon="6.36671">
        <ele>1068</ele>
        <time>2016-07-17T08:08:45Z</time>
      </trkpt>
      <trkpt lat="46.74743" lon="6.36665">
        <ele>1070</ele>
        <time>2016-07-17T08:08:55Z</time>
      </trkpt>
      <trkpt lat="46.74736" lon="6.36666">
        <ele>1071</ele>
        <time>2016-07-17T08:09:10Z</time>
      </trkpt>
      <trkpt lat="46.74728" lon="6.36667">
        <ele>1072</ele>
        <time>2016-07-17T08:09:15Z</time>
      </trkpt>
      <trkpt lat="46.7472" lon="6.36664">
        <ele>1072</ele>
        <time>2016-07-17T08:09:21Z</time>
      </trkpt>
      <trkpt lat="46.74709" lon="6.3666">
        <ele>1071</ele>
        <time>2016-07-17T08:09:26Z</time>
      </trkpt>
      <trkpt lat="46.74695" lon="6.36653">
        <ele>1069</ele>
        <time>2016-07-17T08:09:30Z</time>
      </trkpt>
      <trkpt lat="46.74685" lon="6.36648">
        <ele>1068</ele>
        <time>2016-07-17T08:09:35Z</time>
      </trkpt>
      <trkpt lat="46.74678" lon="6.36643">
        <ele>1069</ele>
        <time>2016-07-17T08:09:41Z</time>
      </trkpt>
      <trkpt lat="46.74669" lon="6.36639">
        <ele>1069</ele>
        <time>2016-07-17T08:09:45Z</time>
      </trkpt>
      <trkpt lat="46.74661" lon="6.36636">
        <ele>1064</ele>
        <time>2016-07-17T08:09:50Z</time>
      </trkpt>
      <trkpt lat="46.74653" lon="6.36635">
        <ele>1065</ele>
        <time>2016-07-17T08:09:55Z</time>
      </trkpt>
      <trkpt lat="46.74647" lon="6.36632">
        <ele>1066</ele>
        <time>2016-07-17T08:09:59Z</time>
      </trkpt>
      <trkpt lat="46.74638" lon="6.36631">
        <ele>1066</ele>
        <time>2016-07-17T08:10:04Z</time>
      </trkpt>
      <trkpt lat="46.7463" lon="6.36626">
        <ele>1066</ele>
        <time>2016-07-17T08:10:09Z</time>
      </trkpt>
      <trkpt lat="46.74623" lon="6.36624">
        <ele>1067</ele>
        <time>2016-07-17T08:10:14Z</time>
      </trkpt>
      <trkpt lat="46.74614" lon="6.36619">
        <ele>1067</ele>
        <time>2016-07-17T08:10:19Z</time>
      </trkpt>
      <trkpt lat="46.74607" lon="6.36613">
        <ele>1068</ele>
        <time>2016-07-17T08:10:24Z</time>
      </trkpt>
      <trkpt lat="46.74597" lon="6.36607">
        <ele>1069</ele>
        <time>2016-07-17T08:10:29Z</time>
      </trkpt>
      <trkpt lat="46.74588" lon="6.36602">
        <ele>1071</ele>
        <time>2016-07-17T08:10:34Z</time>
      </trkpt>
      <trkpt lat="46.7458" lon="6.36598">
        <ele>1070</ele>
        <time>2016-07-17T08:10:38Z</time>
      </trkpt>
      <trkpt lat="46.74572" lon="6.36593">
        <ele>1070</ele>
        <time>2016-07-17T08:10:43Z</time>
      </trkpt>
      <trkpt lat="46.74564" lon="6.36589">
        <ele>1069</ele>
        <time>2016-07-17T08:10:48Z</time>
      </trkpt>
      <trkpt lat="46.74555" lon="6.36585">
        <ele>1068</ele>
        <time>2016-07-17T08:10:53Z</time>
      </trkpt>
      <trkpt lat="46.74548" lon="6.36582">
        <ele>1081</ele>
        <time>2016-07-17T08:10:57Z</time>
      </trkpt>
      <trkpt lat="46.7454" lon="6.36578">
        <ele>1081</ele>
        <time>2016-07-17T08:11:01Z</time>
      </trkpt>
      <trkpt lat="46.74534" lon="6.36574">
        <ele>1081</ele>
        <time>2016-07-17T08:11:04Z</time>
      </trkpt>
      <trkpt lat="46.74525" lon="6.3657">
        <ele>1081</ele>
        <time>2016-07-17T08:11:09Z</time>
      </trkpt>
      <trkpt lat="46.74519" lon="6.36568">
        <ele>1080</ele>
        <time>2016-07-17T08:11:13Z</time>
      </trkpt>
      <trkpt lat="46.7451" lon="6.36563">
        <ele>1080</ele>
        <time>2016-07-17T08:11:18Z</time>
      </trkpt>
      <trkpt lat="46.74501" lon="6.36558">
        <ele>1081</ele>
        <time>2016-07-17T08:11:23Z</time>
      </trkpt>
      <trkpt lat="46.74491" lon="6.36555">
        <ele>1078</ele>
        <time>2016-07-17T08:11:28Z</time>
      </trkpt>
      <trkpt lat="46.74483" lon="6.36554">
        <ele>1078</ele>
        <time>2016-07-17T08:11:34Z</time>
      </trkpt>
      <trkpt lat="46.74476" lon="6.36552">
        <ele>1079</ele>
        <time>2016-07-17T08:11:40Z</time>
      </trkpt>
      <trkpt lat="46.74468" lon="6.36545">
        <ele>1080</ele>
        <time>2016-07-17T08:11:44Z</time>
      </trkpt>
      <trkpt lat="46.74457" lon="6.36538">
        <ele>1080</ele>
        <time>2016-07-17T08:11:48Z</time>
      </trkpt>
      <trkpt lat="46.74444" lon="6.36531">
        <ele>1080</ele>
        <time>2016-07-17T08:11:53Z</time>
      </trkpt>
      <trkpt lat="46.74435" lon="6.36525">
        <ele>1081</ele>
        <time>2016-07-17T08:11:57Z</time>
      </trkpt>
      <trkpt lat="46.74425" lon="6.36523">
        <ele>1081</ele>
        <time>2016-07-17T08:12:02Z</time>
      </trkpt>
      <trkpt lat="46.74417" lon="6.36519">
        <ele>1082</ele>
        <time>2016-07-17T08:12:06Z</time>
      </trkpt>
      <trkpt lat="46.74407" lon="6.36512">
        <ele>1080</ele>
        <time>2016-07-17T08:12:11Z</time>
      </trkpt>
      <trkpt lat="46.744" lon="6.36507">
        <ele>1080</ele>
        <time>2016-07-17T08:12:16Z</time>
      </trkpt>
      <trkpt lat="46.7439" lon="6.36501">
        <ele>1078</ele>
        <time>2016-07-17T08:12:20Z</time>
      </trkpt>
      <trkpt lat="46.74382" lon="6.36497">
        <ele>1091</ele>
        <time>2016-07-17T08:12:23Z</time>
      </trkpt>
      <trkpt lat="46.74373" lon="6.36494">
        <ele>1091</ele>
        <time>2016-07-17T08:12:29Z</time>
      </trkpt>
      <trkpt lat="46.74366" lon="6.36489">
        <ele>1090</ele>
        <time>2016-07-17T08:12:33Z</time>
      </trkpt>
      <trkpt lat="46.74358" lon="6.36485">
        <ele>1090</ele>
        <time>2016-07-17T08:12:38Z</time>
      </trkpt>
      <trkpt lat="46.74348" lon="6.36479">
        <ele>1090</ele>
        <time>2016-07-17T08:12:43Z</time>
      </trkpt>
      <trkpt lat="46.74341" lon="6.36476">
        <ele>1090</ele>
        <time>2016-07-17T08:12:47Z</time>
      </trkpt>
      <trkpt lat="46.74332" lon="6.36472">
        <ele>1089</ele>
        <time>2016-07-17T08:12:52Z</time>
      </trkpt>
      <trkpt lat="46.74324" lon="6.36468">
        <ele>1090</ele>
        <time>2016-07-17T08:12:56Z</time>
      </trkpt>
      <trkpt lat="46.74317" lon="6.36466">
        <ele>1090</ele>
        <time>2016-07-17T08:13:00Z</time>
      </trkpt>
      <trkpt lat="46.7431" lon="6.36461">
        <ele>1091</ele>
        <time>2016-07-17T08:13:04Z</time>
      </trkpt>
      <trkpt lat="46.74302" lon="6.36456">
        <ele>1092</ele>
        <time>2016-07-17T08:13:11Z</time>
      </trkpt>
      <trkpt lat="46.74294" lon="6.36456">
        <ele>1092</ele>
        <time>2016-07-17T08:13:18Z</time>
      </trkpt>
      <trkpt lat="46.74286" lon="6.36459">
        <ele>1091</ele>
        <time>2016-07-17T08:13:26Z</time>
      </trkpt>
      <trkpt lat="46.74278" lon="6.36457">
        <ele>1091</ele>
        <time>2016-07-17T08:13:35Z</time>
      </trkpt>
      <trkpt lat="46.7427" lon="6.36451">
        <ele>1092</ele>
        <time>2016-07-17T08:13:38Z</time>
      </trkpt>
      <trkpt lat="46.74265" lon="6.36441">
        <ele>1092</ele>
        <time>2016-07-17T08:13:57Z</time>
      </trkpt>
      <trkpt lat="46.74259" lon="6.36441">
        <ele>1092</ele>
        <time>2016-07-17T08:16:35Z</time>
      </trkpt>
      <trkpt lat="46.7425" lon="6.36437">
        <ele>1087</ele>
        <time>2016-07-17T08:16:38Z</time>
      </trkpt>
      <trkpt lat="46.74233" lon="6.36429">
        <ele>1086</ele>
        <time>2016-07-17T08:16:43Z</time>
      </trkpt>
      <trkpt lat="46.7422" lon="6.36426">
        <ele>1084</ele>
        <time>2016-07-17T08:16:47Z</time>
      </trkpt>
      <trkpt lat="46.74211" lon="6.36422">
        <ele>1082</ele>
        <time>2016-07-17T08:16:52Z</time>
      </trkpt>
      <trkpt lat="46.74198" lon="6.36413">
        <ele>1082</ele>
        <time>2016-07-17T08:16:57Z</time>
      </trkpt>
      <trkpt lat="46.74185" lon="6.36404">
        <ele>1080</ele>
        <time>2016-07-17T08:17:01Z</time>
      </trkpt>
      <trkpt lat="46.74161" lon="6.36385">
        <ele>1072</ele>
        <time>2016-07-17T08:17:05Z</time>
      </trkpt>
      <trkpt lat="46.74148" lon="6.36377">
        <ele>1072</ele>
        <time>2016-07-17T08:17:10Z</time>
      </trkpt>
      <trkpt lat="46.74141" lon="6.36374">
        <ele>1072</ele>
        <time>2016-07-17T08:17:16Z</time>
      </trkpt>
      <trkpt lat="46.74134" lon="6.36368">
        <ele>1072</ele>
        <time>2016-07-17T08:17:21Z</time>
      </trkpt>
      <trkpt lat="46.74126" lon="6.36366">
        <ele>1072</ele>
        <time>2016-07-17T08:17:29Z</time>
      </trkpt>
      <trkpt lat="46.7412" lon="6.36361">
        <ele>1072</ele>
        <time>2016-07-17T08:17:36Z</time>
      </trkpt>
      <trkpt lat="46.74112" lon="6.36359">
        <ele>1072</ele>
        <time>2016-07-17T08:17:44Z</time>
      </trkpt>
      <trkpt lat="46.74103" lon="6.36358">
        <ele>1072</ele>
        <time>2016-07-17T08:17:53Z</time>
      </trkpt>
      <trkpt lat="46.74095" lon="6.36354">
        <ele>1072</ele>
        <time>2016-07-17T08:19:05Z</time>
      </trkpt>
      <trkpt lat="46.74088" lon="6.36349">
        <ele>1072</ele>
        <time>2016-07-17T08:19:11Z</time>
      </trkpt>
      <trkpt lat="46.74081" lon="6.36337">
        <ele>1073</ele>
        <time>2016-07-17T08:19:16Z</time>
      </trkpt>
      <trkpt lat="46.74075" lon="6.36329">
        <ele>1075</ele>
        <time>2016-07-17T08:19:21Z</time>
      </trkpt>
      <trkpt lat="46.74067" lon="6.36325">
        <ele>1077</ele>
        <time>2016-07-17T08:19:28Z</time>
      </trkpt>
      <trkpt lat="46.74061" lon="6.36317">
        <ele>1078</ele>
        <time>2016-07-17T08:19:35Z</time>
      </trkpt>
      <trkpt lat="46.74054" lon="6.36312">
        <ele>1079</ele>
        <time>2016-07-17T08:19:41Z</time>
      </trkpt>
      <trkpt lat="46.74045" lon="6.3631">
        <ele>1080</ele>
        <time>2016-07-17T08:19:50Z</time>
      </trkpt>
      <trkpt lat="46.74041" lon="6.36301">
        <ele>1080</ele>
        <time>2016-07-17T08:21:51Z</time>
      </trkpt>
      <trkpt lat="46.74035" lon="6.36292">
        <ele>1081</ele>
        <time>2016-07-17T08:21:57Z</time>
      </trkpt>
      <trkpt lat="46.74037" lon="6.36281">
        <ele>1081</ele>
        <time>2016-07-17T08:22:04Z</time>
      </trkpt>
      <trkpt lat="46.74039" lon="6.36269">
        <ele>1082</ele>
        <time>2016-07-17T08:22:10Z</time>
      </trkpt>
      <trkpt lat="46.74042" lon="6.36259">
        <ele>1082</ele>
        <time>2016-07-17T08:22:16Z</time>
      </trkpt>
      <trkpt lat="46.74043" lon="6.36246">
        <ele>1088</ele>
        <time>2016-07-17T08:22:22Z</time>
      </trkpt>
      <trkpt lat="46.74046" lon="6.36235">
        <ele>1089</ele>
        <time>2016-07-17T08:22:29Z</time>
      </trkpt>
      <trkpt lat="46.7405" lon="6.36225">
        <ele>1089</ele>
        <time>2016-07-17T08:22:34Z</time>
      </trkpt>
      <trkpt lat="46.74056" lon="6.36216">
        <ele>1090</ele>
        <time>2016-07-17T08:22:39Z</time>
      </trkpt>
      <trkpt lat="46.74061" lon="6.36206">
        <ele>1091</ele>
        <time>2016-07-17T08:22:45Z</time>
      </trkpt>
      <trkpt lat="46.74066" lon="6.36195">
        <ele>1092</ele>
        <time>2016-07-17T08:22:51Z</time>
      </trkpt>
      <trkpt lat="46.7407" lon="6.36185">
        <ele>1093</ele>
        <time>2016-07-17T08:22:56Z</time>
      </trkpt>
      <trkpt lat="46.74074" lon="6.36176">
        <ele>1094</ele>
        <time>2016-07-17T08:23:00Z</time>
      </trkpt>
      <trkpt lat="46.74082" lon="6.36169">
        <ele>1095</ele>
        <time>2016-07-17T08:23:07Z</time>
      </trkpt>
      <trkpt lat="46.74087" lon="6.36161">
        <ele>1099</ele>
        <time>2016-07-17T08:23:13Z</time>
      </trkpt>
      <trkpt lat="46.74092" lon="6.36152">
        <ele>1102</ele>
        <time>2016-07-17T08:23:19Z</time>
      </trkpt>
      <trkpt lat="46.74096" lon="6.3614">
        <ele>1104</ele>
        <time>2016-07-17T08:23:26Z</time>
      </trkpt>
      <trkpt lat="46.74095" lon="6.36128">
        <ele>1106</ele>
        <time>2016-07-17T08:23:34Z</time>
      </trkpt>
      <trkpt lat="46.74096" lon="6.36116">
        <ele>1109</ele>
        <time>2016-07-17T08:23:43Z</time>
      </trkpt>
      <trkpt lat="46.74097" lon="6.36104">
        <ele>1111</ele>
        <time>2016-07-17T08:23:52Z</time>
      </trkpt>
      <trkpt lat="46.74102" lon="6.36094">
        <ele>1112</ele>
        <time>2016-07-17T08:24:02Z</time>
      </trkpt>
      <trkpt lat="46.74103" lon="6.36081">
        <ele>1121</ele>
        <time>2016-07-17T08:24:12Z</time>
      </trkpt>
      <trkpt lat="46.74101" lon="6.3607">
        <ele>1122</ele>
        <time>2016-07-17T08:24:19Z</time>
      </trkpt>
      <trkpt lat="46.74096" lon="6.3606">
        <ele>1122</ele>
        <time>2016-07-17T08:24:51Z</time>
      </trkpt>
      <trkpt lat="46.74092" lon="6.36049">
        <ele>1124</ele>
        <time>2016-07-17T08:24:59Z</time>
      </trkpt>
      <trkpt lat="46.74086" lon="6.3604">
        <ele>1125</ele>
        <time>2016-07-17T08:25:11Z</time>
      </trkpt>
      <trkpt lat="46.74079" lon="6.36033">
        <ele>1127</ele>
        <time>2016-07-17T08:25:18Z</time>
      </trkpt>
      <trkpt lat="46.74072" lon="6.36029">
        <ele>1127</ele>
        <time>2016-07-17T08:25:26Z</time>
      </trkpt>
      <trkpt lat="46.74064" lon="6.36024">
        <ele>1127</ele>
        <time>2016-07-17T08:25:33Z</time>
      </trkpt>
      <trkpt lat="46.74057" lon="6.36018">
        <ele>1128</ele>
        <time>2016-07-17T08:25:39Z</time>
      </trkpt>
      <trkpt lat="46.7405" lon="6.36012">
        <ele>1129</ele>
        <time>2016-07-17T08:25:45Z</time>
      </trkpt>
      <trkpt lat="46.74046" lon="6.36006">
        <ele>1129</ele>
        <time>2016-07-17T08:25:50Z</time>
      </trkpt>
      <trkpt lat="46.7404" lon="6.35997">
        <ele>1138</ele>
        <time>2016-07-17T08:25:56Z</time>
      </trkpt>
      <trkpt lat="46.74031" lon="6.35994">
        <ele>1139</ele>
        <time>2016-07-17T08:26:06Z</time>
      </trkpt>
      <trkpt lat="46.74023" lon="6.35988">
        <ele>1139</ele>
        <time>2016-07-17T08:26:15Z</time>
      </trkpt>
      <trkpt lat="46.74017" lon="6.3598">
        <ele>1140</ele>
        <time>2016-07-17T08:26:40Z</time>
      </trkpt>
      <trkpt lat="46.7401" lon="6.35972">
        <ele>1140</ele>
        <time>2016-07-17T08:26:47Z</time>
      </trkpt>
      <trkpt lat="46.74005" lon="6.35962">
        <ele>1141</ele>
        <time>2016-07-17T08:26:53Z</time>
      </trkpt>
      <trkpt lat="46.73997" lon="6.35957">
        <ele>1145</ele>
        <time>2016-07-17T08:27:01Z</time>
      </trkpt>
      <trkpt lat="46.73993" lon="6.35946">
        <ele>1146</ele>
        <time>2016-07-17T08:27:11Z</time>
      </trkpt>
      <trkpt lat="46.7399" lon="6.35935">
        <ele>1147</ele>
        <time>2016-07-17T08:27:19Z</time>
      </trkpt>
      <trkpt lat="46.73986" lon="6.35924">
        <ele>1147</ele>
        <time>2016-07-17T08:27:28Z</time>
      </trkpt>
      <trkpt lat="46.73982" lon="6.35914">
        <ele>1153</ele>
        <time>2016-07-17T08:27:34Z</time>
      </trkpt>
      <trkpt lat="46.73975" lon="6.35907">
        <ele>1154</ele>
        <time>2016-07-17T08:27:40Z</time>
      </trkpt>
      <trkpt lat="46.73968" lon="6.35899">
        <ele>1155</ele>
        <time>2016-07-17T08:27:47Z</time>
      </trkpt>
      <trkpt lat="46.73966" lon="6.35887">
        <ele>1156</ele>
        <time>2016-07-17T08:30:44Z</time>
      </trkpt>
      <trkpt lat="46.73966" lon="6.35879">
        <ele>1157</ele>
        <time>2016-07-17T08:40:54Z</time>
      </trkpt>
      <trkpt lat="46.739" lon="6.3587">
        <ele>1162</ele>
        <time>2016-07-17T08:40:58Z</time>
      </trkpt>
      <trkpt lat="46.73888" lon="6.35854">
        <ele>1163</ele>
        <time>2016-07-17T08:41:02Z</time>
      </trkpt>
      <trkpt lat="46.73882" lon="6.35859">
        <ele>1163</ele>
        <time>2016-07-17T08:41:07Z</time>
      </trkpt>
      <trkpt lat="46.73872" lon="6.35859">
        <ele>1163</ele>
        <time>2016-07-17T08:41:11Z</time>
      </trkpt>
      <trkpt lat="46.73866" lon="6.35853">
        <ele>1164</ele>
        <time>2016-07-17T08:41:24Z</time>
      </trkpt>
      <trkpt lat="46.73858" lon="6.35853">
        <ele>1164</ele>
        <time>2016-07-17T08:41:34Z</time>
      </trkpt>
      <trkpt lat="46.73849" lon="6.35853">
        <ele>1164</ele>
        <time>2016-07-17T08:41:38Z</time>
      </trkpt>
      <trkpt lat="46.73832" lon="6.35846">
        <ele>1169</ele>
        <time>2016-07-17T08:41:42Z</time>
      </trkpt>
      <trkpt lat="46.73812" lon="6.35853">
        <ele>1171</ele>
        <time>2016-07-17T08:41:46Z</time>
      </trkpt>
      <trkpt lat="46.73807" lon="6.35866">
        <ele>1172</ele>
        <time>2016-07-17T08:41:50Z</time>
      </trkpt>
      <trkpt lat="46.7381" lon="6.35859">
        <ele>1172</ele>
        <time>2016-07-17T08:41:54Z</time>
      </trkpt>
      <trkpt lat="46.73829" lon="6.35817">
        <ele>1174</ele>
        <time>2016-07-17T08:41:59Z</time>
      </trkpt>
      <trkpt lat="46.73827" lon="6.35804">
        <ele>1177</ele>
        <time>2016-07-17T08:42:03Z</time>
      </trkpt>
      <trkpt lat="46.73817" lon="6.35814">
        <ele>1176</ele>
        <time>2016-07-17T08:42:07Z</time>
      </trkpt>
      <trkpt lat="46.73819" lon="6.35805">
        <ele>1178</ele>
        <time>2016-07-17T08:42:20Z</time>
      </trkpt>
      <trkpt lat="46.73809" lon="6.35797">
        <ele>1180</ele>
        <time>2016-07-17T08:42:23Z</time>
      </trkpt>
      <trkpt lat="46.73802" lon="6.35789">
        <ele>1181</ele>
        <time>2016-07-17T08:42:29Z</time>
      </trkpt>
      <trkpt lat="46.73793" lon="6.35788">
        <ele>1182</ele>
        <time>2016-07-17T08:42:34Z</time>
      </trkpt>
      <trkpt lat="46.73796" lon="6.35776">
        <ele>1183</ele>
        <time>2016-07-17T08:42:41Z</time>
      </trkpt>
      <trkpt lat="46.73786" lon="6.35777">
        <ele>1183</ele>
        <time>2016-07-17T08:42:46Z</time>
      </trkpt>
      <trkpt lat="46.7378" lon="6.35773">
        <ele>1184</ele>
        <time>2016-07-17T08:42:49Z</time>
      </trkpt>
      <trkpt lat="46.73778" lon="6.35761">
        <ele>1186</ele>
        <time>2016-07-17T08:42:58Z</time>
      </trkpt>
      <trkpt lat="46.73771" lon="6.35754">
        <ele>1187</ele>
        <time>2016-07-17T08:43:06Z</time>
      </trkpt>
      <trkpt lat="46.73763" lon="6.35752">
        <ele>1189</ele>
        <time>2016-07-17T08:43:13Z</time>
      </trkpt>
      <trkpt lat="46.73756" lon="6.35758">
        <ele>1190</ele>
        <time>2016-07-17T08:43:24Z</time>
      </trkpt>
      <trkpt lat="46.73748" lon="6.35756">
        <ele>1195</ele>
        <time>2016-07-17T08:43:32Z</time>
      </trkpt>
      <trkpt lat="46.73742" lon="6.35764">
        <ele>1197</ele>
        <time>2016-07-17T08:43:36Z</time>
      </trkpt>
      <trkpt lat="46.73735" lon="6.35768">
        <ele>1198</ele>
        <time>2016-07-17T08:43:44Z</time>
      </trkpt>
      <trkpt lat="46.73727" lon="6.35767">
        <ele>1199</ele>
        <time>2016-07-17T08:43:51Z</time>
      </trkpt>
      <trkpt lat="46.73719" lon="6.35772">
        <ele>1200</ele>
        <time>2016-07-17T08:44:00Z</time>
      </trkpt>
      <trkpt lat="46.73713" lon="6.35778">
        <ele>1200</ele>
        <time>2016-07-17T08:44:11Z</time>
      </trkpt>
      <trkpt lat="46.73705" lon="6.35782">
        <ele>1201</ele>
        <time>2016-07-17T08:44:22Z</time>
      </trkpt>
      <trkpt lat="46.73698" lon="6.35789">
        <ele>1202</ele>
        <time>2016-07-17T08:44:26Z</time>
      </trkpt>
      <trkpt lat="46.73691" lon="6.35795">
        <ele>1203</ele>
        <time>2016-07-17T08:44:36Z</time>
      </trkpt>
      <trkpt lat="46.73683" lon="6.35797">
        <ele>1204</ele>
        <time>2016-07-17T08:44:43Z</time>
      </trkpt>
      <trkpt lat="46.73676" lon="6.35804">
        <ele>1205</ele>
        <time>2016-07-17T08:44:48Z</time>
      </trkpt>
      <trkpt lat="46.73671" lon="6.35814">
        <ele>1206</ele>
        <time>2016-07-17T08:44:57Z</time>
      </trkpt>
      <trkpt lat="46.73663" lon="6.35812">
        <ele>1216</ele>
        <time>2016-07-17T08:45:05Z</time>
      </trkpt>
      <trkpt lat="46.73655" lon="6.35807">
        <ele>1217</ele>
        <time>2016-07-17T08:45:13Z</time>
      </trkpt>
      <trkpt lat="46.73646" lon="6.35806">
        <ele>1218</ele>
        <time>2016-07-17T08:45:22Z</time>
      </trkpt>
      <trkpt lat="46.73642" lon="6.35816">
        <ele>1218</ele>
        <time>2016-07-17T08:45:27Z</time>
      </trkpt>
      <trkpt lat="46.73638" lon="6.35826">
        <ele>1218</ele>
        <time>2016-07-17T08:45:32Z</time>
      </trkpt>
      <trkpt lat="46.7363" lon="6.35832">
        <ele>1219</ele>
        <time>2016-07-17T08:45:38Z</time>
      </trkpt>
      <trkpt lat="46.73622" lon="6.35834">
        <ele>1215</ele>
        <time>2016-07-17T08:45:44Z</time>
      </trkpt>
      <trkpt lat="46.73616" lon="6.35841">
        <ele>1216</ele>
        <time>2016-07-17T08:45:51Z</time>
      </trkpt>
      <trkpt lat="46.73608" lon="6.35841">
        <ele>1217</ele>
        <time>2016-07-17T08:45:58Z</time>
      </trkpt>
      <trkpt lat="46.73601" lon="6.35847">
        <ele>1218</ele>
        <time>2016-07-17T08:46:07Z</time>
      </trkpt>
      <trkpt lat="46.73595" lon="6.35851">
        <ele>1218</ele>
        <time>2016-07-17T08:46:13Z</time>
      </trkpt>
      <trkpt lat="46.73586" lon="6.35853">
        <ele>1219</ele>
        <time>2016-07-17T08:46:20Z</time>
      </trkpt>
      <trkpt lat="46.73579" lon="6.35863">
        <ele>1229</ele>
        <time>2016-07-17T08:46:25Z</time>
      </trkpt>
      <trkpt lat="46.73571" lon="6.35858">
        <ele>1230</ele>
        <time>2016-07-17T08:46:32Z</time>
      </trkpt>
      <trkpt lat="46.73563" lon="6.35857">
        <ele>1231</ele>
        <time>2016-07-17T08:46:37Z</time>
      </trkpt>
      <trkpt lat="46.73548" lon="6.35869">
        <ele>1232</ele>
        <time>2016-07-17T08:46:41Z</time>
      </trkpt>
      <trkpt lat="46.73539" lon="6.35874">
        <ele>1233</ele>
        <time>2016-07-17T08:46:46Z</time>
      </trkpt>
      <trkpt lat="46.73538" lon="6.35887">
        <ele>1233</ele>
        <time>2016-07-17T08:47:00Z</time>
      </trkpt>
      <trkpt lat="46.73537" lon="6.35899">
        <ele>1233</ele>
        <time>2016-07-17T08:47:06Z</time>
      </trkpt>
      <trkpt lat="46.73539" lon="6.35913">
        <ele>1232</ele>
        <time>2016-07-17T08:47:11Z</time>
      </trkpt>
      <trkpt lat="46.73533" lon="6.3592">
        <ele>1230</ele>
        <time>2016-07-17T08:47:15Z</time>
      </trkpt>
      <trkpt lat="46.73527" lon="6.35928">
        <ele>1231</ele>
        <time>2016-07-17T08:47:21Z</time>
      </trkpt>
      <trkpt lat="46.73521" lon="6.3593">
        <ele>1232</ele>
        <time>2016-07-17T08:47:31Z</time>
      </trkpt>
      <trkpt lat="46.73509" lon="6.35937">
        <ele>1233</ele>
        <time>2016-07-17T08:47:35Z</time>
      </trkpt>
      <trkpt lat="46.73503" lon="6.35947">
        <ele>1232</ele>
        <time>2016-07-17T08:47:47Z</time>
      </trkpt>
      <trkpt lat="46.73501" lon="6.35958">
        <ele>1232</ele>
        <time>2016-07-17T08:47:55Z</time>
      </trkpt>
      <trkpt lat="46.73498" lon="6.35969">
        <ele>1246</ele>
        <time>2016-07-17T08:48:02Z</time>
      </trkpt>
      <trkpt lat="46.73492" lon="6.35979">
        <ele>1245</ele>
        <time>2016-07-17T08:48:09Z</time>
      </trkpt>
      <trkpt lat="46.73484" lon="6.35984">
        <ele>1245</ele>
        <time>2016-07-17T08:48:17Z</time>
      </trkpt>
      <trkpt lat="46.73479" lon="6.35993">
        <ele>1245</ele>
        <time>2016-07-17T08:48:24Z</time>
      </trkpt>
      <trkpt lat="46.73477" lon="6.36006">
        <ele>1243</ele>
        <time>2016-07-17T08:48:52Z</time>
      </trkpt>
      <trkpt lat="46.73477" lon="6.36019">
        <ele>1243</ele>
        <time>2016-07-17T08:48:58Z</time>
      </trkpt>
      <trkpt lat="46.73478" lon="6.36032">
        <ele>1243</ele>
        <time>2016-07-17T08:49:02Z</time>
      </trkpt>
      <trkpt lat="46.73475" lon="6.36043">
        <ele>1244</ele>
        <time>2016-07-17T08:49:11Z</time>
      </trkpt>
      <trkpt lat="46.7347" lon="6.36047">
        <ele>1244</ele>
        <time>2016-07-17T08:49:32Z</time>
      </trkpt>
      <trkpt lat="46.73453" lon="6.36051">
        <ele>1246</ele>
        <time>2016-07-17T08:49:36Z</time>
      </trkpt>
      <trkpt lat="46.73435" lon="6.36045">
        <ele>1247</ele>
        <time>2016-07-17T08:49:41Z</time>
      </trkpt>
      <trkpt lat="46.73433" lon="6.36034">
        <ele>1248</ele>
        <time>2016-07-17T08:49:46Z</time>
      </trkpt>
      <trkpt lat="46.73425" lon="6.36028">
        <ele>1249</ele>
        <time>2016-07-17T08:49:56Z</time>
      </trkpt>
      <trkpt lat="46.73419" lon="6.3602">
        <ele>1251</ele>
        <time>2016-07-17T08:50:05Z</time>
      </trkpt>
      <trkpt lat="46.73411" lon="6.36017">
        <ele>1260</ele>
        <time>2016-07-17T08:50:11Z</time>
      </trkpt>
      <trkpt lat="46.73404" lon="6.36026">
        <ele>1261</ele>
        <time>2016-07-17T08:50:22Z</time>
      </trkpt>
      <trkpt lat="46.73413" lon="6.36023">
        <ele>1260</ele>
        <time>2016-07-17T08:50:46Z</time>
      </trkpt>
      <trkpt lat="46.73421" lon="6.36019">
        <ele>1251</ele>
        <time>2016-07-17T08:51:07Z</time>
      </trkpt>
      <trkpt lat="46.73413" lon="6.36017">
        <ele>1260</ele>
        <time>2016-07-17T09:05:00Z</time>
      </trkpt>
      <trkpt lat="46.73403" lon="6.36022">
        <ele>1261</ele>
        <time>2016-07-17T09:05:05Z</time>
      </trkpt>
      <trkpt lat="46.73385" lon="6.36025">
        <ele>1263</ele>
        <time>2016-07-17T09:05:10Z</time>
      </trkpt>
      <trkpt lat="46.73375" lon="6.36029">
        <ele>1264</ele>
        <time>2016-07-17T09:05:15Z</time>
      </trkpt>
      <trkpt lat="46.73368" lon="6.36031">
        <ele>1265</ele>
        <time>2016-07-17T09:05:19Z</time>
      </trkpt>
      <trkpt lat="46.7336" lon="6.36029">
        <ele>1266</ele>
        <time>2016-07-17T09:05:26Z</time>
      </trkpt>
      <trkpt lat="46.73352" lon="6.36029">
        <ele>1267</ele>
        <time>2016-07-17T09:05:31Z</time>
      </trkpt>
      <trkpt lat="46.73343" lon="6.36028">
        <ele>1268</ele>
        <time>2016-07-17T09:05:37Z</time>
      </trkpt>
      <trkpt lat="46.73335" lon="6.36029">
        <ele>1269</ele>
        <time>2016-07-17T09:05:42Z</time>
      </trkpt>
      <trkpt lat="46.73328" lon="6.36037">
        <ele>1275</ele>
        <time>2016-07-17T09:05:46Z</time>
      </trkpt>
      <trkpt lat="46.73321" lon="6.36029">
        <ele>1276</ele>
        <time>2016-07-17T09:05:54Z</time>
      </trkpt>
      <trkpt lat="46.73313" lon="6.36028">
        <ele>1277</ele>
        <time>2016-07-17T09:06:02Z</time>
      </trkpt>
      <trkpt lat="46.73305" lon="6.36023">
        <ele>1277</ele>
        <time>2016-07-17T09:06:46Z</time>
      </trkpt>
      <trkpt lat="46.73294" lon="6.36025">
        <ele>1278</ele>
        <time>2016-07-17T09:06:50Z</time>
      </trkpt>
      <trkpt lat="46.73283" lon="6.36031">
        <ele>1277</ele>
        <time>2016-07-17T09:06:55Z</time>
      </trkpt>
      <trkpt lat="46.73279" lon="6.3602">
        <ele>1279</ele>
        <time>2016-07-17T09:07:00Z</time>
      </trkpt>
      <trkpt lat="46.73277" lon="6.36007">
        <ele>1281</ele>
        <time>2016-07-17T09:07:05Z</time>
      </trkpt>
      <trkpt lat="46.73276" lon="6.35995">
        <ele>1296</ele>
        <time>2016-07-17T09:07:09Z</time>
      </trkpt>
      <trkpt lat="46.73273" lon="6.35982">
        <ele>1297</ele>
        <time>2016-07-17T09:07:17Z</time>
      </trkpt>
      <trkpt lat="46.73266" lon="6.35975">
        <ele>1298</ele>
        <time>2016-07-17T09:07:21Z</time>
      </trkpt>
      <trkpt lat="46.73259" lon="6.3597">
        <ele>1299</ele>
        <time>2016-07-17T09:07:27Z</time>
      </trkpt>
      <trkpt lat="46.73252" lon="6.35969">
        <ele>1299</ele>
        <time>2016-07-17T09:07:32Z</time>
      </trkpt>
      <trkpt lat="46.73247" lon="6.35966">
        <ele>1305</ele>
        <time>2016-07-17T09:07:36Z</time>
      </trkpt>
      <trkpt lat="46.73241" lon="6.35959">
        <ele>1308</ele>
        <time>2016-07-17T09:07:45Z</time>
      </trkpt>
      <trkpt lat="46.73236" lon="6.35967">
        <ele>1306</ele>
        <time>2016-07-17T09:07:54Z</time>
      </trkpt>
      <trkpt lat="46.73224" lon="6.35976">
        <ele>1305</ele>
        <time>2016-07-17T09:07:59Z</time>
      </trkpt>
      <trkpt lat="46.73214" lon="6.35968">
        <ele>1307</ele>
        <time>2016-07-17T09:08:04Z</time>
      </trkpt>
      <trkpt lat="46.73204" lon="6.35962">
        <ele>1309</ele>
        <time>2016-07-17T09:08:08Z</time>
      </trkpt>
      <trkpt lat="46.73196" lon="6.35956">
        <ele>1310</ele>
        <time>2016-07-17T09:08:12Z</time>
      </trkpt>
      <trkpt lat="46.73189" lon="6.35956">
        <ele>1311</ele>
        <time>2016-07-17T09:08:25Z</time>
      </trkpt>
      <trkpt lat="46.73181" lon="6.3595">
        <ele>1313</ele>
        <time>2016-07-17T09:08:33Z</time>
      </trkpt>
      <trkpt lat="46.73172" lon="6.35952">
        <ele>1313</ele>
        <time>2016-07-17T09:08:37Z</time>
      </trkpt>
      <trkpt lat="46.73173" lon="6.35957">
        <ele>1311</ele>
        <time>2016-07-17T09:08:56Z</time>
      </trkpt>
      <trkpt lat="46.73166" lon="6.35968">
        <ele>1310</ele>
        <time>2016-07-17T09:08:59Z</time>
      </trkpt>
      <trkpt lat="46.73157" lon="6.35971">
        <ele>1309</ele>
        <time>2016-07-17T09:09:05Z</time>
      </trkpt>
      <trkpt lat="46.7315" lon="6.35965">
        <ele>1311</ele>
        <time>2016-07-17T09:09:11Z</time>
      </trkpt>
      <trkpt lat="46.73144" lon="6.35955">
        <ele>1314</ele>
        <time>2016-07-17T09:09:23Z</time>
      </trkpt>
      <trkpt lat="46.73132" lon="6.35958">
        <ele>1313</ele>
        <time>2016-07-17T09:09:27Z</time>
      </trkpt>
      <trkpt lat="46.73123" lon="6.35954">
        <ele>1314</ele>
        <time>2016-07-17T09:09:35Z</time>
      </trkpt>
      <trkpt lat="46.73113" lon="6.35955">
        <ele>1314</ele>
        <time>2016-07-17T09:09:40Z</time>
      </trkpt>
      <trkpt lat="46.73112" lon="6.35943">
        <ele>1316</ele>
        <time>2016-07-17T09:09:50Z</time>
      </trkpt>
      <trkpt lat="46.7311" lon="6.35942">
        <ele>1316</ele>
        <time>2016-07-17T09:09:59Z</time>
      </trkpt>
      <trkpt lat="46.73091" lon="6.35949">
        <ele>1315</ele>
        <time>2016-07-17T09:10:04Z</time>
      </trkpt>
      <trkpt lat="46.73084" lon="6.35947">
        <ele>1316</ele>
        <time>2016-07-17T09:10:35Z</time>
      </trkpt>
      <trkpt lat="46.7307" lon="6.35942">
        <ele>1316</ele>
        <time>2016-07-17T09:10:40Z</time>
      </trkpt>
      <trkpt lat="46.73085" lon="6.35937">
        <ele>1320</ele>
        <time>2016-07-17T09:10:44Z</time>
      </trkpt>
      <trkpt lat="46.73086" lon="6.35933">
        <ele>1321</ele>
        <time>2016-07-17T09:10:49Z</time>
      </trkpt>
      <trkpt lat="46.731" lon="6.35934">
        <ele>1319</ele>
        <time>2016-07-17T09:10:54Z</time>
      </trkpt>
      <trkpt lat="46.73095" lon="6.35936">
        <ele>1319</ele>
        <time>2016-07-17T09:12:36Z</time>
      </trkpt>
      <trkpt lat="46.73055" lon="6.35951">
        <ele>1313</ele>
        <time>2016-07-17T09:12:40Z</time>
      </trkpt>
      <trkpt lat="46.73016" lon="6.35962">
        <ele>1310</ele>
        <time>2016-07-17T09:12:44Z</time>
      </trkpt>
      <trkpt lat="46.72987" lon="6.35972">
        <ele>1310</ele>
        <time>2016-07-17T09:12:48Z</time>
      </trkpt>
      <trkpt lat="46.72973" lon="6.3598">
        <ele>1309</ele>
        <time>2016-07-17T09:12:53Z</time>
      </trkpt>
      <trkpt lat="46.72953" lon="6.35991">
        <ele>1309</ele>
        <time>2016-07-17T09:12:58Z</time>
      </trkpt>
      <trkpt lat="46.72942" lon="6.36007">
        <ele>1289</ele>
        <time>2016-07-17T09:13:02Z</time>
      </trkpt>
      <trkpt lat="46.72913" lon="6.36009">
        <ele>1297</ele>
        <time>2016-07-17T09:13:06Z</time>
      </trkpt>
      <trkpt lat="46.72897" lon="6.36024">
        <ele>1292</ele>
        <time>2016-07-17T09:13:10Z</time>
      </trkpt>
      <trkpt lat="46.72874" lon="6.36037">
        <ele>1290</ele>
        <time>2016-07-17T09:13:13Z</time>
      </trkpt>
      <trkpt lat="46.72816" lon="6.36074">
        <ele>1287</ele>
        <time>2016-07-17T09:13:18Z</time>
      </trkpt>
      <trkpt lat="46.7276" lon="6.36112">
        <ele>1270</ele>
        <time>2016-07-17T09:13:23Z</time>
      </trkpt>
      <trkpt lat="46.72726" lon="6.3612">
        <ele>1270</ele>
        <time>2016-07-17T09:13:26Z</time>
      </trkpt>
      <trkpt lat="46.72689" lon="6.36132">
        <ele>1268</ele>
        <time>2016-07-17T09:13:31Z</time>
      </trkpt>
      <trkpt lat="46.7265" lon="6.36161">
        <ele>1260</ele>
        <time>2016-07-17T09:13:36Z</time>
      </trkpt>
      <trkpt lat="46.72624" lon="6.36168">
        <ele>1244</ele>
        <time>2016-07-17T09:13:40Z</time>
      </trkpt>
      <trkpt lat="46.72606" lon="6.36181">
        <ele>1243</ele>
        <time>2016-07-17T09:13:45Z</time>
      </trkpt>
      <trkpt lat="46.72611" lon="6.36206">
        <ele>1239</ele>
        <time>2016-07-17T09:13:50Z</time>
      </trkpt>
      <trkpt lat="46.72621" lon="6.36216">
        <ele>1238</ele>
        <time>2016-07-17T09:13:54Z</time>
      </trkpt>
      <trkpt lat="46.7263" lon="6.36233">
        <ele>1236</ele>
        <time>2016-07-17T09:13:59Z</time>
      </trkpt>
      <trkpt lat="46.72647" lon="6.36258">
        <ele>1220</ele>
        <time>2016-07-17T09:14:03Z</time>
      </trkpt>
      <trkpt lat="46.7267" lon="6.36283">
        <ele>1220</ele>
        <time>2016-07-17T09:14:08Z</time>
      </trkpt>
      <trkpt lat="46.72693" lon="6.36304">
        <ele>1216</ele>
        <time>2016-07-17T09:14:12Z</time>
      </trkpt>
      <trkpt lat="46.72746" lon="6.36324">
        <ele>1213</ele>
        <time>2016-07-17T09:14:16Z</time>
      </trkpt>
      <trkpt lat="46.72782" lon="6.36317">
        <ele>1213</ele>
        <time>2016-07-17T09:14:19Z</time>
      </trkpt>
      <trkpt lat="46.7281" lon="6.36323">
        <ele>1211</ele>
        <time>2016-07-17T09:14:23Z</time>
      </trkpt>
      <trkpt lat="46.72801" lon="6.3635">
        <ele>1201</ele>
        <time>2016-07-17T09:14:28Z</time>
      </trkpt>
      <trkpt lat="46.72769" lon="6.36366">
        <ele>1201</ele>
        <time>2016-07-17T09:14:33Z</time>
      </trkpt>
      <trkpt lat="46.72741" lon="6.36378">
        <ele>1200</ele>
        <time>2016-07-17T09:14:37Z</time>
      </trkpt>
      <trkpt lat="46.72723" lon="6.36396">
        <ele>1198</ele>
        <time>2016-07-17T09:14:41Z</time>
      </trkpt>
      <trkpt lat="46.72689" lon="6.36406">
        <ele>1194</ele>
        <time>2016-07-17T09:14:46Z</time>
      </trkpt>
      <trkpt lat="46.72674" lon="6.36418">
        <ele>1185</ele>
        <time>2016-07-17T09:14:50Z</time>
      </trkpt>
      <trkpt lat="46.72652" lon="6.36429">
        <ele>1178</ele>
        <time>2016-07-17T09:14:54Z</time>
      </trkpt>
      <trkpt lat="46.72658" lon="6.36421">
        <ele>1181</ele>
        <time>2016-07-17T09:17:37Z</time>
      </trkpt>
      <trkpt lat="46.7266" lon="6.36408">
        <ele>1187</ele>
        <time>2016-07-17T09:17:41Z</time>
      </trkpt>
      <trkpt lat="46.7266" lon="6.36396">
        <ele>1188</ele>
        <time>2016-07-17T09:17:47Z</time>
      </trkpt>
      <trkpt lat="46.72665" lon="6.36385">
        <ele>1189</ele>
        <time>2016-07-17T09:17:56Z</time>
      </trkpt>
      <trkpt lat="46.72667" lon="6.36374">
        <ele>1191</ele>
        <time>2016-07-17T09:18:00Z</time>
      </trkpt>
      <trkpt lat="46.72666" lon="6.36362">
        <ele>1193</ele>
        <time>2016-07-17T09:18:10Z</time>
      </trkpt>
      <trkpt lat="46.72665" lon="6.3635">
        <ele>1197</ele>
        <time>2016-07-17T09:18:19Z</time>
      </trkpt>
      <trkpt lat="46.72667" lon="6.36341">
        <ele>1203</ele>
        <time>2016-07-17T09:19:05Z</time>
      </trkpt>
      <trkpt lat="46.72664" lon="6.36332">
        <ele>1206</ele>
        <time>2016-07-17T09:19:11Z</time>
      </trkpt>
      <trkpt lat="46.7266" lon="6.36321">
        <ele>1208</ele>
        <time>2016-07-17T09:19:15Z</time>
      </trkpt>
      <trkpt lat="46.72652" lon="6.36323">
        <ele>1208</ele>
        <time>2016-07-17T09:19:24Z</time>
      </trkpt>
      <trkpt lat="46.72644" lon="6.36329">
        <ele>1208</ele>
        <time>2016-07-17T09:19:35Z</time>
      </trkpt>
      <trkpt lat="46.72637" lon="6.36325">
        <ele>1208</ele>
        <time>2016-07-17T09:20:25Z</time>
      </trkpt>
      <trkpt lat="46.72631" lon="6.36316">
        <ele>1208</ele>
        <time>2016-07-17T09:20:30Z</time>
      </trkpt>
      <trkpt lat="46.72624" lon="6.36311">
        <ele>1208</ele>
        <time>2016-07-17T09:20:38Z</time>
      </trkpt>
      <trkpt lat="46.72616" lon="6.36307">
        <ele>1208</ele>
        <time>2016-07-17T09:20:54Z</time>
      </trkpt>
      <trkpt lat="46.7261" lon="6.363">
        <ele>1208</ele>
        <time>2016-07-17T09:20:59Z</time>
      </trkpt>
      <trkpt lat="46.72595" lon="6.3629">
        <ele>1209</ele>
        <time>2016-07-17T09:21:04Z</time>
      </trkpt>
      <trkpt lat="46.72589" lon="6.36281">
        <ele>1212</ele>
        <time>2016-07-17T09:21:17Z</time>
      </trkpt>
      <trkpt lat="46.72595" lon="6.36273">
        <ele>1213</ele>
        <time>2016-07-17T09:21:31Z</time>
      </trkpt>
      <trkpt lat="46.72588" lon="6.36266">
        <ele>1215</ele>
        <time>2016-07-17T09:21:46Z</time>
      </trkpt>
      <trkpt lat="46.72574" lon="6.36262">
        <ele>1207</ele>
        <time>2016-07-17T09:21:51Z</time>
      </trkpt>
      <trkpt lat="46.72567" lon="6.36265">
        <ele>1204</ele>
        <time>2016-07-17T09:21:54Z</time>
      </trkpt>
      <trkpt lat="46.72559" lon="6.36259">
        <ele>1202</ele>
        <time>2016-07-17T09:21:59Z</time>
      </trkpt>
      <trkpt lat="46.72548" lon="6.36257">
        <ele>1199</ele>
        <time>2016-07-17T09:22:03Z</time>
      </trkpt>
      <trkpt lat="46.72539" lon="6.36257">
        <ele>1197</ele>
        <time>2016-07-17T09:22:08Z</time>
      </trkpt>
      <trkpt lat="46.7253" lon="6.36257">
        <ele>1195</ele>
        <time>2016-07-17T09:22:13Z</time>
      </trkpt>
      <trkpt lat="46.72521" lon="6.36258">
        <ele>1194</ele>
        <time>2016-07-17T09:22:17Z</time>
      </trkpt>
      <trkpt lat="46.72507" lon="6.36256">
        <ele>1194</ele>
        <time>2016-07-17T09:22:22Z</time>
      </trkpt>
      <trkpt lat="46.72501" lon="6.36256">
        <ele>1194</ele>
        <time>2016-07-17T09:22:23Z</time>
      </trkpt>
      <trkpt lat="46.72495" lon="6.36247">
        <ele>1199</ele>
        <time>2016-07-17T09:22:30Z</time>
      </trkpt>
      <trkpt lat="46.7249" lon="6.36237">
        <ele>1206</ele>
        <time>2016-07-17T09:22:34Z</time>
      </trkpt>
      <trkpt lat="46.72481" lon="6.36231">
        <ele>1209</ele>
        <time>2016-07-17T09:22:38Z</time>
      </trkpt>
      <trkpt lat="46.72469" lon="6.36233">
        <ele>1211</ele>
        <time>2016-07-17T09:22:43Z</time>
      </trkpt>
      <trkpt lat="46.72456" lon="6.36241">
        <ele>1211</ele>
        <time>2016-07-17T09:22:47Z</time>
      </trkpt>
      <trkpt lat="46.72444" lon="6.36245">
        <ele>1211</ele>
        <time>2016-07-17T09:22:51Z</time>
      </trkpt>
      <trkpt lat="46.72436" lon="6.36239">
        <ele>1211</ele>
        <time>2016-07-17T09:23:14Z</time>
      </trkpt>
      <trkpt lat="46.72444" lon="6.36236">
        <ele>1212</ele>
        <time>2016-07-17T09:24:50Z</time>
      </trkpt>
      <trkpt lat="46.72443" lon="6.36249">
        <ele>1210</ele>
        <time>2016-07-17T09:28:30Z</time>
      </trkpt>
      <trkpt lat="46.72449" lon="6.36244">
        <ele>1211</ele>
        <time>2016-07-17T09:30:43Z</time>
      </trkpt>
      <trkpt lat="46.72455" lon="6.36236">
        <ele>1212</ele>
        <time>2016-07-17T09:30:49Z</time>
      </trkpt>
      <trkpt lat="46.72461" lon="6.36228">
        <ele>1213</ele>
        <time>2016-07-17T09:30:55Z</time>
      </trkpt>
      <trkpt lat="46.72468" lon="6.36223">
        <ele>1213</ele>
        <time>2016-07-17T09:31:29Z</time>
      </trkpt>
      <trkpt lat="46.72476" lon="6.36227">
        <ele>1211</ele>
        <time>2016-07-17T09:31:34Z</time>
      </trkpt>
      <trkpt lat="46.72487" lon="6.36226">
        <ele>1210</ele>
        <time>2016-07-17T09:31:38Z</time>
      </trkpt>
      <trkpt lat="46.72495" lon="6.36224">
        <ele>1210</ele>
        <time>2016-07-17T09:32:31Z</time>
      </trkpt>
      <trkpt lat="46.72501" lon="6.36231">
        <ele>1210</ele>
        <time>2016-07-17T09:32:37Z</time>
      </trkpt>
      <trkpt lat="46.72508" lon="6.36232">
        <ele>1210</ele>
        <time>2016-07-17T09:32:41Z</time>
      </trkpt>
      <trkpt lat="46.72522" lon="6.36232">
        <ele>1215</ele>
        <time>2016-07-17T09:32:46Z</time>
      </trkpt>
      <trkpt lat="46.72536" lon="6.36237">
        <ele>1217</ele>
        <time>2016-07-17T09:32:51Z</time>
      </trkpt>
      <trkpt lat="46.72544" lon="6.36242">
        <ele>1219</ele>
        <time>2016-07-17T09:32:55Z</time>
      </trkpt>
      <trkpt lat="46.72548" lon="6.36253">
        <ele>1200</ele>
        <time>2016-07-17T09:32:59Z</time>
      </trkpt>
      <trkpt lat="46.72553" lon="6.36259">
        <ele>1200</ele>
        <time>2016-07-17T09:33:02Z</time>
      </trkpt>
      <trkpt lat="46.72562" lon="6.36259">
        <ele>1203</ele>
        <time>2016-07-17T09:33:07Z</time>
      </trkpt>
      <trkpt lat="46.7257" lon="6.36262">
        <ele>1206</ele>
        <time>2016-07-17T09:33:15Z</time>
      </trkpt>
      <trkpt lat="46.72575" lon="6.36272">
        <ele>1203</ele>
        <time>2016-07-17T09:33:22Z</time>
      </trkpt>
      <trkpt lat="46.72589" lon="6.36272">
        <ele>1214</ele>
        <time>2016-07-17T09:33:27Z</time>
      </trkpt>
      <trkpt lat="46.72596" lon="6.36281">
        <ele>1212</ele>
        <time>2016-07-17T09:33:31Z</time>
      </trkpt>
      <trkpt lat="46.72601" lon="6.36295">
        <ele>1209</ele>
        <time>2016-07-17T09:33:36Z</time>
      </trkpt>
      <trkpt lat="46.72608" lon="6.36308">
        <ele>1206</ele>
        <time>2016-07-17T09:33:41Z</time>
      </trkpt>
      <trkpt lat="46.7262" lon="6.36322">
        <ele>1206</ele>
        <time>2016-07-17T09:33:45Z</time>
      </trkpt>
      <trkpt lat="46.72642" lon="6.36345">
        <ele>1193</ele>
        <time>2016-07-17T09:33:50Z</time>
      </trkpt>
      <trkpt lat="46.72655" lon="6.36352">
        <ele>1195</ele>
        <time>2016-07-17T09:33:53Z</time>
      </trkpt>
      <trkpt lat="46.72664" lon="6.36347">
        <ele>1197</ele>
        <time>2016-07-17T09:33:57Z</time>
      </trkpt>
      <trkpt lat="46.7266" lon="6.36338">
        <ele>1200</ele>
        <time>2016-07-17T09:34:03Z</time>
      </trkpt>
      <trkpt lat="46.72652" lon="6.36337">
        <ele>1197</ele>
        <time>2016-07-17T09:34:09Z</time>
      </trkpt>
      <trkpt lat="46.72645" lon="6.36345">
        <ele>1194</ele>
        <time>2016-07-17T09:34:14Z</time>
      </trkpt>
      <trkpt lat="46.72643" lon="6.36354">
        <ele>1192</ele>
        <time>2016-07-17T09:36:52Z</time>
      </trkpt>
      <trkpt lat="46.72642" lon="6.36378">
        <ele>1189</ele>
        <time>2016-07-17T09:36:56Z</time>
      </trkpt>
      <trkpt lat="46.72656" lon="6.36399">
        <ele>1187</ele>
        <time>2016-07-17T09:37:01Z</time>
      </trkpt>
      <trkpt lat="46.72666" lon="6.36408">
        <ele>1187</ele>
        <time>2016-07-17T09:37:05Z</time>
      </trkpt>
      <trkpt lat="46.7266" lon="6.36415">
        <ele>1186</ele>
        <time>2016-07-17T09:37:35Z</time>
      </trkpt>
      <trkpt lat="46.72655" lon="6.36423">
        <ele>1180</ele>
        <time>2016-07-17T09:38:32Z</time>
      </trkpt>
      <trkpt lat="46.72662" lon="6.36427">
        <ele>1181</ele>
        <time>2016-07-17T09:42:01Z</time>
      </trkpt>
      <trkpt lat="46.72681" lon="6.36448">
        <ele>1183</ele>
        <time>2016-07-17T09:42:05Z</time>
      </trkpt>
      <trkpt lat="46.72713" lon="6.36491">
        <ele>1181</ele>
        <time>2016-07-17T09:42:09Z</time>
      </trkpt>
      <trkpt lat="46.72738" lon="6.36555">
        <ele>1166</ele>
        <time>2016-07-17T09:42:14Z</time>
      </trkpt>
      <trkpt lat="46.72757" lon="6.36611">
        <ele>1151</ele>
        <time>2016-07-17T09:42:18Z</time>
      </trkpt>
      <trkpt lat="46.72771" lon="6.36668">
        <ele>1139</ele>
        <time>2016-07-17T09:42:22Z</time>
      </trkpt>
      <trkpt lat="46.72763" lon="6.36696">
        <ele>1136</ele>
        <time>2016-07-17T09:42:23Z</time>
      </trkpt>
      <trkpt lat="46.72745" lon="6.36762">
        <ele>1137</ele>
        <time>2016-07-17T09:42:29Z</time>
      </trkpt>
      <trkpt lat="46.72743" lon="6.36851">
        <ele>1135</ele>
        <time>2016-07-17T09:42:34Z</time>
      </trkpt>
      <trkpt lat="46.72725" lon="6.36904">
        <ele>1134</ele>
        <time>2016-07-17T09:42:38Z</time>
      </trkpt>
      <trkpt lat="46.7272" lon="6.36924">
        <ele>1132</ele>
        <time>2016-07-17T09:42:42Z</time>
      </trkpt>
      <trkpt lat="46.72719" lon="6.36966">
        <ele>1131</ele>
        <time>2016-07-17T09:42:46Z</time>
      </trkpt>
      <trkpt lat="46.72724" lon="6.36999">
        <ele>1129</ele>
        <time>2016-07-17T09:42:51Z</time>
      </trkpt>
      <trkpt lat="46.72725" lon="6.37021">
        <ele>1123</ele>
        <time>2016-07-17T09:42:55Z</time>
      </trkpt>
      <trkpt lat="46.72731" lon="6.37027">
        <ele>1122</ele>
        <time>2016-07-17T09:43:24Z</time>
      </trkpt>
      <trkpt lat="46.72693" lon="6.3703">
        <ele>1125</ele>
        <time>2016-07-17T09:44:53Z</time>
      </trkpt>
      <trkpt lat="46.72686" lon="6.37032">
        <ele>1126</ele>
        <time>2016-07-17T09:44:58Z</time>
      </trkpt>
      <trkpt lat="46.72678" lon="6.37027">
        <ele>1127</ele>
        <time>2016-07-17T09:45:08Z</time>
      </trkpt>
      <trkpt lat="46.72669" lon="6.37023">
        <ele>1128</ele>
        <time>2016-07-17T09:45:14Z</time>
      </trkpt>
      <trkpt lat="46.72662" lon="6.37022">
        <ele>1136</ele>
        <time>2016-07-17T09:45:18Z</time>
      </trkpt>
      <trkpt lat="46.72654" lon="6.37021">
        <ele>1137</ele>
        <time>2016-07-17T09:45:23Z</time>
      </trkpt>
      <trkpt lat="46.72646" lon="6.37021">
        <ele>1137</ele>
        <time>2016-07-17T09:45:29Z</time>
      </trkpt>
      <trkpt lat="46.72638" lon="6.37022">
        <ele>1138</ele>
        <time>2016-07-17T09:45:34Z</time>
      </trkpt>
      <trkpt lat="46.7263" lon="6.37023">
        <ele>1139</ele>
        <time>2016-07-17T09:45:39Z</time>
      </trkpt>
      <trkpt lat="46.72622" lon="6.37024">
        <ele>1139</ele>
        <time>2016-07-17T09:45:46Z</time>
      </trkpt>
      <trkpt lat="46.72615" lon="6.37025">
        <ele>1140</ele>
        <time>2016-07-17T09:45:50Z</time>
      </trkpt>
      <trkpt lat="46.72606" lon="6.37031">
        <ele>1141</ele>
        <time>2016-07-17T09:45:55Z</time>
      </trkpt>
      <trkpt lat="46.726" lon="6.3704">
        <ele>1140</ele>
        <time>2016-07-17T09:46:03Z</time>
      </trkpt>
      <trkpt lat="46.72592" lon="6.37038">
        <ele>1141</ele>
        <time>2016-07-17T09:46:14Z</time>
      </trkpt>
      <trkpt lat="46.72578" lon="6.37036">
        <ele>1153</ele>
        <time>2016-07-17T09:46:18Z</time>
      </trkpt>
      <trkpt lat="46.72563" lon="6.37039">
        <ele>1154</ele>
        <time>2016-07-17T09:46:21Z</time>
      </trkpt>
      <trkpt lat="46.72556" lon="6.37047">
        <ele>1154</ele>
        <time>2016-07-17T09:46:35Z</time>
      </trkpt>
      <trkpt lat="46.7255" lon="6.37052">
        <ele>1154</ele>
        <time>2016-07-17T09:46:44Z</time>
      </trkpt>
      <trkpt lat="46.72536" lon="6.37066">
        <ele>1155</ele>
        <time>2016-07-17T09:46:49Z</time>
      </trkpt>
      <trkpt lat="46.72531" lon="6.37072">
        <ele>1156</ele>
        <time>2016-07-17T09:46:52Z</time>
      </trkpt>
      <trkpt lat="46.72527" lon="6.37087">
        <ele>1147</ele>
        <time>2016-07-17T09:46:57Z</time>
      </trkpt>
      <trkpt lat="46.72523" lon="6.37098">
        <ele>1146</ele>
        <time>2016-07-17T09:47:03Z</time>
      </trkpt>
      <trkpt lat="46.72515" lon="6.37104">
        <ele>1147</ele>
        <time>2016-07-17T09:47:08Z</time>
      </trkpt>
      <trkpt lat="46.72507" lon="6.37108">
        <ele>1147</ele>
        <time>2016-07-17T09:47:14Z</time>
      </trkpt>
      <trkpt lat="46.72499" lon="6.37111">
        <ele>1161</ele>
        <time>2016-07-17T09:47:25Z</time>
      </trkpt>
      <trkpt lat="46.72492" lon="6.37118">
        <ele>1160</ele>
        <time>2016-07-17T09:47:35Z</time>
      </trkpt>
      <trkpt lat="46.72486" lon="6.37122">
        <ele>1160</ele>
        <time>2016-07-17T09:47:40Z</time>
      </trkpt>
      <trkpt lat="46.72476" lon="6.37127">
        <ele>1161</ele>
        <time>2016-07-17T09:47:45Z</time>
      </trkpt>
      <trkpt lat="46.72469" lon="6.37133">
        <ele>1161</ele>
        <time>2016-07-17T09:48:14Z</time>
      </trkpt>
      <trkpt lat="46.72459" lon="6.37142">
        <ele>1162</ele>
        <time>2016-07-17T09:48:19Z</time>
      </trkpt>
      <trkpt lat="46.72451" lon="6.37149">
        <ele>1162</ele>
        <time>2016-07-17T09:48:23Z</time>
      </trkpt>
      <trkpt lat="46.72444" lon="6.37157">
        <ele>1163</ele>
        <time>2016-07-17T09:48:28Z</time>
      </trkpt>
      <trkpt lat="46.72436" lon="6.37155">
        <ele>1164</ele>
        <time>2016-07-17T09:48:35Z</time>
      </trkpt>
      <trkpt lat="46.72427" lon="6.37157">
        <ele>1165</ele>
        <time>2016-07-17T09:48:40Z</time>
      </trkpt>
      <trkpt lat="46.72423" lon="6.37161">
        <ele>1165</ele>
        <time>2016-07-17T09:51:06Z</time>
      </trkpt>
      <trkpt lat="46.72394" lon="6.37163">
        <ele>1181</ele>
        <time>2016-07-17T09:51:11Z</time>
      </trkpt>
      <trkpt lat="46.72386" lon="6.37168">
        <ele>1163</ele>
        <time>2016-07-17T09:51:20Z</time>
      </trkpt>
      <trkpt lat="46.72378" lon="6.37168">
        <ele>1165</ele>
        <time>2016-07-17T09:51:35Z</time>
      </trkpt>
      <trkpt lat="46.72375" lon="6.37165">
        <ele>1187</ele>
        <time>2016-07-17T09:52:30Z</time>
      </trkpt>
      <trkpt lat="46.72339" lon="6.37153">
        <ele>1193</ele>
        <time>2016-07-17T09:52:35Z</time>
      </trkpt>
      <trkpt lat="46.72302" lon="6.37148">
        <ele>1209</ele>
        <time>2016-07-17T09:52:39Z</time>
      </trkpt>
      <trkpt lat="46.72285" lon="6.37154">
        <ele>1212</ele>
        <time>2016-07-17T09:52:43Z</time>
      </trkpt>
      <trkpt lat="46.7228" lon="6.37165">
        <ele>1212</ele>
        <time>2016-07-17T09:52:47Z</time>
      </trkpt>
      <trkpt lat="46.72275" lon="6.37183">
        <ele>1200</ele>
        <time>2016-07-17T09:52:52Z</time>
      </trkpt>
      <trkpt lat="46.72273" lon="6.37197">
        <ele>1197</ele>
        <time>2016-07-17T09:52:56Z</time>
      </trkpt>
      <trkpt lat="46.72282" lon="6.37194">
        <ele>1196</ele>
        <time>2016-07-17T09:53:00Z</time>
      </trkpt>
      <trkpt lat="46.72309" lon="6.37158">
        <ele>1206</ele>
        <time>2016-07-17T09:53:04Z</time>
      </trkpt>
      <trkpt lat="46.7231" lon="6.37172">
        <ele>1193</ele>
        <time>2016-07-17T09:54:09Z</time>
      </trkpt>
      <trkpt lat="46.72303" lon="6.37173">
        <ele>1194</ele>
        <time>2016-07-17T09:54:26Z</time>
      </trkpt>
      <trkpt lat="46.7229" lon="6.37175">
        <ele>1197</ele>
        <time>2016-07-17T09:54:31Z</time>
      </trkpt>
      <trkpt lat="46.72282" lon="6.37173">
        <ele>1199</ele>
        <time>2016-07-17T09:54:35Z</time>
      </trkpt>
      <trkpt lat="46.7227" lon="6.37184">
        <ele>1201</ele>
        <time>2016-07-17T09:54:40Z</time>
      </trkpt>
      <trkpt lat="46.72262" lon="6.37184">
        <ele>1204</ele>
        <time>2016-07-17T09:54:48Z</time>
      </trkpt>
      <trkpt lat="46.72253" lon="6.37183">
        <ele>1206</ele>
        <time>2016-07-17T09:55:10Z</time>
      </trkpt>
      <trkpt lat="46.72245" lon="6.37178">
        <ele>1217</ele>
        <time>2016-07-17T09:55:41Z</time>
      </trkpt>
      <trkpt lat="46.7224" lon="6.37168">
        <ele>1217</ele>
        <time>2016-07-17T09:57:16Z</time>
      </trkpt>
      <trkpt lat="46.72237" lon="6.37156">
        <ele>1221</ele>
        <time>2016-07-17T09:57:21Z</time>
      </trkpt>
      <trkpt lat="46.72233" lon="6.37146">
        <ele>1222</ele>
        <time>2016-07-17T09:57:27Z</time>
      </trkpt>
      <trkpt lat="46.72225" lon="6.37138">
        <ele>1223</ele>
        <time>2016-07-17T09:57:37Z</time>
      </trkpt>
      <trkpt lat="46.72219" lon="6.3713">
        <ele>1224</ele>
        <time>2016-07-17T09:57:47Z</time>
      </trkpt>
      <trkpt lat="46.72211" lon="6.37124">
        <ele>1224</ele>
        <time>2016-07-17T09:58:01Z</time>
      </trkpt>
      <trkpt lat="46.72203" lon="6.3712">
        <ele>1225</ele>
        <time>2016-07-17T09:58:48Z</time>
      </trkpt>
      <trkpt lat="46.72196" lon="6.37113">
        <ele>1225</ele>
        <time>2016-07-17T09:59:10Z</time>
      </trkpt>
      <trkpt lat="46.72188" lon="6.37106">
        <ele>1226</ele>
        <time>2016-07-17T09:59:15Z</time>
      </trkpt>
      <trkpt lat="46.72182" lon="6.37101">
        <ele>1226</ele>
        <time>2016-07-17T09:59:18Z</time>
      </trkpt>
      <trkpt lat="46.72168" lon="6.37098">
        <ele>1227</ele>
        <time>2016-07-17T09:59:23Z</time>
      </trkpt>
      <trkpt lat="46.72158" lon="6.37093">
        <ele>1227</ele>
        <time>2016-07-17T09:59:28Z</time>
      </trkpt>
      <trkpt lat="46.72146" lon="6.37084">
        <ele>1227</ele>
        <time>2016-07-17T09:59:32Z</time>
      </trkpt>
      <trkpt lat="46.72137" lon="6.37081">
        <ele>1228</ele>
        <time>2016-07-17T09:59:36Z</time>
      </trkpt>
      <trkpt lat="46.72128" lon="6.37083">
        <ele>1228</ele>
        <time>2016-07-17T09:59:46Z</time>
      </trkpt>
      <trkpt lat="46.72122" lon="6.37077">
        <ele>1228</ele>
        <time>2016-07-17T09:59:56Z</time>
      </trkpt>
      <trkpt lat="46.72116" lon="6.37068">
        <ele>1228</ele>
        <time>2016-07-17T10:00:01Z</time>
      </trkpt>
      <trkpt lat="46.72111" lon="6.37058">
        <ele>1228</ele>
        <time>2016-07-17T10:00:09Z</time>
      </trkpt>
      <trkpt lat="46.72108" lon="6.37044">
        <ele>1229</ele>
        <time>2016-07-17T10:00:13Z</time>
      </trkpt>
      <trkpt lat="46.72107" lon="6.37032">
        <ele>1230</ele>
        <time>2016-07-17T10:00:18Z</time>
      </trkpt>
      <trkpt lat="46.72108" lon="6.37017">
        <ele>1230</ele>
        <time>2016-07-17T10:00:22Z</time>
      </trkpt>
      <trkpt lat="46.7211" lon="6.37005">
        <ele>1231</ele>
        <time>2016-07-17T10:00:27Z</time>
      </trkpt>
      <trkpt lat="46.72104" lon="6.36998">
        <ele>1238</ele>
        <time>2016-07-17T10:00:30Z</time>
      </trkpt>
      <trkpt lat="46.72092" lon="6.36991">
        <ele>1237</ele>
        <time>2016-07-17T10:00:34Z</time>
      </trkpt>
      <trkpt lat="46.72087" lon="6.36981">
        <ele>1239</ele>
        <time>2016-07-17T10:00:41Z</time>
      </trkpt>
      <trkpt lat="46.72084" lon="6.36969">
        <ele>1242</ele>
        <time>2016-07-17T10:00:52Z</time>
      </trkpt>
      <trkpt lat="46.72081" lon="6.36957">
        <ele>1242</ele>
        <time>2016-07-17T10:00:57Z</time>
      </trkpt>
      <trkpt lat="46.72077" lon="6.36949">
        <ele>1243</ele>
        <time>2016-07-17T10:01:02Z</time>
      </trkpt>
      <trkpt lat="46.72072" lon="6.36941">
        <ele>1245</ele>
        <time>2016-07-17T10:01:09Z</time>
      </trkpt>
      <trkpt lat="46.72064" lon="6.3695">
        <ele>1242</ele>
        <time>2016-07-17T10:01:13Z</time>
      </trkpt>
      <trkpt lat="46.72056" lon="6.36955">
        <ele>1241</ele>
        <time>2016-07-17T10:06:13Z</time>
      </trkpt>
      <trkpt lat="46.72033" lon="6.36946">
        <ele>1241</ele>
        <time>2016-07-17T10:06:18Z</time>
      </trkpt>
      <trkpt lat="46.72011" lon="6.36938">
        <ele>1242</ele>
        <time>2016-07-17T10:06:23Z</time>
      </trkpt>
      <trkpt lat="46.72003" lon="6.36936">
        <ele>1243</ele>
        <time>2016-07-17T10:06:26Z</time>
      </trkpt>
      <trkpt lat="46.71985" lon="6.36928">
        <ele>1235</ele>
        <time>2016-07-17T10:06:30Z</time>
      </trkpt>
      <trkpt lat="46.71972" lon="6.36915">
        <ele>1242</ele>
        <time>2016-07-17T10:06:35Z</time>
      </trkpt>
      <trkpt lat="46.71961" lon="6.36895">
        <ele>1241</ele>
        <time>2016-07-17T10:06:40Z</time>
      </trkpt>
      <trkpt lat="46.71953" lon="6.36877">
        <ele>1241</ele>
        <time>2016-07-17T10:06:44Z</time>
      </trkpt>
      <trkpt lat="46.71939" lon="6.36852">
        <ele>1240</ele>
        <time>2016-07-17T10:06:49Z</time>
      </trkpt>
      <trkpt lat="46.71938" lon="6.36841">
        <ele>1240</ele>
        <time>2016-07-17T10:06:53Z</time>
      </trkpt>
      <trkpt lat="46.71938" lon="6.36828">
        <ele>1248</ele>
        <time>2016-07-17T10:07:01Z</time>
      </trkpt>
      <trkpt lat="46.71936" lon="6.36817">
        <ele>1249</ele>
        <time>2016-07-17T10:07:09Z</time>
      </trkpt>
      <trkpt lat="46.71937" lon="6.36806">
        <ele>1252</ele>
        <time>2016-07-17T10:07:20Z</time>
      </trkpt>
      <trkpt lat="46.71936" lon="6.36793">
        <ele>1254</ele>
        <time>2016-07-17T10:07:31Z</time>
      </trkpt>
      <trkpt lat="46.71934" lon="6.36783">
        <ele>1254</ele>
        <time>2016-07-17T10:07:43Z</time>
      </trkpt>
      <trkpt lat="46.71935" lon="6.3677">
        <ele>1254</ele>
        <time>2016-07-17T10:07:50Z</time>
      </trkpt>
      <trkpt lat="46.71936" lon="6.36758">
        <ele>1253</ele>
        <time>2016-07-17T10:07:57Z</time>
      </trkpt>
      <trkpt lat="46.71932" lon="6.36746">
        <ele>1258</ele>
        <time>2016-07-17T10:08:02Z</time>
      </trkpt>
      <trkpt lat="46.71931" lon="6.36736">
        <ele>1261</ele>
        <time>2016-07-17T10:08:09Z</time>
      </trkpt>
      <trkpt lat="46.71931" lon="6.36724">
        <ele>1264</ele>
        <time>2016-07-17T10:08:16Z</time>
      </trkpt>
      <trkpt lat="46.71928" lon="6.36711">
        <ele>1266</ele>
        <time>2016-07-17T10:08:25Z</time>
      </trkpt>
      <trkpt lat="46.71922" lon="6.36702">
        <ele>1266</ele>
        <time>2016-07-17T10:08:31Z</time>
      </trkpt>
      <trkpt lat="46.71921" lon="6.3669">
        <ele>1265</ele>
        <time>2016-07-17T10:08:39Z</time>
      </trkpt>
      <trkpt lat="46.71915" lon="6.36681">
        <ele>1246</ele>
        <time>2016-07-17T10:08:46Z</time>
      </trkpt>
      <trkpt lat="46.71912" lon="6.36672">
        <ele>1250</ele>
        <time>2016-07-17T10:08:53Z</time>
      </trkpt>
      <trkpt lat="46.71912" lon="6.36661">
        <ele>1254</ele>
        <time>2016-07-17T10:08:58Z</time>
      </trkpt>
      <trkpt lat="46.71912" lon="6.3665">
        <ele>1253</ele>
        <time>2016-07-17T10:09:04Z</time>
      </trkpt>
      <trkpt lat="46.71915" lon="6.36638">
        <ele>1253</ele>
        <time>2016-07-17T10:09:10Z</time>
      </trkpt>
      <trkpt lat="46.71916" lon="6.36626">
        <ele>1255</ele>
        <time>2016-07-17T10:09:16Z</time>
      </trkpt>
      <trkpt lat="46.71915" lon="6.36613">
        <ele>1259</ele>
        <time>2016-07-17T10:09:21Z</time>
      </trkpt>
      <trkpt lat="46.71905" lon="6.36604">
        <ele>1260</ele>
        <time>2016-07-17T10:09:25Z</time>
      </trkpt>
      <trkpt lat="46.71908" lon="6.36592">
        <ele>1267</ele>
        <time>2016-07-17T10:09:38Z</time>
      </trkpt>
      <trkpt lat="46.71907" lon="6.36585">
        <ele>1270</ele>
        <time>2016-07-17T10:09:42Z</time>
      </trkpt>
      <trkpt lat="46.71897" lon="6.36572">
        <ele>1272</ele>
        <time>2016-07-17T10:09:47Z</time>
      </trkpt>
      <trkpt lat="46.71871" lon="6.3659">
        <ele>1249</ele>
        <time>2016-07-17T10:09:52Z</time>
      </trkpt>
      <trkpt lat="46.71869" lon="6.36578">
        <ele>1261</ele>
        <time>2016-07-17T10:09:59Z</time>
      </trkpt>
      <trkpt lat="46.71875" lon="6.36559">
        <ele>1266</ele>
        <time>2016-07-17T10:10:04Z</time>
      </trkpt>
      <trkpt lat="46.71874" lon="6.36549">
        <ele>1267</ele>
        <time>2016-07-17T10:10:20Z</time>
      </trkpt>
      <trkpt lat="46.71875" lon="6.36536">
        <ele>1268</ele>
        <time>2016-07-17T10:10:31Z</time>
      </trkpt>
      <trkpt lat="46.71878" lon="6.36525">
        <ele>1270</ele>
        <time>2016-07-17T10:10:35Z</time>
      </trkpt>
      <trkpt lat="46.71868" lon="6.36513">
        <ele>1268</ele>
        <time>2016-07-17T10:10:39Z</time>
      </trkpt>
      <trkpt lat="46.71859" lon="6.36505">
        <ele>1264</ele>
        <time>2016-07-17T10:10:43Z</time>
      </trkpt>
      <trkpt lat="46.71861" lon="6.36493">
        <ele>1275</ele>
        <time>2016-07-17T10:10:53Z</time>
      </trkpt>
      <trkpt lat="46.71865" lon="6.36488">
        <ele>1278</ele>
        <time>2016-07-17T10:10:56Z</time>
      </trkpt>
      <trkpt lat="46.71873" lon="6.36473">
        <ele>1282</ele>
        <time>2016-07-17T10:11:01Z</time>
      </trkpt>
      <trkpt lat="46.71878" lon="6.36465">
        <ele>1285</ele>
        <time>2016-07-17T10:11:05Z</time>
      </trkpt>
      <trkpt lat="46.71886" lon="6.36443">
        <ele>1290</ele>
        <time>2016-07-17T10:11:09Z</time>
      </trkpt>
      <trkpt lat="46.71882" lon="6.36429">
        <ele>1290</ele>
        <time>2016-07-17T10:11:14Z</time>
      </trkpt>
      <trkpt lat="46.71876" lon="6.36423">
        <ele>1287</ele>
        <time>2016-07-17T10:11:19Z</time>
      </trkpt>
      <trkpt lat="46.71868" lon="6.3642">
        <ele>1284</ele>
        <time>2016-07-17T10:11:24Z</time>
      </trkpt>
      <trkpt lat="46.71858" lon="6.36414">
        <ele>1286</ele>
        <time>2016-07-17T10:11:29Z</time>
      </trkpt>
      <trkpt lat="46.7186" lon="6.36403">
        <ele>1289</ele>
        <time>2016-07-17T10:11:38Z</time>
      </trkpt>
      <trkpt lat="46.71863" lon="6.36392">
        <ele>1291</ele>
        <time>2016-07-17T10:11:46Z</time>
      </trkpt>
      <trkpt lat="46.71861" lon="6.36381">
        <ele>1292</ele>
        <time>2016-07-17T10:11:51Z</time>
      </trkpt>
      <trkpt lat="46.71862" lon="6.36368">
        <ele>1293</ele>
        <time>2016-07-17T10:11:55Z</time>
      </trkpt>
      <trkpt lat="46.71862" lon="6.36358">
        <ele>1294</ele>
        <time>2016-07-17T10:12:00Z</time>
      </trkpt>
      <trkpt lat="46.71863" lon="6.36352">
        <ele>1294</ele>
        <time>2016-07-17T10:12:03Z</time>
      </trkpt>
      <trkpt lat="46.71864" lon="6.36341">
        <ele>1294</ele>
        <time>2016-07-17T10:12:06Z</time>
      </trkpt>
      <trkpt lat="46.71864" lon="6.36328">
        <ele>1297</ele>
        <time>2016-07-17T10:12:14Z</time>
      </trkpt>
      <trkpt lat="46.71863" lon="6.36317">
        <ele>1297</ele>
        <time>2016-07-17T10:12:19Z</time>
      </trkpt>
      <trkpt lat="46.71863" lon="6.36305">
        <ele>1298</ele>
        <time>2016-07-17T10:12:25Z</time>
      </trkpt>
      <trkpt lat="46.71867" lon="6.36294">
        <ele>1299</ele>
        <time>2016-07-17T10:12:31Z</time>
      </trkpt>
      <trkpt lat="46.71863" lon="6.36283">
        <ele>1298</ele>
        <time>2016-07-17T10:12:39Z</time>
      </trkpt>
      <trkpt lat="46.7186" lon="6.36271">
        <ele>1297</ele>
        <time>2016-07-17T10:12:44Z</time>
      </trkpt>
      <trkpt lat="46.71861" lon="6.36256">
        <ele>1297</ele>
        <time>2016-07-17T10:12:49Z</time>
      </trkpt>
      <trkpt lat="46.71863" lon="6.36244">
        <ele>1298</ele>
        <time>2016-07-17T10:12:54Z</time>
      </trkpt>
      <trkpt lat="46.71864" lon="6.36232">
        <ele>1299</ele>
        <time>2016-07-17T10:13:00Z</time>
      </trkpt>
      <trkpt lat="46.71862" lon="6.36224">
        <ele>1299</ele>
        <time>2016-07-17T10:13:04Z</time>
      </trkpt>
      <trkpt lat="46.71857" lon="6.36215">
        <ele>1299</ele>
        <time>2016-07-17T10:13:08Z</time>
      </trkpt>
      <trkpt lat="46.71859" lon="6.36194">
        <ele>1300</ele>
        <time>2016-07-17T10:13:13Z</time>
      </trkpt>
      <trkpt lat="46.71866" lon="6.36182">
        <ele>1301</ele>
        <time>2016-07-17T10:13:17Z</time>
      </trkpt>
      <trkpt lat="46.71872" lon="6.36174">
        <ele>1302</ele>
        <time>2016-07-17T10:13:22Z</time>
      </trkpt>
      <trkpt lat="46.71876" lon="6.36167">
        <ele>1303</ele>
        <time>2016-07-17T10:13:27Z</time>
      </trkpt>
      <trkpt lat="46.7188" lon="6.36157">
        <ele>1306</ele>
        <time>2016-07-17T10:13:32Z</time>
      </trkpt>
      <trkpt lat="46.71885" lon="6.3615">
        <ele>1306</ele>
        <time>2016-07-17T10:13:41Z</time>
      </trkpt>
      <trkpt lat="46.71891" lon="6.3614">
        <ele>1307</ele>
        <time>2016-07-17T10:13:45Z</time>
      </trkpt>
      <trkpt lat="46.71893" lon="6.36132">
        <ele>1307</ele>
        <time>2016-07-17T10:13:49Z</time>
      </trkpt>
      <trkpt lat="46.71898" lon="6.36123">
        <ele>1308</ele>
        <time>2016-07-17T10:13:54Z</time>
      </trkpt>
      <trkpt lat="46.71904" lon="6.36117">
        <ele>1309</ele>
        <time>2016-07-17T10:13:59Z</time>
      </trkpt>
      <trkpt lat="46.71913" lon="6.36109">
        <ele>1310</ele>
        <time>2016-07-17T10:14:03Z</time>
      </trkpt>
      <trkpt lat="46.7192" lon="6.36105">
        <ele>1316</ele>
        <time>2016-07-17T10:14:07Z</time>
      </trkpt>
      <trkpt lat="46.71928" lon="6.36097">
        <ele>1317</ele>
        <time>2016-07-17T10:14:12Z</time>
      </trkpt>
      <trkpt lat="46.71934" lon="6.36088">
        <ele>1317</ele>
        <time>2016-07-17T10:14:16Z</time>
      </trkpt>
      <trkpt lat="46.71937" lon="6.36076">
        <ele>1320</ele>
        <time>2016-07-17T10:14:21Z</time>
      </trkpt>
      <trkpt lat="46.71942" lon="6.36068">
        <ele>1322</ele>
        <time>2016-07-17T10:14:29Z</time>
      </trkpt>
      <trkpt lat="46.71943" lon="6.36057">
        <ele>1322</ele>
        <time>2016-07-17T10:14:36Z</time>
      </trkpt>
      <trkpt lat="46.7194" lon="6.36067">
        <ele>1321</ele>
        <time>2016-07-17T10:16:48Z</time>
      </trkpt>
      <trkpt lat="46.71933" lon="6.36087">
        <ele>1317</ele>
        <time>2016-07-17T10:16:52Z</time>
      </trkpt>
      <trkpt lat="46.71921" lon="6.36115">
        <ele>1316</ele>
        <time>2016-07-17T10:16:57Z</time>
      </trkpt>
      <trkpt lat="46.71922" lon="6.36127">
        <ele>1316</ele>
        <time>2016-07-17T10:17:23Z</time>
      </trkpt>
      <trkpt lat="46.71929" lon="6.36134">
        <ele>1316</ele>
        <time>2016-07-17T10:17:32Z</time>
      </trkpt>
      <trkpt lat="46.71933" lon="6.36145">
        <ele>1316</ele>
        <time>2016-07-17T10:17:37Z</time>
      </trkpt>
      <trkpt lat="46.71934" lon="6.36157">
        <ele>1315</ele>
        <time>2016-07-17T10:17:43Z</time>
      </trkpt>
      <trkpt lat="46.71941" lon="6.36168">
        <ele>1316</ele>
        <time>2016-07-17T10:17:48Z</time>
      </trkpt>
      <trkpt lat="46.71951" lon="6.36174">
        <ele>1317</ele>
        <time>2016-07-17T10:17:51Z</time>
      </trkpt>
      <trkpt lat="46.71958" lon="6.36176">
        <ele>1317</ele>
        <time>2016-07-17T10:17:57Z</time>
      </trkpt>
      <trkpt lat="46.71966" lon="6.36178">
        <ele>1318</ele>
        <time>2016-07-17T10:18:02Z</time>
      </trkpt>
      <trkpt lat="46.71974" lon="6.36182">
        <ele>1319</ele>
        <time>2016-07-17T10:18:08Z</time>
      </trkpt>
      <trkpt lat="46.71983" lon="6.36186">
        <ele>1319</ele>
        <time>2016-07-17T10:18:14Z</time>
      </trkpt>
      <trkpt lat="46.7199" lon="6.36188">
        <ele>1320</ele>
        <time>2016-07-17T10:18:18Z</time>
      </trkpt>
      <trkpt lat="46.71998" lon="6.36192">
        <ele>1320</ele>
        <time>2016-07-17T10:18:25Z</time>
      </trkpt>
      <trkpt lat="46.72006" lon="6.36194">
        <ele>1325</ele>
        <time>2016-07-17T10:18:30Z</time>
      </trkpt>
      <trkpt lat="46.72014" lon="6.362">
        <ele>1325</ele>
        <time>2016-07-17T10:18:35Z</time>
      </trkpt>
      <trkpt lat="46.72021" lon="6.36207">
        <ele>1325</ele>
        <time>2016-07-17T10:18:40Z</time>
      </trkpt>
      <trkpt lat="46.72027" lon="6.36213">
        <ele>1326</ele>
        <time>2016-07-17T10:18:45Z</time>
      </trkpt>
      <trkpt lat="46.72033" lon="6.36221">
        <ele>1326</ele>
        <time>2016-07-17T10:18:51Z</time>
      </trkpt>
      <trkpt lat="46.72041" lon="6.36224">
        <ele>1326</ele>
        <time>2016-07-17T10:18:56Z</time>
      </trkpt>
      <trkpt lat="46.72049" lon="6.36228">
        <ele>1326</ele>
        <time>2016-07-17T10:19:02Z</time>
      </trkpt>
      <trkpt lat="46.72054" lon="6.36237">
        <ele>1326</ele>
        <time>2016-07-17T10:19:06Z</time>
      </trkpt>
      <trkpt lat="46.7206" lon="6.36242">
        <ele>1326</ele>
        <time>2016-07-17T10:19:11Z</time>
      </trkpt>
      <trkpt lat="46.72068" lon="6.36249">
        <ele>1326</ele>
        <time>2016-07-17T10:19:17Z</time>
      </trkpt>
      <trkpt lat="46.72075" lon="6.36255">
        <ele>1327</ele>
        <time>2016-07-17T10:19:23Z</time>
      </trkpt>
      <trkpt lat="46.72082" lon="6.36263">
        <ele>1327</ele>
        <time>2016-07-17T10:19:29Z</time>
      </trkpt>
      <trkpt lat="46.7209" lon="6.36267">
        <ele>1329</ele>
        <time>2016-07-17T10:19:36Z</time>
      </trkpt>
      <trkpt lat="46.72097" lon="6.36273">
        <ele>1329</ele>
        <time>2016-07-17T10:19:41Z</time>
      </trkpt>
      <trkpt lat="46.72105" lon="6.36276">
        <ele>1330</ele>
        <time>2016-07-17T10:19:47Z</time>
      </trkpt>
      <trkpt lat="46.72114" lon="6.36281">
        <ele>1330</ele>
        <time>2016-07-17T10:19:54Z</time>
      </trkpt>
      <trkpt lat="46.72119" lon="6.36271">
        <ele>1331</ele>
        <time>2016-07-17T10:21:10Z</time>
      </trkpt>
      <trkpt lat="46.72119" lon="6.3626">
        <ele>1331</ele>
        <time>2016-07-17T10:21:14Z</time>
      </trkpt>
      <trkpt lat="46.72124" lon="6.36249">
        <ele>1334</ele>
        <time>2016-07-17T10:21:19Z</time>
      </trkpt>
      <trkpt lat="46.72128" lon="6.36239">
        <ele>1334</ele>
        <time>2016-07-17T10:22:20Z</time>
      </trkpt>
      <trkpt lat="46.72132" lon="6.36233">
        <ele>1335</ele>
        <time>2016-07-17T10:22:23Z</time>
      </trkpt>
      <trkpt lat="46.72136" lon="6.36224">
        <ele>1335</ele>
        <time>2016-07-17T10:22:29Z</time>
      </trkpt>
      <trkpt lat="46.72142" lon="6.36218">
        <ele>1336</ele>
        <time>2016-07-17T10:22:35Z</time>
      </trkpt>
      <trkpt lat="46.72148" lon="6.36208">
        <ele>1337</ele>
        <time>2016-07-17T10:22:40Z</time>
      </trkpt>
      <trkpt lat="46.72156" lon="6.36209">
        <ele>1337</ele>
        <time>2016-07-17T10:22:46Z</time>
      </trkpt>
      <trkpt lat="46.72165" lon="6.36206">
        <ele>1338</ele>
        <time>2016-07-17T10:22:53Z</time>
      </trkpt>
      <trkpt lat="46.72172" lon="6.362">
        <ele>1338</ele>
        <time>2016-07-17T10:23:01Z</time>
      </trkpt>
      <trkpt lat="46.72178" lon="6.36191">
        <ele>1339</ele>
        <time>2016-07-17T10:24:58Z</time>
      </trkpt>
      <trkpt lat="46.72184" lon="6.3618">
        <ele>1340</ele>
        <time>2016-07-17T10:25:03Z</time>
      </trkpt>
      <trkpt lat="46.72188" lon="6.36171">
        <ele>1340</ele>
        <time>2016-07-17T10:25:07Z</time>
      </trkpt>
      <trkpt lat="46.72192" lon="6.36162">
        <ele>1349</ele>
        <time>2016-07-17T10:25:14Z</time>
      </trkpt>
      <trkpt lat="46.72197" lon="6.36152">
        <ele>1350</ele>
        <time>2016-07-17T10:25:22Z</time>
      </trkpt>
      <trkpt lat="46.72198" lon="6.36139">
        <ele>1351</ele>
        <time>2016-07-17T10:25:33Z</time>
      </trkpt>
      <trkpt lat="46.72201" lon="6.36128">
        <ele>1352</ele>
        <time>2016-07-17T10:26:07Z</time>
      </trkpt>
      <trkpt lat="46.72208" lon="6.36116">
        <ele>1353</ele>
        <time>2016-07-17T10:26:12Z</time>
      </trkpt>
      <trkpt lat="46.72214" lon="6.36102">
        <ele>1355</ele>
        <time>2016-07-17T10:26:17Z</time>
      </trkpt>
      <trkpt lat="46.7222" lon="6.36093">
        <ele>1356</ele>
        <time>2016-07-17T10:26:22Z</time>
      </trkpt>
      <trkpt lat="46.72226" lon="6.36085">
        <ele>1357</ele>
        <time>2016-07-17T10:26:27Z</time>
      </trkpt>
      <trkpt lat="46.72234" lon="6.36081">
        <ele>1366</ele>
        <time>2016-07-17T10:26:42Z</time>
      </trkpt>
      <trkpt lat="46.72239" lon="6.36072">
        <ele>1367</ele>
        <time>2016-07-17T10:26:51Z</time>
      </trkpt>
      <trkpt lat="46.72243" lon="6.36061">
        <ele>1368</ele>
        <time>2016-07-17T10:26:55Z</time>
      </trkpt>
      <trkpt lat="46.72247" lon="6.3605">
        <ele>1369</ele>
        <time>2016-07-17T10:27:00Z</time>
      </trkpt>
      <trkpt lat="46.72249" lon="6.36038">
        <ele>1370</ele>
        <time>2016-07-17T10:27:06Z</time>
      </trkpt>
      <trkpt lat="46.72254" lon="6.36029">
        <ele>1372</ele>
        <time>2016-07-17T10:27:10Z</time>
      </trkpt>
      <trkpt lat="46.72253" lon="6.36018">
        <ele>1374</ele>
        <time>2016-07-17T10:27:17Z</time>
      </trkpt>
      <trkpt lat="46.72247" lon="6.36009">
        <ele>1377</ele>
        <time>2016-07-17T10:27:22Z</time>
      </trkpt>
      <trkpt lat="46.72245" lon="6.35998">
        <ele>1381</ele>
        <time>2016-07-17T10:27:31Z</time>
      </trkpt>
      <trkpt lat="46.72238" lon="6.35988">
        <ele>1381</ele>
        <time>2016-07-17T10:27:51Z</time>
      </trkpt>
      <trkpt lat="46.72234" lon="6.35978">
        <ele>1382</ele>
        <time>2016-07-17T10:28:29Z</time>
      </trkpt>
      <trkpt lat="46.72235" lon="6.35965">
        <ele>1383</ele>
        <time>2016-07-17T10:29:22Z</time>
      </trkpt>
      <trkpt lat="46.72242" lon="6.35967">
        <ele>1383</ele>
        <time>2016-07-17T10:30:22Z</time>
      </trkpt>
      <trkpt lat="46.72251" lon="6.35963">
        <ele>1388</ele>
        <time>2016-07-17T10:30:31Z</time>
      </trkpt>
      <trkpt lat="46.72269" lon="6.35972">
        <ele>1387</ele>
        <time>2016-07-17T10:30:35Z</time>
      </trkpt>
      <trkpt lat="46.72279" lon="6.35974">
        <ele>1387</ele>
        <time>2016-07-17T10:30:39Z</time>
      </trkpt>
      <trkpt lat="46.72287" lon="6.3597">
        <ele>1388</ele>
        <time>2016-07-17T10:30:46Z</time>
      </trkpt>
      <trkpt lat="46.72296" lon="6.35968">
        <ele>1388</ele>
        <time>2016-07-17T10:30:52Z</time>
      </trkpt>
      <trkpt lat="46.72301" lon="6.35958">
        <ele>1389</ele>
        <time>2016-07-17T10:31:03Z</time>
      </trkpt>
      <trkpt lat="46.72308" lon="6.35952">
        <ele>1390</ele>
        <time>2016-07-17T10:31:08Z</time>
      </trkpt>
      <trkpt lat="46.72315" lon="6.35946">
        <ele>1391</ele>
        <time>2016-07-17T10:31:14Z</time>
      </trkpt>
      <trkpt lat="46.72322" lon="6.35939">
        <ele>1392</ele>
        <time>2016-07-17T10:31:22Z</time>
      </trkpt>
      <trkpt lat="46.72328" lon="6.35931">
        <ele>1394</ele>
        <time>2016-07-17T10:31:29Z</time>
      </trkpt>
      <trkpt lat="46.72338" lon="6.35929">
        <ele>1391</ele>
        <time>2016-07-17T10:31:34Z</time>
      </trkpt>
      <trkpt lat="46.72348" lon="6.35931">
        <ele>1388</ele>
        <time>2016-07-17T10:31:38Z</time>
      </trkpt>
      <trkpt lat="46.72355" lon="6.35924">
        <ele>1388</ele>
        <time>2016-07-17T10:32:23Z</time>
      </trkpt>
      <trkpt lat="46.72363" lon="6.3592">
        <ele>1387</ele>
        <time>2016-07-17T10:32:30Z</time>
      </trkpt>
      <trkpt lat="46.72371" lon="6.35919">
        <ele>1386</ele>
        <time>2016-07-17T10:32:36Z</time>
      </trkpt>
      <trkpt lat="46.72379" lon="6.35913">
        <ele>1398</ele>
        <time>2016-07-17T10:32:47Z</time>
      </trkpt>
      <trkpt lat="46.72386" lon="6.35907">
        <ele>1398</ele>
        <time>2016-07-17T10:32:57Z</time>
      </trkpt>
      <trkpt lat="46.72394" lon="6.35901">
        <ele>1397</ele>
        <time>2016-07-17T10:33:04Z</time>
      </trkpt>
      <trkpt lat="46.72401" lon="6.35894">
        <ele>1398</ele>
        <time>2016-07-17T10:33:15Z</time>
      </trkpt>
      <trkpt lat="46.72409" lon="6.35887">
        <ele>1398</ele>
        <time>2016-07-17T10:33:24Z</time>
      </trkpt>
      <trkpt lat="46.72416" lon="6.35881">
        <ele>1399</ele>
        <time>2016-07-17T10:33:29Z</time>
      </trkpt>
      <trkpt lat="46.72423" lon="6.35876">
        <ele>1396</ele>
        <time>2016-07-17T10:33:34Z</time>
      </trkpt>
      <trkpt lat="46.7243" lon="6.35877">
        <ele>1396</ele>
        <time>2016-07-17T10:33:43Z</time>
      </trkpt>
      <trkpt lat="46.72437" lon="6.35869">
        <ele>1397</ele>
        <time>2016-07-17T10:33:48Z</time>
      </trkpt>
      <trkpt lat="46.72444" lon="6.35863">
        <ele>1397</ele>
        <time>2016-07-17T10:33:54Z</time>
      </trkpt>
      <trkpt lat="46.72451" lon="6.35857">
        <ele>1398</ele>
        <time>2016-07-17T10:33:59Z</time>
      </trkpt>
      <trkpt lat="46.7246" lon="6.35854">
        <ele>1398</ele>
        <time>2016-07-17T10:34:04Z</time>
      </trkpt>
      <trkpt lat="46.72467" lon="6.35848">
        <ele>1399</ele>
        <time>2016-07-17T10:34:14Z</time>
      </trkpt>
      <trkpt lat="46.72474" lon="6.35841">
        <ele>1400</ele>
        <time>2016-07-17T10:34:21Z</time>
      </trkpt>
      <trkpt lat="46.72479" lon="6.35832">
        <ele>1413</ele>
        <time>2016-07-17T10:34:27Z</time>
      </trkpt>
      <trkpt lat="46.72486" lon="6.35825">
        <ele>1413</ele>
        <time>2016-07-17T10:34:36Z</time>
      </trkpt>
      <trkpt lat="46.72494" lon="6.35821">
        <ele>1413</ele>
        <time>2016-07-17T10:34:43Z</time>
      </trkpt>
      <trkpt lat="46.72501" lon="6.35814">
        <ele>1414</ele>
        <time>2016-07-17T10:34:49Z</time>
      </trkpt>
      <trkpt lat="46.72508" lon="6.35809">
        <ele>1415</ele>
        <time>2016-07-17T10:34:56Z</time>
      </trkpt>
      <trkpt lat="46.72516" lon="6.35804">
        <ele>1416</ele>
        <time>2016-07-17T10:35:04Z</time>
      </trkpt>
      <trkpt lat="46.72524" lon="6.35799">
        <ele>1416</ele>
        <time>2016-07-17T10:35:15Z</time>
      </trkpt>
      <trkpt lat="46.72531" lon="6.35797">
        <ele>1417</ele>
        <time>2016-07-17T10:35:45Z</time>
      </trkpt>
      <trkpt lat="46.72539" lon="6.35793">
        <ele>1417</ele>
        <time>2016-07-17T10:35:51Z</time>
      </trkpt>
      <trkpt lat="46.72548" lon="6.35789">
        <ele>1418</ele>
        <time>2016-07-17T10:35:56Z</time>
      </trkpt>
      <trkpt lat="46.72553" lon="6.35786">
        <ele>1418</ele>
        <time>2016-07-17T10:35:59Z</time>
      </trkpt>
      <trkpt lat="46.72562" lon="6.35786">
        <ele>1418</ele>
        <time>2016-07-17T10:36:05Z</time>
      </trkpt>
      <trkpt lat="46.7257" lon="6.35783">
        <ele>1419</ele>
        <time>2016-07-17T10:36:13Z</time>
      </trkpt>
      <trkpt lat="46.72578" lon="6.35778">
        <ele>1421</ele>
        <time>2016-07-17T10:36:20Z</time>
      </trkpt>
      <trkpt lat="46.72585" lon="6.35772">
        <ele>1422</ele>
        <time>2016-07-17T10:36:26Z</time>
      </trkpt>
      <trkpt lat="46.72592" lon="6.35766">
        <ele>1424</ele>
        <time>2016-07-17T10:36:32Z</time>
      </trkpt>
      <trkpt lat="46.72599" lon="6.35759">
        <ele>1425</ele>
        <time>2016-07-17T10:36:42Z</time>
      </trkpt>
      <trkpt lat="46.72606" lon="6.35753">
        <ele>1424</ele>
        <time>2016-07-17T10:36:48Z</time>
      </trkpt>
      <trkpt lat="46.72613" lon="6.35749">
        <ele>1438</ele>
        <time>2016-07-17T10:36:54Z</time>
      </trkpt>
      <trkpt lat="46.72621" lon="6.35748">
        <ele>1438</ele>
        <time>2016-07-17T10:37:01Z</time>
      </trkpt>
      <trkpt lat="46.72629" lon="6.35746">
        <ele>1438</ele>
        <time>2016-07-17T10:37:08Z</time>
      </trkpt>
      <trkpt lat="46.72636" lon="6.35743">
        <ele>1438</ele>
        <time>2016-07-17T10:37:15Z</time>
      </trkpt>
      <trkpt lat="46.72645" lon="6.35739">
        <ele>1438</ele>
        <time>2016-07-17T10:37:20Z</time>
      </trkpt>
      <trkpt lat="46.72653" lon="6.35735">
        <ele>1438</ele>
        <time>2016-07-17T10:37:26Z</time>
      </trkpt>
      <trkpt lat="46.72661" lon="6.35735">
        <ele>1437</ele>
        <time>2016-07-17T10:37:31Z</time>
      </trkpt>
      <trkpt lat="46.72667" lon="6.35727">
        <ele>1439</ele>
        <time>2016-07-17T10:37:36Z</time>
      </trkpt>
      <trkpt lat="46.72674" lon="6.35722">
        <ele>1440</ele>
        <time>2016-07-17T10:37:41Z</time>
      </trkpt>
      <trkpt lat="46.72682" lon="6.35722">
        <ele>1440</ele>
        <time>2016-07-17T10:37:47Z</time>
      </trkpt>
      <trkpt lat="46.72689" lon="6.35717">
        <ele>1441</ele>
        <time>2016-07-17T10:37:52Z</time>
      </trkpt>
      <trkpt lat="46.72698" lon="6.35718">
        <ele>1441</ele>
        <time>2016-07-17T10:37:58Z</time>
      </trkpt>
      <trkpt lat="46.72706" lon="6.35713">
        <ele>1441</ele>
        <time>2016-07-17T10:38:05Z</time>
      </trkpt>
      <trkpt lat="46.72712" lon="6.35721">
        <ele>1440</ele>
        <time>2016-07-17T10:38:10Z</time>
      </trkpt>
      <trkpt lat="46.7272" lon="6.35722">
        <ele>1440</ele>
        <time>2016-07-17T10:38:16Z</time>
      </trkpt>
      <trkpt lat="46.72727" lon="6.35716">
        <ele>1441</ele>
        <time>2016-07-17T10:38:24Z</time>
      </trkpt>
      <trkpt lat="46.72736" lon="6.35719">
        <ele>1440</ele>
        <time>2016-07-17T10:38:31Z</time>
      </trkpt>
      <trkpt lat="46.72745" lon="6.35719">
        <ele>1440</ele>
        <time>2016-07-17T10:38:36Z</time>
      </trkpt>
      <trkpt lat="46.72753" lon="6.35718">
        <ele>1439</ele>
        <time>2016-07-17T10:38:44Z</time>
      </trkpt>
      <trkpt lat="46.72758" lon="6.35708">
        <ele>1441</ele>
        <time>2016-07-17T10:40:12Z</time>
      </trkpt>
      <trkpt lat="46.72765" lon="6.35709">
        <ele>1441</ele>
        <time>2016-07-17T10:48:10Z</time>
      </trkpt>
      <trkpt lat="46.72783" lon="6.35715">
        <ele>1440</ele>
        <time>2016-07-17T10:48:15Z</time>
      </trkpt>
      <trkpt lat="46.72802" lon="6.35718">
        <ele>1439</ele>
        <time>2016-07-17T10:48:19Z</time>
      </trkpt>
      <trkpt lat="46.7281" lon="6.35716">
        <ele>1440</ele>
        <time>2016-07-17T10:48:42Z</time>
      </trkpt>
      <trkpt lat="46.7282" lon="6.35719">
        <ele>1439</ele>
        <time>2016-07-17T10:48:46Z</time>
      </trkpt>
      <trkpt lat="46.7283" lon="6.3572">
        <ele>1438</ele>
        <time>2016-07-17T10:48:50Z</time>
      </trkpt>
      <trkpt lat="46.72839" lon="6.35717">
        <ele>1438</ele>
        <time>2016-07-17T10:48:54Z</time>
      </trkpt>
      <trkpt lat="46.72847" lon="6.35718">
        <ele>1438</ele>
        <time>2016-07-17T10:48:59Z</time>
      </trkpt>
      <trkpt lat="46.72857" lon="6.3572">
        <ele>1438</ele>
        <time>2016-07-17T10:49:04Z</time>
      </trkpt>
      <trkpt lat="46.72866" lon="6.35721">
        <ele>1438</ele>
        <time>2016-07-17T10:49:08Z</time>
      </trkpt>
      <trkpt lat="46.72875" lon="6.35721">
        <ele>1438</ele>
        <time>2016-07-17T10:49:11Z</time>
      </trkpt>
      <trkpt lat="46.72884" lon="6.35725">
        <ele>1438</ele>
        <time>2016-07-17T10:49:35Z</time>
      </trkpt>
      <trkpt lat="46.7289" lon="6.35715">
        <ele>1438</ele>
        <time>2016-07-17T11:31:28Z</time>
      </trkpt>
      <trkpt lat="46.72897" lon="6.35715">
        <ele>1438</ele>
        <time>2016-07-17T11:31:32Z</time>
      </trkpt>
      <trkpt lat="46.72906" lon="6.35713">
        <ele>1438</ele>
        <time>2016-07-17T11:31:38Z</time>
      </trkpt>
      <trkpt lat="46.72912" lon="6.35711">
        <ele>1439</ele>
        <time>2016-07-17T11:31:43Z</time>
      </trkpt>
      <trkpt lat="46.7292" lon="6.35708">
        <ele>1435</ele>
        <time>2016-07-17T11:31:46Z</time>
      </trkpt>
      <trkpt lat="46.72927" lon="6.35709">
        <ele>1434</ele>
        <time>2016-07-17T11:32:08Z</time>
      </trkpt>
      <trkpt lat="46.72933" lon="6.35708">
        <ele>1434</ele>
        <time>2016-07-17T11:32:11Z</time>
      </trkpt>
      <trkpt lat="46.72948" lon="6.3571">
        <ele>1433</ele>
        <time>2016-07-17T11:32:16Z</time>
      </trkpt>
      <trkpt lat="46.7296" lon="6.35708">
        <ele>1432</ele>
        <time>2016-07-17T11:32:20Z</time>
      </trkpt>
      <trkpt lat="46.72976" lon="6.35702">
        <ele>1432</ele>
        <time>2016-07-17T11:32:24Z</time>
      </trkpt>
      <trkpt lat="46.72985" lon="6.35704">
        <ele>1431</ele>
        <time>2016-07-17T11:32:29Z</time>
      </trkpt>
      <trkpt lat="46.72994" lon="6.35705">
        <ele>1431</ele>
        <time>2016-07-17T11:32:35Z</time>
      </trkpt>
      <trkpt lat="46.73" lon="6.35708">
        <ele>1426</ele>
        <time>2016-07-17T11:33:13Z</time>
      </trkpt>
      <trkpt lat="46.73015" lon="6.3571">
        <ele>1426</ele>
        <time>2016-07-17T11:33:16Z</time>
      </trkpt>
      <trkpt lat="46.73035" lon="6.35715">
        <ele>1425</ele>
        <time>2016-07-17T11:33:21Z</time>
      </trkpt>
      <trkpt lat="46.73056" lon="6.35715">
        <ele>1425</ele>
        <time>2016-07-17T11:33:25Z</time>
      </trkpt>
      <trkpt lat="46.73065" lon="6.35716">
        <ele>1424</ele>
        <time>2016-07-17T11:33:29Z</time>
      </trkpt>
      <trkpt lat="46.73074" lon="6.35716">
        <ele>1424</ele>
        <time>2016-07-17T11:33:35Z</time>
      </trkpt>
      <trkpt lat="46.73082" lon="6.35715">
        <ele>1424</ele>
        <time>2016-07-17T11:33:40Z</time>
      </trkpt>
      <trkpt lat="46.7309" lon="6.35715">
        <ele>1422</ele>
        <time>2016-07-17T11:33:46Z</time>
      </trkpt>
      <trkpt lat="46.73096" lon="6.35715">
        <ele>1422</ele>
        <time>2016-07-17T11:33:50Z</time>
      </trkpt>
      <trkpt lat="46.73103" lon="6.35712">
        <ele>1423</ele>
        <time>2016-07-17T11:33:55Z</time>
      </trkpt>
      <trkpt lat="46.7311" lon="6.35715">
        <ele>1422</ele>
        <time>2016-07-17T11:34:00Z</time>
      </trkpt>
      <trkpt lat="46.73118" lon="6.35715">
        <ele>1422</ele>
        <time>2016-07-17T11:34:04Z</time>
      </trkpt>
      <trkpt lat="46.73125" lon="6.3571">
        <ele>1422</ele>
        <time>2016-07-17T11:34:08Z</time>
      </trkpt>
      <trkpt lat="46.73132" lon="6.35708">
        <ele>1422</ele>
        <time>2016-07-17T11:34:12Z</time>
      </trkpt>
      <trkpt lat="46.73139" lon="6.35709">
        <ele>1422</ele>
        <time>2016-07-17T11:34:16Z</time>
      </trkpt>
      <trkpt lat="46.73147" lon="6.3571">
        <ele>1422</ele>
        <time>2016-07-17T11:34:20Z</time>
      </trkpt>
      <trkpt lat="46.73157" lon="6.35711">
        <ele>1421</ele>
        <time>2016-07-17T11:34:25Z</time>
      </trkpt>
      <trkpt lat="46.73166" lon="6.35711">
        <ele>1421</ele>
        <time>2016-07-17T11:34:29Z</time>
      </trkpt>
      <trkpt lat="46.73176" lon="6.35711">
        <ele>1420</ele>
        <time>2016-07-17T11:34:33Z</time>
      </trkpt>
      <trkpt lat="46.73186" lon="6.3571">
        <ele>1420</ele>
        <time>2016-07-17T11:34:36Z</time>
      </trkpt>
      <trkpt lat="46.73195" lon="6.35705">
        <ele>1421</ele>
        <time>2016-07-17T11:34:39Z</time>
      </trkpt>
      <trkpt lat="46.7321" lon="6.35699">
        <ele>1422</ele>
        <time>2016-07-17T11:34:44Z</time>
      </trkpt>
      <trkpt lat="46.7322" lon="6.35695">
        <ele>1423</ele>
        <time>2016-07-17T11:34:48Z</time>
      </trkpt>
      <trkpt lat="46.73231" lon="6.35692">
        <ele>1424</ele>
        <time>2016-07-17T11:34:53Z</time>
      </trkpt>
      <trkpt lat="46.7324" lon="6.35689">
        <ele>1426</ele>
        <time>2016-07-17T11:34:57Z</time>
      </trkpt>
      <trkpt lat="46.73249" lon="6.35686">
        <ele>1427</ele>
        <time>2016-07-17T11:35:03Z</time>
      </trkpt>
      <trkpt lat="46.73257" lon="6.35682">
        <ele>1428</ele>
        <time>2016-07-17T11:35:09Z</time>
      </trkpt>
      <trkpt lat="46.73265" lon="6.35679">
        <ele>1427</ele>
        <time>2016-07-17T11:35:15Z</time>
      </trkpt>
      <trkpt lat="46.73274" lon="6.35677">
        <ele>1426</ele>
        <time>2016-07-17T11:35:22Z</time>
      </trkpt>
      <trkpt lat="46.73282" lon="6.35677">
        <ele>1425</ele>
        <time>2016-07-17T11:35:30Z</time>
      </trkpt>
      <trkpt lat="46.73291" lon="6.35675">
        <ele>1425</ele>
        <time>2016-07-17T11:35:37Z</time>
      </trkpt>
      <trkpt lat="46.73299" lon="6.35673">
        <ele>1426</ele>
        <time>2016-07-17T11:35:44Z</time>
      </trkpt>
      <trkpt lat="46.73306" lon="6.35673">
        <ele>1427</ele>
        <time>2016-07-17T11:35:49Z</time>
      </trkpt>
      <trkpt lat="46.73312" lon="6.35672">
        <ele>1429</ele>
        <time>2016-07-17T11:35:53Z</time>
      </trkpt>
      <trkpt lat="46.73321" lon="6.35671">
        <ele>1433</ele>
        <time>2016-07-17T11:35:59Z</time>
      </trkpt>
      <trkpt lat="46.73329" lon="6.35669">
        <ele>1439</ele>
        <time>2016-07-17T11:36:05Z</time>
      </trkpt>
      <trkpt lat="46.73337" lon="6.35664">
        <ele>1439</ele>
        <time>2016-07-17T11:36:11Z</time>
      </trkpt>
      <trkpt lat="46.73345" lon="6.35661">
        <ele>1431</ele>
        <time>2016-07-17T11:36:16Z</time>
      </trkpt>
      <trkpt lat="46.73352" lon="6.35655">
        <ele>1425</ele>
        <time>2016-07-17T11:36:21Z</time>
      </trkpt>
      <trkpt lat="46.73358" lon="6.35647">
        <ele>1420</ele>
        <time>2016-07-17T11:36:27Z</time>
      </trkpt>
      <trkpt lat="46.73362" lon="6.35634">
        <ele>1419</ele>
        <time>2016-07-17T11:36:32Z</time>
      </trkpt>
      <trkpt lat="46.73373" lon="6.35609">
        <ele>1420</ele>
        <time>2016-07-17T11:36:37Z</time>
      </trkpt>
      <trkpt lat="46.73389" lon="6.3559">
        <ele>1422</ele>
        <time>2016-07-17T11:36:41Z</time>
      </trkpt>
      <trkpt lat="46.73406" lon="6.3556">
        <ele>1434</ele>
        <time>2016-07-17T11:36:46Z</time>
      </trkpt>
      <trkpt lat="46.73425" lon="6.35528">
        <ele>1421</ele>
        <time>2016-07-17T11:36:51Z</time>
      </trkpt>
      <trkpt lat="46.73444" lon="6.35496">
        <ele>1431</ele>
        <time>2016-07-17T11:36:54Z</time>
      </trkpt>
      <trkpt lat="46.73461" lon="6.35467">
        <ele>1429</ele>
        <time>2016-07-17T11:36:59Z</time>
      </trkpt>
      <trkpt lat="46.73477" lon="6.35456">
        <ele>1428</ele>
        <time>2016-07-17T11:37:03Z</time>
      </trkpt>
      <trkpt lat="46.73488" lon="6.3546">
        <ele>1427</ele>
        <time>2016-07-17T11:37:07Z</time>
      </trkpt>
      <trkpt lat="46.73495" lon="6.35456">
        <ele>1427</ele>
        <time>2016-07-17T11:37:11Z</time>
      </trkpt>
      <trkpt lat="46.73502" lon="6.35448">
        <ele>1418</ele>
        <time>2016-07-17T11:37:32Z</time>
      </trkpt>
      <trkpt lat="46.73509" lon="6.35439">
        <ele>1418</ele>
        <time>2016-07-17T11:37:37Z</time>
      </trkpt>
      <trkpt lat="46.73522" lon="6.354">
        <ele>1423</ele>
        <time>2016-07-17T11:37:42Z</time>
      </trkpt>
      <trkpt lat="46.73528" lon="6.35372">
        <ele>1421</ele>
        <time>2016-07-17T11:37:47Z</time>
      </trkpt>
      <trkpt lat="46.73543" lon="6.35355">
        <ele>1421</ele>
        <time>2016-07-17T11:37:52Z</time>
      </trkpt>
      <trkpt lat="46.7355" lon="6.35346">
        <ele>1420</ele>
        <time>2016-07-17T11:38:06Z</time>
      </trkpt>
      <trkpt lat="46.73556" lon="6.35337">
        <ele>1420</ele>
        <time>2016-07-17T11:38:25Z</time>
      </trkpt>
      <trkpt lat="46.73564" lon="6.35337">
        <ele>1420</ele>
        <time>2016-07-17T11:38:58Z</time>
      </trkpt>
      <trkpt lat="46.73572" lon="6.35338">
        <ele>1419</ele>
        <time>2016-07-17T11:39:04Z</time>
      </trkpt>
      <trkpt lat="46.7358" lon="6.35342">
        <ele>1419</ele>
        <time>2016-07-17T11:39:10Z</time>
      </trkpt>
      <trkpt lat="46.73585" lon="6.35346">
        <ele>1419</ele>
        <time>2016-07-17T11:39:16Z</time>
      </trkpt>
      <trkpt lat="46.73593" lon="6.35351">
        <ele>1419</ele>
        <time>2016-07-17T11:39:20Z</time>
      </trkpt>
      <trkpt lat="46.73601" lon="6.35356">
        <ele>1419</ele>
        <time>2016-07-17T11:39:25Z</time>
      </trkpt>
      <trkpt lat="46.73606" lon="6.35366">
        <ele>1419</ele>
        <time>2016-07-17T11:39:30Z</time>
      </trkpt>
      <trkpt lat="46.73612" lon="6.35372">
        <ele>1420</ele>
        <time>2016-07-17T11:39:34Z</time>
      </trkpt>
      <trkpt lat="46.73619" lon="6.35376">
        <ele>1420</ele>
        <time>2016-07-17T11:39:38Z</time>
      </trkpt>
      <trkpt lat="46.73628" lon="6.35382">
        <ele>1420</ele>
        <time>2016-07-17T11:39:43Z</time>
      </trkpt>
      <trkpt lat="46.73636" lon="6.35388">
        <ele>1420</ele>
        <time>2016-07-17T11:39:47Z</time>
      </trkpt>
      <trkpt lat="46.73643" lon="6.35392">
        <ele>1420</ele>
        <time>2016-07-17T11:39:50Z</time>
      </trkpt>
      <trkpt lat="46.73654" lon="6.35395">
        <ele>1420</ele>
        <time>2016-07-17T11:39:55Z</time>
      </trkpt>
      <trkpt lat="46.73662" lon="6.35395">
        <ele>1420</ele>
        <time>2016-07-17T11:39:59Z</time>
      </trkpt>
      <trkpt lat="46.73677" lon="6.35397">
        <ele>1419</ele>
        <time>2016-07-17T11:40:04Z</time>
      </trkpt>
      <trkpt lat="46.73684" lon="6.35402">
        <ele>1419</ele>
        <time>2016-07-17T11:40:08Z</time>
      </trkpt>
      <trkpt lat="46.73691" lon="6.35408">
        <ele>1419</ele>
        <time>2016-07-17T11:40:13Z</time>
      </trkpt>
      <trkpt lat="46.73696" lon="6.35413">
        <ele>1418</ele>
        <time>2016-07-17T11:40:17Z</time>
      </trkpt>
      <trkpt lat="46.73702" lon="6.35421">
        <ele>1411</ele>
        <time>2016-07-17T11:40:22Z</time>
      </trkpt>
      <trkpt lat="46.73711" lon="6.35432">
        <ele>1409</ele>
        <time>2016-07-17T11:40:26Z</time>
      </trkpt>
      <trkpt lat="46.73723" lon="6.35444">
        <ele>1408</ele>
        <time>2016-07-17T11:40:31Z</time>
      </trkpt>
      <trkpt lat="46.73738" lon="6.35451">
        <ele>1407</ele>
        <time>2016-07-17T11:40:35Z</time>
      </trkpt>
      <trkpt lat="46.73761" lon="6.35451">
        <ele>1411</ele>
        <time>2016-07-17T11:40:40Z</time>
      </trkpt>
      <trkpt lat="46.73783" lon="6.35442">
        <ele>1413</ele>
        <time>2016-07-17T11:40:45Z</time>
      </trkpt>
      <trkpt lat="46.73796" lon="6.35442">
        <ele>1413</ele>
        <time>2016-07-17T11:40:49Z</time>
      </trkpt>
      <trkpt lat="46.73808" lon="6.35442">
        <ele>1413</ele>
        <time>2016-07-17T11:40:53Z</time>
      </trkpt>
      <trkpt lat="46.73825" lon="6.35446">
        <ele>1414</ele>
        <time>2016-07-17T11:40:57Z</time>
      </trkpt>
      <trkpt lat="46.73845" lon="6.3545">
        <ele>1412</ele>
        <time>2016-07-17T11:41:01Z</time>
      </trkpt>
      <trkpt lat="46.73867" lon="6.35454">
        <ele>1410</ele>
        <time>2016-07-17T11:41:05Z</time>
      </trkpt>
      <trkpt lat="46.73883" lon="6.35451">
        <ele>1409</ele>
        <time>2016-07-17T11:41:09Z</time>
      </trkpt>
      <trkpt lat="46.73893" lon="6.35449">
        <ele>1408</ele>
        <time>2016-07-17T11:41:14Z</time>
      </trkpt>
      <trkpt lat="46.73917" lon="6.35461">
        <ele>1402</ele>
        <time>2016-07-17T11:41:18Z</time>
      </trkpt>
      <trkpt lat="46.73936" lon="6.35486">
        <ele>1402</ele>
        <time>2016-07-17T11:41:23Z</time>
      </trkpt>
      <trkpt lat="46.73955" lon="6.35505">
        <ele>1386</ele>
        <time>2016-07-17T11:41:28Z</time>
      </trkpt>
      <trkpt lat="46.73967" lon="6.35519">
        <ele>1384</ele>
        <time>2016-07-17T11:41:32Z</time>
      </trkpt>
      <trkpt lat="46.73981" lon="6.35534">
        <ele>1383</ele>
        <time>2016-07-17T11:41:36Z</time>
      </trkpt>
      <trkpt lat="46.73995" lon="6.35545">
        <ele>1381</ele>
        <time>2016-07-17T11:41:40Z</time>
      </trkpt>
      <trkpt lat="46.7401" lon="6.35544">
        <ele>1392</ele>
        <time>2016-07-17T11:41:44Z</time>
      </trkpt>
      <trkpt lat="46.74021" lon="6.35541">
        <ele>1393</ele>
        <time>2016-07-17T11:41:47Z</time>
      </trkpt>
      <trkpt lat="46.7404" lon="6.35539">
        <ele>1394</ele>
        <time>2016-07-17T11:41:52Z</time>
      </trkpt>
      <trkpt lat="46.7406" lon="6.35537">
        <ele>1395</ele>
        <time>2016-07-17T11:41:56Z</time>
      </trkpt>
      <trkpt lat="46.74087" lon="6.35544">
        <ele>1396</ele>
        <time>2016-07-17T11:42:01Z</time>
      </trkpt>
      <trkpt lat="46.74101" lon="6.35546">
        <ele>1396</ele>
        <time>2016-07-17T11:42:05Z</time>
      </trkpt>
      <trkpt lat="46.74117" lon="6.35554">
        <ele>1395</ele>
        <time>2016-07-17T11:42:10Z</time>
      </trkpt>
      <trkpt lat="46.74128" lon="6.35562">
        <ele>1395</ele>
        <time>2016-07-17T11:42:15Z</time>
      </trkpt>
      <trkpt lat="46.74134" lon="6.35575">
        <ele>1395</ele>
        <time>2016-07-17T11:42:19Z</time>
      </trkpt>
      <trkpt lat="46.74133" lon="6.35588">
        <ele>1368</ele>
        <time>2016-07-17T11:42:55Z</time>
      </trkpt>
      <trkpt lat="46.74136" lon="6.3558">
        <ele>1395</ele>
        <time>2016-07-17T11:47:50Z</time>
      </trkpt>
      <trkpt lat="46.74159" lon="6.35587">
        <ele>1383</ele>
        <time>2016-07-17T11:47:54Z</time>
      </trkpt>
      <trkpt lat="46.74175" lon="6.35606">
        <ele>1384</ele>
        <time>2016-07-17T11:47:57Z</time>
      </trkpt>
      <trkpt lat="46.74202" lon="6.35609">
        <ele>1382</ele>
        <time>2016-07-17T11:48:01Z</time>
      </trkpt>
      <trkpt lat="46.74219" lon="6.35605">
        <ele>1384</ele>
        <time>2016-07-17T11:48:05Z</time>
      </trkpt>
      <trkpt lat="46.74233" lon="6.35603">
        <ele>1386</ele>
        <time>2016-07-17T11:48:10Z</time>
      </trkpt>
      <trkpt lat="46.74243" lon="6.35603">
        <ele>1387</ele>
        <time>2016-07-17T11:48:14Z</time>
      </trkpt>
      <trkpt lat="46.74258" lon="6.35609">
        <ele>1389</ele>
        <time>2016-07-17T11:48:19Z</time>
      </trkpt>
      <trkpt lat="46.74268" lon="6.35617">
        <ele>1388</ele>
        <time>2016-07-17T11:48:24Z</time>
      </trkpt>
      <trkpt lat="46.74274" lon="6.35629">
        <ele>1387</ele>
        <time>2016-07-17T11:48:28Z</time>
      </trkpt>
      <trkpt lat="46.74279" lon="6.35644">
        <ele>1387</ele>
        <time>2016-07-17T11:48:33Z</time>
      </trkpt>
      <trkpt lat="46.74282" lon="6.35661">
        <ele>1386</ele>
        <time>2016-07-17T11:48:37Z</time>
      </trkpt>
      <trkpt lat="46.74296" lon="6.35689">
        <ele>1378</ele>
        <time>2016-07-17T11:48:42Z</time>
      </trkpt>
      <trkpt lat="46.74313" lon="6.35706">
        <ele>1378</ele>
        <time>2016-07-17T11:48:46Z</time>
      </trkpt>
      <trkpt lat="46.74331" lon="6.35726">
        <ele>1379</ele>
        <time>2016-07-17T11:48:50Z</time>
      </trkpt>
      <trkpt lat="46.74349" lon="6.35749">
        <ele>1384</ele>
        <time>2016-07-17T11:48:54Z</time>
      </trkpt>
      <trkpt lat="46.7436" lon="6.35742">
        <ele>1384</ele>
        <time>2016-07-17T11:48:59Z</time>
      </trkpt>
      <trkpt lat="46.74369" lon="6.35734">
        <ele>1385</ele>
        <time>2016-07-17T11:49:03Z</time>
      </trkpt>
      <trkpt lat="46.74387" lon="6.35757">
        <ele>1377</ele>
        <time>2016-07-17T11:49:08Z</time>
      </trkpt>
      <trkpt lat="46.74403" lon="6.3578">
        <ele>1375</ele>
        <time>2016-07-17T11:49:12Z</time>
      </trkpt>
      <trkpt lat="46.74428" lon="6.35788">
        <ele>1382</ele>
        <time>2016-07-17T11:49:17Z</time>
      </trkpt>
      <trkpt lat="46.74452" lon="6.35806">
        <ele>1381</ele>
        <time>2016-07-17T11:49:21Z</time>
      </trkpt>
      <trkpt lat="46.74482" lon="6.35831">
        <ele>1382</ele>
        <time>2016-07-17T11:49:26Z</time>
      </trkpt>
      <trkpt lat="46.74498" lon="6.35816">
        <ele>1383</ele>
        <time>2016-07-17T11:49:30Z</time>
      </trkpt>
      <trkpt lat="46.74509" lon="6.35817">
        <ele>1381</ele>
        <time>2016-07-17T11:49:35Z</time>
      </trkpt>
      <trkpt lat="46.74515" lon="6.35823">
        <ele>1381</ele>
        <time>2016-07-17T11:49:40Z</time>
      </trkpt>
      <trkpt lat="46.74524" lon="6.35831">
        <ele>1380</ele>
        <time>2016-07-17T11:49:44Z</time>
      </trkpt>
      <trkpt lat="46.74548" lon="6.3585">
        <ele>1373</ele>
        <time>2016-07-17T11:49:48Z</time>
      </trkpt>
      <trkpt lat="46.74575" lon="6.35876">
        <ele>1371</ele>
        <time>2016-07-17T11:49:53Z</time>
      </trkpt>
      <trkpt lat="46.74595" lon="6.35885">
        <ele>1368</ele>
        <time>2016-07-17T11:49:57Z</time>
      </trkpt>
      <trkpt lat="46.74614" lon="6.35875">
        <ele>1368</ele>
        <time>2016-07-17T11:50:00Z</time>
      </trkpt>
      <trkpt lat="46.74639" lon="6.35862">
        <ele>1366</ele>
        <time>2016-07-17T11:50:05Z</time>
      </trkpt>
      <trkpt lat="46.74661" lon="6.35869">
        <ele>1366</ele>
        <time>2016-07-17T11:50:09Z</time>
      </trkpt>
      <trkpt lat="46.74674" lon="6.3587">
        <ele>1358</ele>
        <time>2016-07-17T11:50:13Z</time>
      </trkpt>
      <trkpt lat="46.74693" lon="6.35874">
        <ele>1357</ele>
        <time>2016-07-17T11:50:18Z</time>
      </trkpt>
      <trkpt lat="46.74705" lon="6.35869">
        <ele>1356</ele>
        <time>2016-07-17T11:50:22Z</time>
      </trkpt>
      <trkpt lat="46.74725" lon="6.3585">
        <ele>1353</ele>
        <time>2016-07-17T11:50:27Z</time>
      </trkpt>
      <trkpt lat="46.74733" lon="6.35818">
        <ele>1352</ele>
        <time>2016-07-17T11:50:32Z</time>
      </trkpt>
      <trkpt lat="46.74743" lon="6.358">
        <ele>1352</ele>
        <time>2016-07-17T11:50:36Z</time>
      </trkpt>
      <trkpt lat="46.74752" lon="6.35784">
        <ele>1345</ele>
        <time>2016-07-17T11:50:40Z</time>
      </trkpt>
      <trkpt lat="46.7476" lon="6.35776">
        <ele>1345</ele>
        <time>2016-07-17T11:50:44Z</time>
      </trkpt>
      <trkpt lat="46.74768" lon="6.35771">
        <ele>1345</ele>
        <time>2016-07-17T11:50:53Z</time>
      </trkpt>
      <trkpt lat="46.7477" lon="6.35752">
        <ele>1346</ele>
        <time>2016-07-17T11:50:58Z</time>
      </trkpt>
      <trkpt lat="46.74777" lon="6.35749">
        <ele>1347</ele>
        <time>2016-07-17T11:51:01Z</time>
      </trkpt>
      <trkpt lat="46.74792" lon="6.35744">
        <ele>1346</ele>
        <time>2016-07-17T11:51:06Z</time>
      </trkpt>
      <trkpt lat="46.74804" lon="6.35735">
        <ele>1346</ele>
        <time>2016-07-17T11:51:10Z</time>
      </trkpt>
      <trkpt lat="46.74814" lon="6.35722">
        <ele>1346</ele>
        <time>2016-07-17T11:51:14Z</time>
      </trkpt>
      <trkpt lat="46.74829" lon="6.3571">
        <ele>1346</ele>
        <time>2016-07-17T11:51:19Z</time>
      </trkpt>
      <trkpt lat="46.74835" lon="6.35705">
        <ele>1348</ele>
        <time>2016-07-17T11:51:23Z</time>
      </trkpt>
      <trkpt lat="46.74856" lon="6.35691">
        <ele>1349</ele>
        <time>2016-07-17T11:51:27Z</time>
      </trkpt>
      <trkpt lat="46.74871" lon="6.35679">
        <ele>1350</ele>
        <time>2016-07-17T11:51:32Z</time>
      </trkpt>
      <trkpt lat="46.74878" lon="6.35666">
        <ele>1353</ele>
        <time>2016-07-17T11:51:36Z</time>
      </trkpt>
      <trkpt lat="46.7488" lon="6.35646">
        <ele>1354</ele>
        <time>2016-07-17T11:51:41Z</time>
      </trkpt>
      <trkpt lat="46.74873" lon="6.35616">
        <ele>1353</ele>
        <time>2016-07-17T11:51:46Z</time>
      </trkpt>
      <trkpt lat="46.7486" lon="6.3559">
        <ele>1352</ele>
        <time>2016-07-17T11:51:51Z</time>
      </trkpt>
      <trkpt lat="46.74851" lon="6.35569">
        <ele>1352</ele>
        <time>2016-07-17T11:51:55Z</time>
      </trkpt>
      <trkpt lat="46.74842" lon="6.35545">
        <ele>1352</ele>
        <time>2016-07-17T11:52:00Z</time>
      </trkpt>
      <trkpt lat="46.7483" lon="6.35517">
        <ele>1343</ele>
        <time>2016-07-17T11:52:05Z</time>
      </trkpt>
      <trkpt lat="46.74838" lon="6.35524">
        <ele>1351</ele>
        <time>2016-07-17T11:52:15Z</time>
      </trkpt>
      <trkpt lat="46.74851" lon="6.35531">
        <ele>1353</ele>
        <time>2016-07-17T11:52:20Z</time>
      </trkpt>
      <trkpt lat="46.74863" lon="6.35543">
        <ele>1354</ele>
        <time>2016-07-17T11:52:25Z</time>
      </trkpt>
      <trkpt lat="46.74872" lon="6.35552">
        <ele>1355</ele>
        <time>2016-07-17T11:52:29Z</time>
      </trkpt>
      <trkpt lat="46.74879" lon="6.35561">
        <ele>1355</ele>
        <time>2016-07-17T11:52:34Z</time>
      </trkpt>
      <trkpt lat="46.74885" lon="6.35566">
        <ele>1356</ele>
        <time>2016-07-17T11:52:41Z</time>
      </trkpt>
      <trkpt lat="46.74892" lon="6.35573">
        <ele>1357</ele>
        <time>2016-07-17T11:52:47Z</time>
      </trkpt>
      <trkpt lat="46.74901" lon="6.35573">
        <ele>1357</ele>
        <time>2016-07-17T11:53:05Z</time>
      </trkpt>
      <trkpt lat="46.74907" lon="6.35579">
        <ele>1358</ele>
        <time>2016-07-17T11:53:39Z</time>
      </trkpt>
      <trkpt lat="46.74918" lon="6.35579">
        <ele>1362</ele>
        <time>2016-07-17T11:53:44Z</time>
      </trkpt>
      <trkpt lat="46.74926" lon="6.35578">
        <ele>1364</ele>
        <time>2016-07-17T11:53:49Z</time>
      </trkpt>
      <trkpt lat="46.74934" lon="6.3558">
        <ele>1366</ele>
        <time>2016-07-17T11:53:54Z</time>
      </trkpt>
      <trkpt lat="46.74942" lon="6.35578">
        <ele>1368</ele>
        <time>2016-07-17T11:54:01Z</time>
      </trkpt>
      <trkpt lat="46.74949" lon="6.35573">
        <ele>1369</ele>
        <time>2016-07-17T11:54:06Z</time>
      </trkpt>
      <trkpt lat="46.74956" lon="6.35566">
        <ele>1370</ele>
        <time>2016-07-17T11:54:13Z</time>
      </trkpt>
      <trkpt lat="46.74962" lon="6.35558">
        <ele>1371</ele>
        <time>2016-07-17T11:54:19Z</time>
      </trkpt>
      <trkpt lat="46.74969" lon="6.3555">
        <ele>1372</ele>
        <time>2016-07-17T11:54:26Z</time>
      </trkpt>
      <trkpt lat="46.74973" lon="6.35539">
        <ele>1373</ele>
        <time>2016-07-17T11:54:34Z</time>
      </trkpt>
      <trkpt lat="46.74978" lon="6.3553">
        <ele>1375</ele>
        <time>2016-07-17T11:54:40Z</time>
      </trkpt>
      <trkpt lat="46.74982" lon="6.3552">
        <ele>1376</ele>
        <time>2016-07-17T11:54:46Z</time>
      </trkpt>
      <trkpt lat="46.74986" lon="6.35508">
        <ele>1379</ele>
        <time>2016-07-17T11:54:53Z</time>
      </trkpt>
      <trkpt lat="46.74991" lon="6.35499">
        <ele>1384</ele>
        <time>2016-07-17T11:55:15Z</time>
      </trkpt>
      <trkpt lat="46.74997" lon="6.35489">
        <ele>1384</ele>
        <time>2016-07-17T11:55:26Z</time>
      </trkpt>
      <trkpt lat="46.75002" lon="6.3548">
        <ele>1391</ele>
        <time>2016-07-17T11:55:46Z</time>
      </trkpt>
      <trkpt lat="46.7501" lon="6.35475">
        <ele>1392</ele>
        <time>2016-07-17T11:55:56Z</time>
      </trkpt>
      <trkpt lat="46.75013" lon="6.35462">
        <ele>1394</ele>
        <time>2016-07-17T11:56:10Z</time>
      </trkpt>
      <trkpt lat="46.75017" lon="6.35451">
        <ele>1395</ele>
        <time>2016-07-17T11:56:27Z</time>
      </trkpt>
      <trkpt lat="46.75025" lon="6.35452">
        <ele>1395</ele>
        <time>2016-07-17T11:57:01Z</time>
      </trkpt>
      <trkpt lat="46.75034" lon="6.35454">
        <ele>1396</ele>
        <time>2016-07-17T11:57:13Z</time>
      </trkpt>
      <trkpt lat="46.75041" lon="6.35452">
        <ele>1396</ele>
        <time>2016-07-17T11:57:26Z</time>
      </trkpt>
      <trkpt lat="46.75048" lon="6.35445">
        <ele>1397</ele>
        <time>2016-07-17T11:57:32Z</time>
      </trkpt>
      <trkpt lat="46.75054" lon="6.35438">
        <ele>1399</ele>
        <time>2016-07-17T11:57:36Z</time>
      </trkpt>
      <trkpt lat="46.7506" lon="6.3543">
        <ele>1400</ele>
        <time>2016-07-17T11:57:42Z</time>
      </trkpt>
      <trkpt lat="46.75066" lon="6.3542">
        <ele>1402</ele>
        <time>2016-07-17T11:57:46Z</time>
      </trkpt>
      <trkpt lat="46.75073" lon="6.35413">
        <ele>1406</ele>
        <time>2016-07-17T11:57:53Z</time>
      </trkpt>
      <trkpt lat="46.75081" lon="6.35407">
        <ele>1407</ele>
        <time>2016-07-17T11:57:59Z</time>
      </trkpt>
      <trkpt lat="46.75088" lon="6.354">
        <ele>1406</ele>
        <time>2016-07-17T11:58:08Z</time>
      </trkpt>
      <trkpt lat="46.75094" lon="6.35392">
        <ele>1406</ele>
        <time>2016-07-17T11:58:14Z</time>
      </trkpt>
      <trkpt lat="46.75095" lon="6.3538">
        <ele>1405</ele>
        <time>2016-07-17T11:58:22Z</time>
      </trkpt>
      <trkpt lat="46.75093" lon="6.35368">
        <ele>1406</ele>
        <time>2016-07-17T11:58:29Z</time>
      </trkpt>
      <trkpt lat="46.75093" lon="6.35356">
        <ele>1406</ele>
        <time>2016-07-17T11:58:35Z</time>
      </trkpt>
      <trkpt lat="46.75088" lon="6.35347">
        <ele>1408</ele>
        <time>2016-07-17T12:02:49Z</time>
      </trkpt>
      <trkpt lat="46.75097" lon="6.35349">
        <ele>1407</ele>
        <time>2016-07-17T12:03:24Z</time>
      </trkpt>
      <trkpt lat="46.75106" lon="6.35349">
        <ele>1406</ele>
        <time>2016-07-17T12:03:28Z</time>
      </trkpt>
      <trkpt lat="46.75113" lon="6.35343">
        <ele>1405</ele>
        <time>2016-07-17T12:03:33Z</time>
      </trkpt>
      <trkpt lat="46.75121" lon="6.35338">
        <ele>1404</ele>
        <time>2016-07-17T12:03:39Z</time>
      </trkpt>
      <trkpt lat="46.75128" lon="6.35321">
        <ele>1403</ele>
        <time>2016-07-17T12:03:44Z</time>
      </trkpt>
      <trkpt lat="46.75159" lon="6.35343">
        <ele>1400</ele>
        <time>2016-07-17T12:03:49Z</time>
      </trkpt>
      <trkpt lat="46.7516" lon="6.35379">
        <ele>1401</ele>
        <time>2016-07-17T12:03:53Z</time>
      </trkpt>
      <trkpt lat="46.75168" lon="6.35375">
        <ele>1390</ele>
        <time>2016-07-17T12:03:59Z</time>
      </trkpt>
      <trkpt lat="46.75174" lon="6.35349">
        <ele>1392</ele>
        <time>2016-07-17T12:04:03Z</time>
      </trkpt>
      <trkpt lat="46.75185" lon="6.35389">
        <ele>1388</ele>
        <time>2016-07-17T12:04:08Z</time>
      </trkpt>
      <trkpt lat="46.75184" lon="6.35432">
        <ele>1387</ele>
        <time>2016-07-17T12:04:12Z</time>
      </trkpt>
      <trkpt lat="46.75197" lon="6.35473">
        <ele>1383</ele>
        <time>2016-07-17T12:04:16Z</time>
      </trkpt>
      <trkpt lat="46.752" lon="6.35533">
        <ele>1381</ele>
        <time>2016-07-17T12:04:21Z</time>
      </trkpt>
      <trkpt lat="46.75229" lon="6.35546">
        <ele>1379</ele>
        <time>2016-07-17T12:04:25Z</time>
      </trkpt>
      <trkpt lat="46.75267" lon="6.35568">
        <ele>1372</ele>
        <time>2016-07-17T12:04:30Z</time>
      </trkpt>
      <trkpt lat="46.75284" lon="6.35593">
        <ele>1370</ele>
        <time>2016-07-17T12:04:34Z</time>
      </trkpt>
      <trkpt lat="46.75304" lon="6.35616">
        <ele>1367</ele>
        <time>2016-07-17T12:04:38Z</time>
      </trkpt>
      <trkpt lat="46.75319" lon="6.35639">
        <ele>1366</ele>
        <time>2016-07-17T12:04:43Z</time>
      </trkpt>
      <trkpt lat="46.75326" lon="6.35618">
        <ele>1365</ele>
        <time>2016-07-17T12:04:47Z</time>
      </trkpt>
      <trkpt lat="46.75339" lon="6.35641">
        <ele>1352</ele>
        <time>2016-07-17T12:04:52Z</time>
      </trkpt>
      <trkpt lat="46.75345" lon="6.35631">
        <ele>1350</ele>
        <time>2016-07-17T12:04:56Z</time>
      </trkpt>
      <trkpt lat="46.75359" lon="6.35647">
        <ele>1349</ele>
        <time>2016-07-17T12:05:00Z</time>
      </trkpt>
      <trkpt lat="46.75369" lon="6.35657">
        <ele>1347</ele>
        <time>2016-07-17T12:05:05Z</time>
      </trkpt>
      <trkpt lat="46.75386" lon="6.35661">
        <ele>1343</ele>
        <time>2016-07-17T12:05:10Z</time>
      </trkpt>
      <trkpt lat="46.75416" lon="6.35654">
        <ele>1336</ele>
        <time>2016-07-17T12:05:14Z</time>
      </trkpt>
      <trkpt lat="46.75451" lon="6.35622">
        <ele>1326</ele>
        <time>2016-07-17T12:05:19Z</time>
      </trkpt>
      <trkpt lat="46.75469" lon="6.35612">
        <ele>1325</ele>
        <time>2016-07-17T12:05:24Z</time>
      </trkpt>
      <trkpt lat="46.75476" lon="6.3561">
        <ele>1325</ele>
        <time>2016-07-17T12:05:29Z</time>
      </trkpt>
      <trkpt lat="46.75488" lon="6.35604">
        <ele>1326</ele>
        <time>2016-07-17T12:05:33Z</time>
      </trkpt>
      <trkpt lat="46.75504" lon="6.35595">
        <ele>1322</ele>
        <time>2016-07-17T12:05:36Z</time>
      </trkpt>
      <trkpt lat="46.75526" lon="6.35573">
        <ele>1324</ele>
        <time>2016-07-17T12:05:41Z</time>
      </trkpt>
      <trkpt lat="46.75542" lon="6.3558">
        <ele>1323</ele>
        <time>2016-07-17T12:05:44Z</time>
      </trkpt>
      <trkpt lat="46.75573" lon="6.35584">
        <ele>1318</ele>
        <time>2016-07-17T12:05:48Z</time>
      </trkpt>
      <trkpt lat="46.75608" lon="6.3557">
        <ele>1314</ele>
        <time>2016-07-17T12:05:53Z</time>
      </trkpt>
      <trkpt lat="46.75623" lon="6.35553">
        <ele>1312</ele>
        <time>2016-07-17T12:05:57Z</time>
      </trkpt>
      <trkpt lat="46.75647" lon="6.35535">
        <ele>1311</ele>
        <time>2016-07-17T12:06:02Z</time>
      </trkpt>
      <trkpt lat="46.75687" lon="6.35506">
        <ele>1305</ele>
        <time>2016-07-17T12:06:06Z</time>
      </trkpt>
      <trkpt lat="46.75716" lon="6.35506">
        <ele>1302</ele>
        <time>2016-07-17T12:06:10Z</time>
      </trkpt>
      <trkpt lat="46.75754" lon="6.35534">
        <ele>1293</ele>
        <time>2016-07-17T12:06:14Z</time>
      </trkpt>
      <trkpt lat="46.75778" lon="6.3556">
        <ele>1291</ele>
        <time>2016-07-17T12:06:19Z</time>
      </trkpt>
      <trkpt lat="46.75807" lon="6.35559">
        <ele>1289</ele>
        <time>2016-07-17T12:06:23Z</time>
      </trkpt>
      <trkpt lat="46.75822" lon="6.35535">
        <ele>1289</ele>
        <time>2016-07-17T12:06:28Z</time>
      </trkpt>
      <trkpt lat="46.75847" lon="6.35538">
        <ele>1281</ele>
        <time>2016-07-17T12:06:32Z</time>
      </trkpt>
      <trkpt lat="46.75872" lon="6.35555">
        <ele>1278</ele>
        <time>2016-07-17T12:06:36Z</time>
      </trkpt>
      <trkpt lat="46.75902" lon="6.35592">
        <ele>1272</ele>
        <time>2016-07-17T12:06:41Z</time>
      </trkpt>
      <trkpt lat="46.75934" lon="6.35615">
        <ele>1265</ele>
        <time>2016-07-17T12:06:46Z</time>
      </trkpt>
      <trkpt lat="46.75947" lon="6.35644">
        <ele>1263</ele>
        <time>2016-07-17T12:06:50Z</time>
      </trkpt>
      <trkpt lat="46.75959" lon="6.3567">
        <ele>1257</ele>
        <time>2016-07-17T12:06:53Z</time>
      </trkpt>
      <trkpt lat="46.75978" lon="6.35688">
        <ele>1256</ele>
        <time>2016-07-17T12:06:57Z</time>
      </trkpt>
      <trkpt lat="46.75991" lon="6.35688">
        <ele>1256</ele>
        <time>2016-07-17T12:07:02Z</time>
      </trkpt>
      <trkpt lat="46.76003" lon="6.35687">
        <ele>1250</ele>
        <time>2016-07-17T12:07:06Z</time>
      </trkpt>
      <trkpt lat="46.76021" lon="6.35699">
        <ele>1247</ele>
        <time>2016-07-17T12:07:10Z</time>
      </trkpt>
      <trkpt lat="46.76036" lon="6.35705">
        <ele>1244</ele>
        <time>2016-07-17T12:07:14Z</time>
      </trkpt>
      <trkpt lat="46.76056" lon="6.35728">
        <ele>1241</ele>
        <time>2016-07-17T12:07:18Z</time>
      </trkpt>
      <trkpt lat="46.76071" lon="6.35754">
        <ele>1236</ele>
        <time>2016-07-17T12:07:22Z</time>
      </trkpt>
      <trkpt lat="46.76077" lon="6.35764">
        <ele>1236</ele>
        <time>2016-07-17T12:07:23Z</time>
      </trkpt>
      <trkpt lat="46.7609" lon="6.35812">
        <ele>1220</ele>
        <time>2016-07-17T12:07:29Z</time>
      </trkpt>
      <trkpt lat="46.76105" lon="6.35844">
        <ele>1217</ele>
        <time>2016-07-17T12:07:33Z</time>
      </trkpt>
      <trkpt lat="46.76105" lon="6.35886">
        <ele>1213</ele>
        <time>2016-07-17T12:07:38Z</time>
      </trkpt>
      <trkpt lat="46.76096" lon="6.35917">
        <ele>1216</ele>
        <time>2016-07-17T12:07:42Z</time>
      </trkpt>
      <trkpt lat="46.76104" lon="6.35938">
        <ele>1209</ele>
        <time>2016-07-17T12:07:46Z</time>
      </trkpt>
      <trkpt lat="46.76114" lon="6.35962">
        <ele>1204</ele>
        <time>2016-07-17T12:07:50Z</time>
      </trkpt>
      <trkpt lat="46.76123" lon="6.35992">
        <ele>1202</ele>
        <time>2016-07-17T12:07:54Z</time>
      </trkpt>
      <trkpt lat="46.76118" lon="6.36036">
        <ele>1195</ele>
        <time>2016-07-17T12:07:59Z</time>
      </trkpt>
      <trkpt lat="46.76115" lon="6.36048">
        <ele>1195</ele>
        <time>2016-07-17T12:08:57Z</time>
      </trkpt>
      <trkpt lat="46.76112" lon="6.36056">
        <ele>1195</ele>
        <time>2016-07-17T12:09:00Z</time>
      </trkpt>
      <trkpt lat="46.7611" lon="6.36079">
        <ele>1195</ele>
        <time>2016-07-17T12:09:04Z</time>
      </trkpt>
      <trkpt lat="46.76112" lon="6.36116">
        <ele>1190</ele>
        <time>2016-07-17T12:09:08Z</time>
      </trkpt>
      <trkpt lat="46.76117" lon="6.36165">
        <ele>1190</ele>
        <time>2016-07-17T12:09:12Z</time>
      </trkpt>
      <trkpt lat="46.76124" lon="6.36205">
        <ele>1191</ele>
        <time>2016-07-17T12:09:17Z</time>
      </trkpt>
      <trkpt lat="46.76131" lon="6.36234">
        <ele>1192</ele>
        <time>2016-07-17T12:09:21Z</time>
      </trkpt>
      <trkpt lat="46.76125" lon="6.36278">
        <ele>1197</ele>
        <time>2016-07-17T12:09:26Z</time>
      </trkpt>
      <trkpt lat="46.76121" lon="6.36314">
        <ele>1198</ele>
        <time>2016-07-17T12:09:30Z</time>
      </trkpt>
      <trkpt lat="46.76102" lon="6.36366">
        <ele>1199</ele>
        <time>2016-07-17T12:09:35Z</time>
      </trkpt>
      <trkpt lat="46.76107" lon="6.36408">
        <ele>1199</ele>
        <time>2016-07-17T12:09:39Z</time>
      </trkpt>
      <trkpt lat="46.7611" lon="6.36433">
        <ele>1195</ele>
        <time>2016-07-17T12:09:42Z</time>
      </trkpt>
      <trkpt lat="46.76089" lon="6.36458">
        <ele>1193</ele>
        <time>2016-07-17T12:09:46Z</time>
      </trkpt>
      <trkpt lat="46.76076" lon="6.36434">
        <ele>1189</ele>
        <time>2016-07-17T12:09:51Z</time>
      </trkpt>
      <trkpt lat="46.76059" lon="6.3639">
        <ele>1187</ele>
        <time>2016-07-17T12:09:56Z</time>
      </trkpt>
      <trkpt lat="46.76052" lon="6.36395">
        <ele>1186</ele>
        <time>2016-07-17T12:10:02Z</time>
      </trkpt>
      <trkpt lat="46.76051" lon="6.36434">
        <ele>1184</ele>
        <time>2016-07-17T12:10:06Z</time>
      </trkpt>
      <trkpt lat="46.76056" lon="6.36447">
        <ele>1184</ele>
        <time>2016-07-17T12:10:10Z</time>
      </trkpt>
      <trkpt lat="46.76081" lon="6.36503">
        <ele>1184</ele>
        <time>2016-07-17T12:10:14Z</time>
      </trkpt>
      <trkpt lat="46.76088" lon="6.36512">
        <ele>1183</ele>
        <time>2016-07-17T12:10:19Z</time>
      </trkpt>
      <trkpt lat="46.76076" lon="6.36503">
        <ele>1182</ele>
        <time>2016-07-17T12:10:23Z</time>
      </trkpt>
      <trkpt lat="46.76058" lon="6.36479">
        <ele>1183</ele>
        <time>2016-07-17T12:10:27Z</time>
      </trkpt>
      <trkpt lat="46.76032" lon="6.36449">
        <ele>1181</ele>
        <time>2016-07-17T12:10:32Z</time>
      </trkpt>
      <trkpt lat="46.76029" lon="6.36459">
        <ele>1180</ele>
        <time>2016-07-17T12:10:38Z</time>
      </trkpt>
      <trkpt lat="46.76045" lon="6.365">
        <ele>1175</ele>
        <time>2016-07-17T12:10:42Z</time>
      </trkpt>
      <trkpt lat="46.76061" lon="6.36509">
        <ele>1177</ele>
        <time>2016-07-17T12:10:47Z</time>
      </trkpt>
      <trkpt lat="46.76062" lon="6.36521">
        <ele>1176</ele>
        <time>2016-07-17T12:10:56Z</time>
      </trkpt>
      <trkpt lat="46.76069" lon="6.36534">
        <ele>1175</ele>
        <time>2016-07-17T12:11:00Z</time>
      </trkpt>
      <trkpt lat="46.76079" lon="6.36542">
        <ele>1174</ele>
        <time>2016-07-17T12:11:04Z</time>
      </trkpt>
      <trkpt lat="46.76082" lon="6.36554">
        <ele>1172</ele>
        <time>2016-07-17T12:11:11Z</time>
      </trkpt>
      <trkpt lat="46.76079" lon="6.36584">
        <ele>1167</ele>
        <time>2016-07-17T12:11:16Z</time>
      </trkpt>
      <trkpt lat="46.76092" lon="6.36608">
        <ele>1162</ele>
        <time>2016-07-17T12:11:21Z</time>
      </trkpt>
      <trkpt lat="46.76105" lon="6.36619">
        <ele>1161</ele>
        <time>2016-07-17T12:11:24Z</time>
      </trkpt>
      <trkpt lat="46.76114" lon="6.3662">
        <ele>1160</ele>
        <time>2016-07-17T12:11:29Z</time>
      </trkpt>
      <trkpt lat="46.76127" lon="6.36622">
        <ele>1160</ele>
        <time>2016-07-17T12:11:33Z</time>
      </trkpt>
      <trkpt lat="46.76139" lon="6.36621">
        <ele>1160</ele>
        <time>2016-07-17T12:11:37Z</time>
      </trkpt>
      <trkpt lat="46.7615" lon="6.36618">
        <ele>1161</ele>
        <time>2016-07-17T12:11:41Z</time>
      </trkpt>
      <trkpt lat="46.76161" lon="6.36607">
        <ele>1163</ele>
        <time>2016-07-17T12:11:45Z</time>
      </trkpt>
      <trkpt lat="46.76171" lon="6.36595">
        <ele>1162</ele>
        <time>2016-07-17T12:11:50Z</time>
      </trkpt>
      <trkpt lat="46.76186" lon="6.36581">
        <ele>1166</ele>
        <time>2016-07-17T12:11:54Z</time>
      </trkpt>
      <trkpt lat="46.76195" lon="6.36573">
        <ele>1164</ele>
        <time>2016-07-17T12:11:58Z</time>
      </trkpt>
      <trkpt lat="46.76209" lon="6.36564">
        <ele>1161</ele>
        <time>2016-07-17T12:12:03Z</time>
      </trkpt>
      <trkpt lat="46.76227" lon="6.36526">
        <ele>1161</ele>
        <time>2016-07-17T12:12:08Z</time>
      </trkpt>
      <trkpt lat="46.76242" lon="6.36499">
        <ele>1159</ele>
        <time>2016-07-17T12:12:12Z</time>
      </trkpt>
      <trkpt lat="46.76259" lon="6.36459">
        <ele>1144</ele>
        <time>2016-07-17T12:12:16Z</time>
      </trkpt>
      <trkpt lat="46.76269" lon="6.36439">
        <ele>1144</ele>
        <time>2016-07-17T12:12:21Z</time>
      </trkpt>
      <trkpt lat="46.76267" lon="6.36429">
        <ele>1147</ele>
        <time>2016-07-17T12:12:26Z</time>
      </trkpt>
      <trkpt lat="46.76264" lon="6.36416">
        <ele>1151</ele>
        <time>2016-07-17T12:13:03Z</time>
      </trkpt>
      <trkpt lat="46.76264" lon="6.36408">
        <ele>1151</ele>
        <time>2016-07-17T12:13:12Z</time>
      </trkpt>
      <trkpt lat="46.76271" lon="6.36383">
        <ele>1146</ele>
        <time>2016-07-17T12:13:16Z</time>
      </trkpt>
      <trkpt lat="46.76283" lon="6.36353">
        <ele>1144</ele>
        <time>2016-07-17T12:13:20Z</time>
      </trkpt>
      <trkpt lat="46.76288" lon="6.3633">
        <ele>1143</ele>
        <time>2016-07-17T12:13:24Z</time>
      </trkpt>
      <trkpt lat="46.76306" lon="6.36297">
        <ele>1138</ele>
        <time>2016-07-17T12:13:28Z</time>
      </trkpt>
      <trkpt lat="46.76316" lon="6.3627">
        <ele>1135</ele>
        <time>2016-07-17T12:13:32Z</time>
      </trkpt>
      <trkpt lat="46.76332" lon="6.36251">
        <ele>1127</ele>
        <time>2016-07-17T12:13:36Z</time>
      </trkpt>
      <trkpt lat="46.76344" lon="6.36231">
        <ele>1121</ele>
        <time>2016-07-17T12:13:41Z</time>
      </trkpt>
      <trkpt lat="46.76356" lon="6.36212">
        <ele>1119</ele>
        <time>2016-07-17T12:13:45Z</time>
      </trkpt>
      <trkpt lat="46.76366" lon="6.36191">
        <ele>1119</ele>
        <time>2016-07-17T12:13:50Z</time>
      </trkpt>
      <trkpt lat="46.76373" lon="6.36172">
        <ele>1118</ele>
        <time>2016-07-17T12:13:55Z</time>
      </trkpt>
      <trkpt lat="46.76375" lon="6.3616">
        <ele>1116</ele>
        <time>2016-07-17T12:14:00Z</time>
      </trkpt>
      <trkpt lat="46.7638" lon="6.36176">
        <ele>1117</ele>
        <time>2016-07-17T12:14:05Z</time>
      </trkpt>
      <trkpt lat="46.76389" lon="6.36183">
        <ele>1115</ele>
        <time>2016-07-17T12:14:09Z</time>
      </trkpt>
      <trkpt lat="46.76404" lon="6.36203">
        <ele>1114</ele>
        <time>2016-07-17T12:14:14Z</time>
      </trkpt>
      <trkpt lat="46.7641" lon="6.36231">
        <ele>1113</ele>
        <time>2016-07-17T12:14:18Z</time>
      </trkpt>
      <trkpt lat="46.76408" lon="6.3624">
        <ele>1112</ele>
        <time>2016-07-17T12:14:23Z</time>
      </trkpt>
      <trkpt lat="46.76412" lon="6.36256">
        <ele>1111</ele>
        <time>2016-07-17T12:14:27Z</time>
      </trkpt>
      <trkpt lat="46.76423" lon="6.36275">
        <ele>1103</ele>
        <time>2016-07-17T12:14:32Z</time>
      </trkpt>
      <trkpt lat="46.76434" lon="6.36268">
        <ele>1103</ele>
        <time>2016-07-17T12:14:36Z</time>
      </trkpt>
      <trkpt lat="46.76448" lon="6.36266">
        <ele>1101</ele>
        <time>2016-07-17T12:14:41Z</time>
      </trkpt>
      <trkpt lat="46.76456" lon="6.36272">
        <ele>1099</ele>
        <time>2016-07-17T12:14:44Z</time>
      </trkpt>
      <trkpt lat="46.76479" lon="6.36272">
        <ele>1096</ele>
        <time>2016-07-17T12:14:49Z</time>
      </trkpt>
      <trkpt lat="46.76492" lon="6.36267">
        <ele>1094</ele>
        <time>2016-07-17T12:14:52Z</time>
      </trkpt>
      <trkpt lat="46.765" lon="6.36262">
        <ele>1092</ele>
        <time>2016-07-17T12:14:56Z</time>
      </trkpt>
      <trkpt lat="46.76499" lon="6.36238">
        <ele>1090</ele>
        <time>2016-07-17T12:15:00Z</time>
      </trkpt>
      <trkpt lat="46.76504" lon="6.3623">
        <ele>1080</ele>
        <time>2016-07-17T12:15:24Z</time>
      </trkpt>
      <trkpt lat="46.76516" lon="6.36218">
        <ele>1077</ele>
        <time>2016-07-17T12:15:28Z</time>
      </trkpt>
      <trkpt lat="46.76529" lon="6.36208">
        <ele>1076</ele>
        <time>2016-07-17T12:15:32Z</time>
      </trkpt>
      <trkpt lat="46.7654" lon="6.36211">
        <ele>1075</ele>
        <time>2016-07-17T12:15:36Z</time>
      </trkpt>
      <trkpt lat="46.76545" lon="6.36201">
        <ele>1073</ele>
        <time>2016-07-17T12:15:55Z</time>
      </trkpt>
      <trkpt lat="46.76547" lon="6.36212">
        <ele>1074</ele>
        <time>2016-07-17T12:16:05Z</time>
      </trkpt>
      <trkpt lat="46.76548" lon="6.36224">
        <ele>1074</ele>
        <time>2016-07-17T12:16:09Z</time>
      </trkpt>
      <trkpt lat="46.76546" lon="6.36235">
        <ele>1075</ele>
        <time>2016-07-17T12:16:14Z</time>
      </trkpt>
      <trkpt lat="46.76546" lon="6.36247">
        <ele>1075</ele>
        <time>2016-07-17T12:16:19Z</time>
      </trkpt>
      <trkpt lat="46.76544" lon="6.3626">
        <ele>1081</ele>
        <time>2016-07-17T12:16:25Z</time>
      </trkpt>
      <trkpt lat="46.7654" lon="6.36269">
        <ele>1082</ele>
        <time>2016-07-17T12:16:29Z</time>
      </trkpt>
      <trkpt lat="46.76533" lon="6.36277">
        <ele>1082</ele>
        <time>2016-07-17T12:16:35Z</time>
      </trkpt>
      <trkpt lat="46.76526" lon="6.36284">
        <ele>1083</ele>
        <time>2016-07-17T12:16:41Z</time>
      </trkpt>
      <trkpt lat="46.76521" lon="6.36293">
        <ele>1084</ele>
        <time>2016-07-17T12:16:46Z</time>
      </trkpt>
      <trkpt lat="46.76516" lon="6.36303">
        <ele>1085</ele>
        <time>2016-07-17T12:16:51Z</time>
      </trkpt>
      <trkpt lat="46.76509" lon="6.3631">
        <ele>1087</ele>
        <time>2016-07-17T12:16:56Z</time>
      </trkpt>
      <trkpt lat="46.76505" lon="6.3632">
        <ele>1089</ele>
        <time>2016-07-17T12:17:01Z</time>
      </trkpt>
      <trkpt lat="46.765" lon="6.36329">
        <ele>1095</ele>
        <time>2016-07-17T12:17:07Z</time>
      </trkpt>
      <trkpt lat="46.76497" lon="6.3634">
        <ele>1096</ele>
        <time>2016-07-17T12:17:15Z</time>
      </trkpt>
      <trkpt lat="46.76495" lon="6.36352">
        <ele>1098</ele>
        <time>2016-07-17T12:17:22Z</time>
      </trkpt>
      <trkpt lat="46.76489" lon="6.36363">
        <ele>1099</ele>
        <time>2016-07-17T12:17:26Z</time>
      </trkpt>
      <trkpt lat="46.76479" lon="6.36372">
        <ele>1100</ele>
        <time>2016-07-17T12:17:31Z</time>
      </trkpt>
      <trkpt lat="46.76469" lon="6.36377">
        <ele>1100</ele>
        <time>2016-07-17T12:17:34Z</time>
      </trkpt>
      <trkpt lat="46.76461" lon="6.36371">
        <ele>1101</ele>
        <time>2016-07-17T12:17:39Z</time>
      </trkpt>
      <trkpt lat="46.76454" lon="6.36356">
        <ele>1101</ele>
        <time>2016-07-17T12:17:44Z</time>
      </trkpt>
      <trkpt lat="46.76452" lon="6.36337">
        <ele>1102</ele>
        <time>2016-07-17T12:17:49Z</time>
      </trkpt>
      <trkpt lat="46.7645" lon="6.36327">
        <ele>1101</ele>
        <time>2016-07-17T12:18:00Z</time>
      </trkpt>
      <trkpt lat="46.76465" lon="6.36295">
        <ele>1099</ele>
        <time>2016-07-17T12:18:05Z</time>
      </trkpt>
      <trkpt lat="46.76475" lon="6.36284">
        <ele>1097</ele>
        <time>2016-07-17T12:18:08Z</time>
      </trkpt>
      <trkpt lat="46.76486" lon="6.36271">
        <ele>1095</ele>
        <time>2016-07-17T12:18:13Z</time>
      </trkpt>
      <trkpt lat="46.76498" lon="6.36253">
        <ele>1089</ele>
        <time>2016-07-17T12:18:17Z</time>
      </trkpt>
      <trkpt lat="46.76504" lon="6.36231">
        <ele>1080</ele>
        <time>2016-07-17T12:18:21Z</time>
      </trkpt>
      <trkpt lat="46.76501" lon="6.36207">
        <ele>1077</ele>
        <time>2016-07-17T12:18:26Z</time>
      </trkpt>
      <trkpt lat="46.76509" lon="6.36208">
        <ele>1077</ele>
        <time>2016-07-17T12:18:30Z</time>
      </trkpt>
      <trkpt lat="46.7652" lon="6.36208">
        <ele>1076</ele>
        <time>2016-07-17T12:18:34Z</time>
      </trkpt>
      <trkpt lat="46.76548" lon="6.36206">
        <ele>1073</ele>
        <time>2016-07-17T12:18:38Z</time>
      </trkpt>
      <trkpt lat="46.76555" lon="6.36149">
        <ele>1067</ele>
        <time>2016-07-17T12:18:43Z</time>
      </trkpt>
      <trkpt lat="46.76556" lon="6.36117">
        <ele>1067</ele>
        <time>2016-07-17T12:18:47Z</time>
      </trkpt>
      <trkpt lat="46.76567" lon="6.36154">
        <ele>1065</ele>
        <time>2016-07-17T12:18:52Z</time>
      </trkpt>
      <trkpt lat="46.76573" lon="6.361">
        <ele>1062</ele>
        <time>2016-07-17T12:18:57Z</time>
      </trkpt>
      <trkpt lat="46.76588" lon="6.36048">
        <ele>1049</ele>
        <time>2016-07-17T12:19:01Z</time>
      </trkpt>
      <trkpt lat="46.76592" lon="6.36036">
        <ele>1049</ele>
        <time>2016-07-17T12:19:02Z</time>
      </trkpt>
      <trkpt lat="46.766" lon="6.35981">
        <ele>1047</ele>
        <time>2016-07-17T12:19:08Z</time>
      </trkpt>
      <trkpt lat="46.7658" lon="6.35951">
        <ele>1063</ele>
        <time>2016-07-17T12:19:12Z</time>
      </trkpt>
      <trkpt lat="46.76569" lon="6.35918">
        <ele>1058</ele>
        <time>2016-07-17T12:19:16Z</time>
      </trkpt>
      <trkpt lat="46.7658" lon="6.35868">
        <ele>1056</ele>
        <time>2016-07-17T12:19:21Z</time>
      </trkpt>
      <trkpt lat="46.76594" lon="6.35839">
        <ele>1041</ele>
        <time>2016-07-17T12:19:25Z</time>
      </trkpt>
      <trkpt lat="46.76612" lon="6.3581">
        <ele>1036</ele>
        <time>2016-07-17T12:19:29Z</time>
      </trkpt>
      <trkpt lat="46.76617" lon="6.35812">
        <ele>1035</ele>
        <time>2016-07-17T12:19:33Z</time>
      </trkpt>
      <trkpt lat="46.76647" lon="6.3582">
        <ele>1031</ele>
        <time>2016-07-17T12:19:38Z</time>
      </trkpt>
      <trkpt lat="46.76671" lon="6.35807">
        <ele>1024</ele>
        <time>2016-07-17T12:19:42Z</time>
      </trkpt>
      <trkpt lat="46.7668" lon="6.35783">
        <ele>1023</ele>
        <time>2016-07-17T12:19:46Z</time>
      </trkpt>
      <trkpt lat="46.76674" lon="6.35773">
        <ele>1023</ele>
        <time>2016-07-17T12:20:07Z</time>
      </trkpt>
      <trkpt lat="46.76667" lon="6.35765">
        <ele>1024</ele>
        <time>2016-07-17T12:20:11Z</time>
      </trkpt>
      <trkpt lat="46.76664" lon="6.35754">
        <ele>1026</ele>
        <time>2016-07-17T12:20:15Z</time>
      </trkpt>
      <trkpt lat="46.76676" lon="6.35747">
        <ele>1024</ele>
        <time>2016-07-17T12:20:19Z</time>
      </trkpt>
      <trkpt lat="46.76707" lon="6.35734">
        <ele>1022</ele>
        <time>2016-07-17T12:20:23Z</time>
      </trkpt>
      <trkpt lat="46.76746" lon="6.357">
        <ele>1021</ele>
        <time>2016-07-17T12:20:28Z</time>
      </trkpt>
      <trkpt lat="46.76768" lon="6.3568">
        <ele>1017</ele>
        <time>2016-07-17T12:20:32Z</time>
      </trkpt>
      <trkpt lat="46.76782" lon="6.35675">
        <ele>1016</ele>
        <time>2016-07-17T12:20:35Z</time>
      </trkpt>
      <trkpt lat="46.76788" lon="6.35667">
        <ele>1018</ele>
        <time>2016-07-17T12:21:10Z</time>
      </trkpt>
      <trkpt lat="46.76786" lon="6.35656">
        <ele>1018</ele>
        <time>2016-07-17T12:21:15Z</time>
      </trkpt>
      <trkpt lat="46.76788" lon="6.35642">
        <ele>1018</ele>
        <time>2016-07-17T12:21:20Z</time>
      </trkpt>
      <trkpt lat="46.76792" lon="6.35632">
        <ele>1018</ele>
        <time>2016-07-17T12:21:24Z</time>
      </trkpt>
      <trkpt lat="46.768" lon="6.35633">
        <ele>1018</ele>
        <time>2016-07-17T12:28:58Z</time>
      </trkpt>
      <trkpt lat="46.76809" lon="6.35645">
        <ele>1017</ele>
        <time>2016-07-17T12:29:02Z</time>
      </trkpt>
      <trkpt lat="46.7684" lon="6.35662">
        <ele>1012</ele>
        <time>2016-07-17T12:29:07Z</time>
      </trkpt>
      <trkpt lat="46.76862" lon="6.35666">
        <ele>1011</ele>
        <time>2016-07-17T12:29:12Z</time>
      </trkpt>
      <trkpt lat="46.76873" lon="6.35659">
        <ele>1010</ele>
        <time>2016-07-17T12:29:17Z</time>
      </trkpt>
      <trkpt lat="46.76889" lon="6.35636">
        <ele>1010</ele>
        <time>2016-07-17T12:29:21Z</time>
      </trkpt>
      <trkpt lat="46.769" lon="6.35623">
        <ele>1009</ele>
        <time>2016-07-17T12:29:24Z</time>
      </trkpt>
      <trkpt lat="46.76914" lon="6.35605">
        <ele>1009</ele>
        <time>2016-07-17T12:29:28Z</time>
      </trkpt>
      <trkpt lat="46.76925" lon="6.3559">
        <ele>1006</ele>
        <time>2016-07-17T12:29:32Z</time>
      </trkpt>
      <trkpt lat="46.7694" lon="6.35569">
        <ele>1006</ele>
        <time>2016-07-17T12:29:37Z</time>
      </trkpt>
      <trkpt lat="46.76952" lon="6.3555">
        <ele>1006</ele>
        <time>2016-07-17T12:29:41Z</time>
      </trkpt>
      <trkpt lat="46.76973" lon="6.35532">
        <ele>1005</ele>
        <time>2016-07-17T12:29:45Z</time>
      </trkpt>
      <trkpt lat="46.76999" lon="6.35517">
        <ele>1004</ele>
        <time>2016-07-17T12:29:49Z</time>
      </trkpt>
      <trkpt lat="46.77035" lon="6.35498">
        <ele>1001</ele>
        <time>2016-07-17T12:29:54Z</time>
      </trkpt>
      <trkpt lat="46.77066" lon="6.3548">
        <ele>1000</ele>
        <time>2016-07-17T12:29:58Z</time>
      </trkpt>
      <trkpt lat="46.77105" lon="6.35437">
        <ele>995</ele>
        <time>2016-07-17T12:30:03Z</time>
      </trkpt>
      <trkpt lat="46.77133" lon="6.35387">
        <ele>992</ele>
        <time>2016-07-17T12:30:07Z</time>
      </trkpt>
      <trkpt lat="46.77172" lon="6.35325">
        <ele>984</ele>
        <time>2016-07-17T12:30:12Z</time>
      </trkpt>
      <trkpt lat="46.77214" lon="6.35287">
        <ele>981</ele>
        <time>2016-07-17T12:30:16Z</time>
      </trkpt>
      <trkpt lat="46.7726" lon="6.3525">
        <ele>976</ele>
        <time>2016-07-17T12:30:20Z</time>
      </trkpt>
      <trkpt lat="46.77298" lon="6.35224">
        <ele>973</ele>
        <time>2016-07-17T12:30:24Z</time>
      </trkpt>
      <trkpt lat="46.77316" lon="6.35201">
        <ele>972</ele>
        <time>2016-07-17T12:30:28Z</time>
      </trkpt>
      <trkpt lat="46.77313" lon="6.35179">
        <ele>971</ele>
        <time>2016-07-17T12:30:32Z</time>
      </trkpt>
      <trkpt lat="46.77307" lon="6.35167">
        <ele>971</ele>
        <time>2016-07-17T12:30:36Z</time>
      </trkpt>
      <trkpt lat="46.77303" lon="6.35156">
        <ele>970</ele>
        <time>2016-07-17T12:30:40Z</time>
      </trkpt>
      <trkpt lat="46.77299" lon="6.35144">
        <ele>970</ele>
        <time>2016-07-17T12:30:45Z</time>
      </trkpt>
      <trkpt lat="46.77296" lon="6.35132">
        <ele>970</ele>
        <time>2016-07-17T12:30:50Z</time>
      </trkpt>
      <trkpt lat="46.77295" lon="6.35134">
        <ele>970</ele>
        <time>2016-07-17T12:37:35Z</time>
      </trkpt>
      <trkpt lat="46.77295" lon="6.35134">
        <ele>970</ele>
        <time>2016-07-17T12:37:36Z</time>
      </trkpt>
    </trkseg>
  </trk>
</gpx>